<?xml version="1.0" encoding="UTF-8"?>
<gpx version="1.1" creator="https://www.youtrack.es" xsi:schemaLocation="http://www.topografix.com/GPX/1/1 http://www.topografix.com/GPX/1/1/gpx.xsd http://www.garmin.com/xmlschemas/GpxExtensions/v3 http://www.garmin.com/xmlschemas/GpxExtensionsv3.xsd http://www.garmin.com/xmlschemas/TrackPointExtension/v1 http://www.garmin.com/xmlschemas/TrackPointExtensionv1.xsd" xmlns:gpxtpx="http://www.garmin.com/xmlschemas/TrackPointExtension/v1" xmlns:gpxx="http://www.garmin.com/xmlschemas/GpxExtensions/v3" xmlns:xsi="http://www.w3.org/2001/XMLSchema-instance">
  <metadata>
    <link href="https://www.youtrack.es">
      <text>YouTrack.es</text>
    </link>
    <time>2026-05-08T18:32:06Z</time>
  </metadata>
  <trk>
    <src>https://www.youtrack.es</src>
    <link href="https://www.youtrack.es/ruta/23343-12--takla-khola-piplang">
      <text>YouTrack.es</text>
    </link>
    <trkseg>
      <trkpt lat="29.67047388" lon="82.69237518">
        <ele>3776.0000</ele>
        <time>2010-01-01T00:00:00Z</time>
      </trkpt>
      <trkpt lat="29.67092135" lon="82.68816947">
        <ele>3883.0000</ele>
        <time>2010-01-01T00:02:27Z</time>
      </trkpt>
      <trkpt lat="29.67241287" lon="82.68267631">
        <ele>3947.0000</ele>
        <time>2010-01-01T00:05:47Z</time>
      </trkpt>
      <trkpt lat="29.67360608" lon="82.67872810">
        <ele>3998.0000</ele>
        <time>2010-01-01T00:08:12Z</time>
      </trkpt>
      <trkpt lat="29.67584330" lon="82.67366409">
        <ele>4209.0000</ele>
        <time>2010-01-01T00:11:30Z</time>
      </trkpt>
      <trkpt lat="29.67785675" lon="82.66774177">
        <ele>4395.0000</ele>
        <time>2010-01-01T00:15:11Z</time>
      </trkpt>
      <trkpt lat="29.68098871" lon="82.66181945">
        <ele>4495.0000</ele>
        <time>2010-01-01T00:19:12Z</time>
      </trkpt>
      <trkpt lat="29.68123223" lon="82.65855789">
        <ele>4391.0000</ele>
        <time>2010-01-01T00:21:06Z</time>
      </trkpt>
      <trkpt lat="29.68123223" lon="82.65615463">
        <ele>4412.0000</ele>
        <time>2010-01-01T00:22:30Z</time>
      </trkpt>
      <trkpt lat="29.68138137" lon="82.65100479">
        <ele>4696.0000</ele>
        <time>2010-01-01T00:25:29Z</time>
      </trkpt>
      <trkpt lat="29.68153050" lon="82.64671325">
        <ele>4832.0000</ele>
        <time>2010-01-01T00:27:58Z</time>
      </trkpt>
      <trkpt lat="29.68197792" lon="82.64293670">
        <ele>4944.0000</ele>
        <time>2010-01-01T00:30:11Z</time>
      </trkpt>
      <trkpt lat="29.68272360" lon="82.63967514">
        <ele>5088.0000</ele>
        <time>2010-01-01T00:32:08Z</time>
      </trkpt>
      <trkpt lat="29.68272360" lon="82.63778686">
        <ele>5133.0000</ele>
        <time>2010-01-01T00:33:14Z</time>
      </trkpt>
      <trkpt lat="29.68210725" lon="82.63675689">
        <ele>5056.0000</ele>
        <time>2010-01-01T00:33:57Z</time>
      </trkpt>
      <trkpt lat="29.68121242" lon="82.63529777">
        <ele>4955.0000</ele>
        <time>2010-01-01T00:34:59Z</time>
      </trkpt>
      <trkpt lat="29.67964646" lon="82.63375282">
        <ele>4851.0000</ele>
        <time>2010-01-01T00:36:22Z</time>
      </trkpt>
      <trkpt lat="29.67815504" lon="82.63263702">
        <ele>4823.0000</ele>
        <time>2010-01-01T00:37:33Z</time>
      </trkpt>
      <trkpt lat="29.67651445" lon="82.63109207">
        <ele>4815.0000</ele>
        <time>2010-01-01T00:38:58Z</time>
      </trkpt>
      <trkpt lat="29.67502299" lon="82.63023376">
        <ele>4787.0000</ele>
        <time>2010-01-01T00:40:05Z</time>
      </trkpt>
      <trkpt lat="29.67338235" lon="82.62886047">
        <ele>4673.0000</ele>
        <time>2010-01-01T00:41:26Z</time>
      </trkpt>
      <trkpt lat="29.67136881" lon="82.62731552">
        <ele>4584.0000</ele>
        <time>2010-01-01T00:43:03Z</time>
      </trkpt>
      <trkpt lat="29.66944961" lon="82.62491226">
        <ele>4566.0000</ele>
        <time>2010-01-01T00:44:56Z</time>
      </trkpt>
      <trkpt lat="29.66795804" lon="82.62199401">
        <ele>4540.0000</ele>
        <time>2010-01-01T00:46:54Z</time>
      </trkpt>
      <trkpt lat="29.66661561" lon="82.61890411">
        <ele>4503.0000</ele>
        <time>2010-01-01T00:48:54Z</time>
      </trkpt>
      <trkpt lat="29.66437818" lon="82.61478424">
        <ele>4433.0000</ele>
        <time>2010-01-01T00:51:43Z</time>
      </trkpt>
      <trkpt lat="29.66288654" lon="82.61186599">
        <ele>4366.0000</ele>
        <time>2010-01-01T00:53:41Z</time>
      </trkpt>
      <trkpt lat="29.66243904" lon="82.60740280">
        <ele>4183.0000</ele>
        <time>2010-01-01T00:56:17Z</time>
      </trkpt>
      <trkpt lat="29.66258821" lon="82.60276794">
        <ele>4076.0000</ele>
        <time>2010-01-01T00:58:59Z</time>
      </trkpt>
      <trkpt lat="29.66378153" lon="82.59899139">
        <ele>4071.0000</ele>
        <time>2010-01-01T01:01:19Z</time>
      </trkpt>
      <trkpt lat="29.66497484" lon="82.59418487">
        <ele>4026.0000</ele>
        <time>2010-01-01T01:04:12Z</time>
      </trkpt>
      <trkpt lat="29.66542232" lon="82.59246826">
        <ele>4033.0000</ele>
        <time>2010-01-01T01:05:15Z</time>
      </trkpt>
      <trkpt lat="29.66572064" lon="82.58972167">
        <ele>4018.0000</ele>
        <time>2010-01-01T01:06:51Z</time>
      </trkpt>
      <trkpt lat="29.66586981" lon="82.58955001">
        <ele>4020.0000</ele>
        <time>2010-01-01T00:00:00Z</time>
      </trkpt>
      <trkpt lat="29.66480586" lon="82.58603096">
        <ele>4028.0000</ele>
        <time>2010-01-01T00:02:09Z</time>
      </trkpt>
      <trkpt lat="29.66361255" lon="82.58354187">
        <ele>4011.0000</ele>
        <time>2010-01-01T00:03:48Z</time>
      </trkpt>
      <trkpt lat="29.66159881" lon="82.58113861">
        <ele>4010.0000</ele>
        <time>2010-01-01T00:05:44Z</time>
      </trkpt>
      <trkpt lat="29.65988337" lon="82.57950782">
        <ele>4019.0000</ele>
        <time>2010-01-01T00:07:13Z</time>
      </trkpt>
      <trkpt lat="29.65779497" lon="82.57667541">
        <ele>3956.0000</ele>
        <time>2010-01-01T00:09:22Z</time>
      </trkpt>
      <trkpt lat="29.65585570" lon="82.57272720">
        <ele>3848.0000</ele>
        <time>2010-01-01T00:12:00Z</time>
      </trkpt>
      <trkpt lat="29.65525900" lon="82.57049560">
        <ele>3858.0000</ele>
        <time>2010-01-01T00:13:21Z</time>
      </trkpt>
      <trkpt lat="29.65466229" lon="82.56817817">
        <ele>3780.0000</ele>
        <time>2010-01-01T00:14:45Z</time>
      </trkpt>
      <trkpt lat="29.65324509" lon="82.56611824">
        <ele>3745.0000</ele>
        <time>2010-01-01T00:16:17Z</time>
      </trkpt>
      <trkpt lat="29.65123114" lon="82.56328582">
        <ele>3672.0000</ele>
        <time>2010-01-01T00:18:24Z</time>
      </trkpt>
      <trkpt lat="29.65048522" lon="82.55993843">
        <ele>3684.0000</ele>
        <time>2010-01-01T00:20:24Z</time>
      </trkpt>
      <trkpt lat="29.65085818" lon="82.55556106">
        <ele>3552.0000</ele>
        <time>2010-01-01T00:22:57Z</time>
      </trkpt>
      <trkpt lat="29.65197705" lon="82.55315780">
        <ele>3484.0000</ele>
        <time>2010-01-01T00:24:32Z</time>
      </trkpt>
      <trkpt lat="29.65436393" lon="82.54740715">
        <ele>3509.0000</ele>
        <time>2010-01-01T00:28:14Z</time>
      </trkpt>
      <trkpt lat="29.65540817" lon="82.54371643">
        <ele>3466.0000</ele>
        <time>2010-01-01T00:30:29Z</time>
      </trkpt>
      <trkpt lat="29.65525900" lon="82.54011154">
        <ele>3419.0000</ele>
        <time>2010-01-01T00:32:35Z</time>
      </trkpt>
      <trkpt lat="29.65473688" lon="82.53787994">
        <ele>3379.0000</ele>
        <time>2010-01-01T00:33:55Z</time>
      </trkpt>
      <trkpt lat="29.65540817" lon="82.53350257">
        <ele>3234.0000</ele>
        <time>2010-01-01T00:36:30Z</time>
      </trkpt>
      <trkpt lat="29.65578111" lon="82.53101348">
        <ele>3211.0000</ele>
        <time>2010-01-01T00:37:57Z</time>
      </trkpt>
      <trkpt lat="29.65555735" lon="82.52792358">
        <ele>3088.0000</ele>
        <time>2010-01-01T00:39:45Z</time>
      </trkpt>
      <trkpt lat="29.65518441" lon="82.52569198">
        <ele>3135.0000</ele>
        <time>2010-01-01T00:41:04Z</time>
      </trkpt>
      <trkpt lat="29.65458770" lon="82.52371788">
        <ele>3080.0000</ele>
        <time>2010-01-01T00:42:17Z</time>
      </trkpt>
      <trkpt lat="29.65175328" lon="82.52234458">
        <ele>2970.0000</ele>
        <time>2010-01-01T00:44:20Z</time>
      </trkpt>
      <trkpt lat="29.65078359" lon="82.52114295">
        <ele>3023.0000</ele>
        <time>2010-01-01T00:45:17Z</time>
      </trkpt>
      <trkpt lat="29.65175328" lon="82.51796722">
        <ele>2959.0000</ele>
        <time>2010-01-01T00:47:14Z</time>
      </trkpt>
      <trkpt lat="29.65145491" lon="82.51856803">
        <ele>2924.0000</ele>
        <time>2010-01-01T00:00:00Z</time>
      </trkpt>
      <trkpt lat="29.64959012" lon="82.51753807">
        <ele>2921.0000</ele>
        <time>2010-01-01T00:01:22Z</time>
      </trkpt>
      <trkpt lat="29.64854581" lon="82.51676559">
        <ele>2919.0000</ele>
        <time>2010-01-01T00:02:12Z</time>
      </trkpt>
      <trkpt lat="29.64750150" lon="82.51564979">
        <ele>2929.0000</ele>
        <time>2010-01-01T00:03:09Z</time>
      </trkpt>
      <trkpt lat="29.64600961" lon="82.51427650">
        <ele>2908.0000</ele>
        <time>2010-01-01T00:04:26Z</time>
      </trkpt>
      <trkpt lat="29.64496527" lon="82.51281738">
        <ele>2899.0000</ele>
        <time>2010-01-01T00:05:31Z</time>
      </trkpt>
      <trkpt lat="29.64317495" lon="82.51084327">
        <ele>2854.0000</ele>
        <time>2010-01-01T00:07:11Z</time>
      </trkpt>
      <trkpt lat="29.64213058" lon="82.50929832">
        <ele>2827.0000</ele>
        <time>2010-01-01T00:08:19Z</time>
      </trkpt>
      <trkpt lat="29.64123540" lon="82.50826835">
        <ele>2823.0000</ele>
        <time>2010-01-01T00:09:09Z</time>
      </trkpt>
      <trkpt lat="29.63981801" lon="82.50577926">
        <ele>2764.0000</ele>
        <time>2010-01-01T00:10:53Z</time>
      </trkpt>
      <trkpt lat="29.63922121" lon="82.50337600">
        <ele>2791.0000</ele>
        <time>2010-01-01T00:12:20Z</time>
      </trkpt>
      <trkpt lat="29.63840060" lon="82.50088691">
        <ele>2744.0000</ele>
        <time>2010-01-01T00:13:52Z</time>
      </trkpt>
      <trkpt lat="29.63750539" lon="82.49599456">
        <ele>2743.0000</ele>
        <time>2010-01-01T00:16:46Z</time>
      </trkpt>
      <trkpt lat="29.63728158" lon="82.49479293">
        <ele>2706.0000</ele>
        <time>2010-01-01T00:17:29Z</time>
      </trkpt>
      <trkpt lat="29.63586414" lon="82.49419212">
        <ele>2685.0000</ele>
        <time>2010-01-01T00:18:30Z</time>
      </trkpt>
      <trkpt lat="29.63370063" lon="82.49324798">
        <ele>2736.0000</ele>
        <time>2010-01-01T00:20:02Z</time>
      </trkpt>
      <trkpt lat="29.63198472" lon="82.49273300">
        <ele>2685.0000</ele>
        <time>2010-01-01T00:21:13Z</time>
      </trkpt>
      <trkpt lat="29.63019417" lon="82.49127388">
        <ele>2724.0000</ele>
        <time>2010-01-01T00:22:41Z</time>
      </trkpt>
      <trkpt lat="29.62870201" lon="82.49075889">
        <ele>2687.0000</ele>
        <time>2010-01-01T00:23:43Z</time>
      </trkpt>
      <trkpt lat="29.62713523" lon="82.49084472">
        <ele>2671.0000</ele>
        <time>2010-01-01T00:24:46Z</time>
      </trkpt>
      <trkpt lat="29.62504615" lon="82.48972892">
        <ele>2701.0000</ele>
        <time>2010-01-01T00:26:18Z</time>
      </trkpt>
      <trkpt lat="29.62355392" lon="82.48921394">
        <ele>2679.0000</ele>
        <time>2010-01-01T00:27:21Z</time>
      </trkpt>
      <trkpt lat="29.62161400" lon="82.48835563">
        <ele>2678.0000</ele>
        <time>2010-01-01T00:28:44Z</time>
      </trkpt>
      <trkpt lat="29.62004710" lon="82.48715400">
        <ele>2692.0000</ele>
        <time>2010-01-01T00:29:59Z</time>
      </trkpt>
      <trkpt lat="29.61788326" lon="82.48663902">
        <ele>2653.0000</ele>
        <time>2010-01-01T00:31:28Z</time>
      </trkpt>
      <trkpt lat="29.61631631" lon="82.48612403">
        <ele>2666.0000</ele>
        <time>2010-01-01T00:32:33Z</time>
      </trkpt>
      <trkpt lat="29.61415238" lon="82.48449325">
        <ele>2666.0000</ele>
        <time>2010-01-01T00:34:17Z</time>
      </trkpt>
      <trkpt lat="29.61258538" lon="82.48269081">
        <ele>2673.0000</ele>
        <time>2010-01-01T00:35:45Z</time>
      </trkpt>
      <trkpt lat="29.61071986" lon="82.48097419">
        <ele>2618.0000</ele>
        <time>2010-01-01T00:37:21Z</time>
      </trkpt>
      <trkpt lat="29.60900355" lon="82.47900009">
        <ele>2585.0000</ele>
        <time>2010-01-01T00:38:58Z</time>
      </trkpt>
      <trkpt lat="29.60646635" lon="82.47608184">
        <ele>2609.0000</ele>
        <time>2010-01-01T00:41:22Z</time>
      </trkpt>
      <trkpt lat="29.60460072" lon="82.47342109">
        <ele>2586.0000</ele>
        <time>2010-01-01T00:43:21Z</time>
      </trkpt>
      <trkpt lat="29.60295893" lon="82.47067451">
        <ele>2556.0000</ele>
        <time>2010-01-01T00:45:17Z</time>
      </trkpt>
      <trkpt lat="29.60191415" lon="82.46878623">
        <ele>2529.0000</ele>
        <time>2010-01-01T00:46:35Z</time>
      </trkpt>
      <trkpt lat="29.59900361" lon="82.46406555">
        <ele>2535.0000</ele>
        <time>2010-01-01T00:49:56Z</time>
      </trkpt>
      <trkpt lat="29.59713785" lon="82.46123313">
        <ele>2513.0000</ele>
        <time>2010-01-01T00:52:00Z</time>
      </trkpt>
      <trkpt lat="29.59474961" lon="82.45685577">
        <ele>2509.0000</ele>
        <time>2010-01-01T00:55:00Z</time>
      </trkpt>
      <trkpt lat="29.59407791" lon="82.45393753">
        <ele>2522.0000</ele>
        <time>2010-01-01T00:56:45Z</time>
      </trkpt>
      <trkpt lat="29.59303303" lon="82.44647026">
        <ele>2456.0000</ele>
        <time>2010-01-01T01:01:08Z</time>
      </trkpt>
      <trkpt lat="29.59325693" lon="82.44320869">
        <ele>2379.0000</ele>
        <time>2010-01-01T01:03:02Z</time>
      </trkpt>
      <trkpt lat="29.59258522" lon="82.43848800">
        <ele>2380.0000</ele>
        <time>2010-01-01T01:05:48Z</time>
      </trkpt>
      <trkpt lat="29.59236132" lon="82.43668556">
        <ele>2381.0000</ele>
        <time>2010-01-01T01:06:52Z</time>
      </trkpt>
      <trkpt lat="29.59161497" lon="82.43385314">
        <ele>2323.0000</ele>
        <time>2010-01-01T01:08:35Z</time>
      </trkpt>
      <trkpt lat="29.59146569" lon="82.42999076">
        <ele>2323.0000</ele>
        <time>2010-01-01T01:10:49Z</time>
      </trkpt>
      <trkpt lat="29.59094324" lon="82.42741584">
        <ele>2310.0000</ele>
        <time>2010-01-01T01:12:21Z</time>
      </trkpt>
      <trkpt lat="29.59064470" lon="82.42578506">
        <ele>2346.0000</ele>
        <time>2010-01-01T01:13:19Z</time>
      </trkpt>
      <trkpt lat="29.59034615" lon="82.42166519">
        <ele>2332.0000</ele>
        <time>2010-01-01T01:15:43Z</time>
      </trkpt>
      <trkpt lat="29.59012224" lon="82.41831779">
        <ele>2310.0000</ele>
        <time>2010-01-01T01:17:40Z</time>
      </trkpt>
      <trkpt lat="29.58803240" lon="82.41548538">
        <ele>2279.0000</ele>
        <time>2010-01-01T01:19:49Z</time>
      </trkpt>
      <trkpt lat="29.58646498" lon="82.41308212">
        <ele>2294.0000</ele>
        <time>2010-01-01T01:21:34Z</time>
      </trkpt>
      <trkpt lat="29.58497218" lon="82.40964889">
        <ele>2265.0000</ele>
        <time>2010-01-01T01:23:48Z</time>
      </trkpt>
      <trkpt lat="29.58295687" lon="82.40458488">
        <ele>2272.0000</ele>
        <time>2010-01-01T01:27:01Z</time>
      </trkpt>
      <trkpt lat="29.58124009" lon="82.40149497">
        <ele>2267.0000</ele>
        <time>2010-01-01T01:29:09Z</time>
      </trkpt>
      <trkpt lat="29.57982186" lon="82.39909172">
        <ele>2245.0000</ele>
        <time>2010-01-01T01:30:50Z</time>
      </trkpt>
      <trkpt lat="29.57817967" lon="82.39651679">
        <ele>2245.0000</ele>
        <time>2010-01-01T01:32:41Z</time>
      </trkpt>
      <trkpt lat="29.57661210" lon="82.39213943">
        <ele>2242.0000</ele>
        <time>2010-01-01T01:35:26Z</time>
      </trkpt>
      <trkpt lat="29.57594028" lon="82.39042282">
        <ele>2276.0000</ele>
        <time>2010-01-01T01:36:32Z</time>
      </trkpt>
      <trkpt lat="29.57370084" lon="82.38759040">
        <ele>2278.0000</ele>
        <time>2010-01-01T01:38:45Z</time>
      </trkpt>
      <trkpt lat="29.57235716" lon="82.38261222">
        <ele>2231.0000</ele>
        <time>2010-01-01T01:41:46Z</time>
      </trkpt>
      <trkpt lat="29.57168531" lon="82.37840652">
        <ele>2246.0000</ele>
        <time>2010-01-01T01:44:15Z</time>
      </trkpt>
      <trkpt lat="29.57175996" lon="82.37154006">
        <ele>2294.0000</ele>
        <time>2010-01-01T01:48:14Z</time>
      </trkpt>
      <trkpt lat="29.57265575" lon="82.36647605">
        <ele>2226.0000</ele>
        <time>2010-01-01T01:51:14Z</time>
      </trkpt>
      <trkpt lat="29.57385014" lon="82.36364364">
        <ele>2233.0000</ele>
        <time>2010-01-01T01:53:04Z</time>
      </trkpt>
      <trkpt lat="29.57534310" lon="82.35978126">
        <ele>2218.0000</ele>
        <time>2010-01-01T01:55:31Z</time>
      </trkpt>
      <trkpt lat="29.57541775" lon="82.35231399">
        <ele>2308.0000</ele>
        <time>2010-01-01T01:59:51Z</time>
      </trkpt>
      <trkpt lat="29.57467127" lon="82.34982490">
        <ele>2247.0000</ele>
        <time>2010-01-01T02:01:23Z</time>
      </trkpt>
      <trkpt lat="29.57720928" lon="82.34270095">
        <ele>2180.0000</ele>
        <time>2010-01-01T02:05:51Z</time>
      </trkpt>
      <trkpt lat="29.57825432" lon="82.34046936">
        <ele>2213.0000</ele>
        <time>2010-01-01T02:07:19Z</time>
      </trkpt>
      <trkpt lat="29.57810503" lon="82.33772277">
        <ele>2199.0000</ele>
        <time>2010-01-01T02:08:55Z</time>
      </trkpt>
      <trkpt lat="29.57952328" lon="82.33420372">
        <ele>2194.0000</ele>
        <time>2010-01-01T02:11:10Z</time>
      </trkpt>
      <trkpt lat="29.58198652" lon="82.33051300">
        <ele>2151.0000</ele>
        <time>2010-01-01T02:13:52Z</time>
      </trkpt>
      <trkpt lat="29.58504682" lon="82.32587814">
        <ele>2219.0000</ele>
        <time>2010-01-01T02:17:14Z</time>
      </trkpt>
      <trkpt lat="29.58616642" lon="82.32244491">
        <ele>2145.0000</ele>
        <time>2010-01-01T02:19:22Z</time>
      </trkpt>
      <trkpt lat="29.58512146" lon="82.32141494">
        <ele>2116.0000</ele>
        <time>2010-01-01T02:20:17Z</time>
      </trkpt>
      <trkpt lat="29.58437506" lon="82.31884002">
        <ele>2227.0000</ele>
        <time>2010-01-01T02:21:52Z</time>
      </trkpt>
      <trkpt lat="29.58482290" lon="82.31720924">
        <ele>2261.0000</ele>
        <time>2010-01-01T02:22:51Z</time>
      </trkpt>
      <trkpt lat="29.58556930" lon="82.31600761">
        <ele>2258.0000</ele>
        <time>2010-01-01T02:23:43Z</time>
      </trkpt>
      <trkpt lat="29.58601714" lon="82.31403350">
        <ele>2267.0000</ele>
        <time>2010-01-01T02:24:54Z</time>
      </trkpt>
      <trkpt lat="29.58900269" lon="82.30957031">
        <ele>2186.0000</ele>
        <time>2010-01-01T02:28:10Z</time>
      </trkpt>
      <trkpt lat="29.58959979" lon="82.30690956">
        <ele>2237.0000</ele>
        <time>2010-01-01T02:29:45Z</time>
      </trkpt>
      <trkpt lat="29.59042079" lon="82.30424880">
        <ele>2232.0000</ele>
        <time>2010-01-01T02:31:24Z</time>
      </trkpt>
      <trkpt lat="29.59042079" lon="82.30390548">
        <ele>2232.0000</ele>
        <time>2010-01-01T00:00:00Z</time>
      </trkpt>
      <trkpt lat="29.59154033" lon="82.30133056">
        <ele>2171.0000</ele>
        <time>2010-01-01T00:01:40Z</time>
      </trkpt>
      <trkpt lat="29.59265986" lon="82.29806900">
        <ele>2172.0000</ele>
        <time>2010-01-01T00:03:42Z</time>
      </trkpt>
      <trkpt lat="29.59318230" lon="82.29497909">
        <ele>2111.0000</ele>
        <time>2010-01-01T00:05:31Z</time>
      </trkpt>
      <trkpt lat="29.59280913" lon="82.29351997">
        <ele>2130.0000</ele>
        <time>2010-01-01T00:06:24Z</time>
      </trkpt>
      <trkpt lat="29.59062487" lon="82.28897094">
        <ele>2165.0000</ele>
        <time>2010-01-01T00:09:25Z</time>
      </trkpt>
      <trkpt lat="29.58967442" lon="82.28699684">
        <ele>2105.0000</ele>
        <time>2010-01-01T00:10:44Z</time>
      </trkpt>
      <trkpt lat="29.58848022" lon="82.28476524">
        <ele>2086.0000</ele>
        <time>2010-01-01T00:12:15Z</time>
      </trkpt>
      <trkpt lat="29.58758457" lon="82.28296279">
        <ele>2040.0000</ele>
        <time>2010-01-01T00:13:27Z</time>
      </trkpt>
      <trkpt lat="29.58571858" lon="82.28098869">
        <ele>2038.0000</ele>
        <time>2010-01-01T00:15:09Z</time>
      </trkpt>
      <trkpt lat="29.58400185" lon="82.27815628">
        <ele>2033.0000</ele>
        <time>2010-01-01T00:17:09Z</time>
      </trkpt>
      <trkpt lat="29.58243438" lon="82.27575302">
        <ele>2011.0000</ele>
        <time>2010-01-01T00:18:53Z</time>
      </trkpt>
      <trkpt lat="29.58109080" lon="82.27429389">
        <ele>2005.0000</ele>
        <time>2010-01-01T00:20:07Z</time>
      </trkpt>
      <trkpt lat="29.58071759" lon="82.27283477">
        <ele>1994.0000</ele>
        <time>2010-01-01T00:21:00Z</time>
      </trkpt>
      <trkpt lat="29.58109080" lon="82.27103233">
        <ele>1958.0000</ele>
        <time>2010-01-01T00:22:05Z</time>
      </trkpt>
      <trkpt lat="29.58101616" lon="82.26931571">
        <ele>1936.0000</ele>
        <time>2010-01-01T00:23:05Z</time>
      </trkpt>
      <trkpt lat="29.57892612" lon="82.26588249">
        <ele>1952.0000</ele>
        <time>2010-01-01T00:25:31Z</time>
      </trkpt>
      <trkpt lat="29.57653746" lon="82.26373672">
        <ele>1939.0000</ele>
        <time>2010-01-01T00:27:32Z</time>
      </trkpt>
      <trkpt lat="29.57452198" lon="82.26124763">
        <ele>1954.0000</ele>
        <time>2010-01-01T00:29:30Z</time>
      </trkpt>
      <trkpt lat="29.57325295" lon="82.25798606">
        <ele>1935.0000</ele>
        <time>2010-01-01T00:31:35Z</time>
      </trkpt>
      <trkpt lat="29.57198391" lon="82.25420951">
        <ele>1912.0000</ele>
        <time>2010-01-01T00:33:56Z</time>
      </trkpt>
      <trkpt lat="29.57138670" lon="82.25146293">
        <ele>1897.0000</ele>
        <time>2010-01-01T00:35:34Z</time>
      </trkpt>
      <trkpt lat="29.57004299" lon="82.24914550">
        <ele>1920.0000</ele>
        <time>2010-01-01T00:37:11Z</time>
      </trkpt>
      <trkpt lat="29.56862460" lon="82.24760055">
        <ele>1901.0000</ele>
        <time>2010-01-01T00:38:29Z</time>
      </trkpt>
      <trkpt lat="29.56638500" lon="82.24691390">
        <ele>1936.0000</ele>
        <time>2010-01-01T00:40:02Z</time>
      </trkpt>
      <trkpt lat="29.56474259" lon="82.24665641">
        <ele>1923.0000</ele>
        <time>2010-01-01T00:41:09Z</time>
      </trkpt>
      <trkpt lat="29.56332413" lon="82.24622726">
        <ele>1903.0000</ele>
        <time>2010-01-01T00:42:07Z</time>
      </trkpt>
      <trkpt lat="29.56138304" lon="82.24554061">
        <ele>1898.0000</ele>
        <time>2010-01-01T00:43:29Z</time>
      </trkpt>
      <trkpt lat="29.55929260" lon="82.24416732">
        <ele>1873.0000</ele>
        <time>2010-01-01T00:45:05Z</time>
      </trkpt>
      <trkpt lat="29.55765008" lon="82.24133491">
        <ele>1913.0000</ele>
        <time>2010-01-01T00:47:04Z</time>
      </trkpt>
      <trkpt lat="29.55660482" lon="82.23901748">
        <ele>1877.0000</ele>
        <time>2010-01-01T00:48:34Z</time>
      </trkpt>
      <trkpt lat="29.55555956" lon="82.23524093">
        <ele>1849.0000</ele>
        <time>2010-01-01T00:50:52Z</time>
      </trkpt>
      <trkpt lat="29.55526091" lon="82.23300933">
        <ele>1869.0000</ele>
        <time>2010-01-01T00:52:11Z</time>
      </trkpt>
      <trkpt lat="29.55593287" lon="82.23052024">
        <ele>1864.0000</ele>
        <time>2010-01-01T00:53:42Z</time>
      </trkpt>
      <trkpt lat="29.55615685" lon="82.22803115">
        <ele>1893.0000</ele>
        <time>2010-01-01T00:55:09Z</time>
      </trkpt>
      <trkpt lat="29.55578354" lon="82.22614288">
        <ele>1939.0000</ele>
        <time>2010-01-01T00:56:16Z</time>
      </trkpt>
      <trkpt lat="29.55541023" lon="82.22339630">
        <ele>1888.0000</ele>
        <time>2010-01-01T00:57:53Z</time>
      </trkpt>
      <trkpt lat="29.55421563" lon="82.22142219">
        <ele>1882.0000</ele>
        <time>2010-01-01T00:59:17Z</time>
      </trkpt>
      <trkpt lat="29.55249836" lon="82.21730232">
        <ele>1882.0000</ele>
        <time>2010-01-01T01:01:56Z</time>
      </trkpt>
      <trkpt lat="29.55115439" lon="82.21404075">
        <ele>1845.0000</ele>
        <time>2010-01-01T01:04:02Z</time>
      </trkpt>
      <trkpt lat="29.55048240" lon="82.21103668">
        <ele>1856.0000</ele>
        <time>2010-01-01T01:05:50Z</time>
      </trkpt>
      <trkpt lat="29.54966107" lon="82.20820426">
        <ele>1845.0000</ele>
        <time>2010-01-01T01:07:34Z</time>
      </trkpt>
      <trkpt lat="29.54921307" lon="82.20605850">
        <ele>1856.0000</ele>
        <time>2010-01-01T01:08:50Z</time>
      </trkpt>
      <trkpt lat="29.54928774" lon="82.20279693">
        <ele>1865.0000</ele>
        <time>2010-01-01T01:10:44Z</time>
      </trkpt>
      <trkpt lat="29.54995973" lon="82.19944953">
        <ele>1880.0000</ele>
        <time>2010-01-01T01:12:44Z</time>
      </trkpt>
      <trkpt lat="29.55003440" lon="82.19678878">
        <ele>1841.0000</ele>
        <time>2010-01-01T01:14:16Z</time>
      </trkpt>
      <trkpt lat="29.54913840" lon="82.19326972">
        <ele>1863.0000</ele>
        <time>2010-01-01T01:16:24Z</time>
      </trkpt>
      <trkpt lat="29.54854106" lon="82.18794822">
        <ele>1821.0000</ele>
        <time>2010-01-01T01:19:31Z</time>
      </trkpt>
      <trkpt lat="29.54883973" lon="82.18614578">
        <ele>1835.0000</ele>
        <time>2010-01-01T01:20:35Z</time>
      </trkpt>
      <trkpt lat="29.54988507" lon="82.18468666">
        <ele>1853.0000</ele>
        <time>2010-01-01T01:21:41Z</time>
      </trkpt>
      <trkpt lat="29.55040773" lon="82.18348503">
        <ele>1875.0000</ele>
        <time>2010-01-01T01:22:27Z</time>
      </trkpt>
      <trkpt lat="29.55107972" lon="82.18133926">
        <ele>1851.0000</ele>
        <time>2010-01-01T01:23:47Z</time>
      </trkpt>
      <trkpt lat="29.55070640" lon="82.17850685">
        <ele>1814.0000</ele>
        <time>2010-01-01T01:25:27Z</time>
      </trkpt>
      <trkpt lat="29.55115439" lon="82.17576026">
        <ele>1805.0000</ele>
        <time>2010-01-01T01:27:04Z</time>
      </trkpt>
      <trkpt lat="29.55167705" lon="82.17284202">
        <ele>1812.0000</ele>
        <time>2010-01-01T01:28:48Z</time>
      </trkpt>
      <trkpt lat="29.55302101" lon="82.16829299">
        <ele>1827.0000</ele>
        <time>2010-01-01T01:31:35Z</time>
      </trkpt>
      <trkpt lat="29.55301000" lon="82.16827000">
        <ele>1827.0000</ele>
        <time>2010-01-01T01:31:36Z</time>
      </trkpt>
      <trkpt lat="29.55317000" lon="82.16811000">
        <ele>1817.0000</ele>
        <time>2010-01-01T01:31:44Z</time>
      </trkpt>
      <trkpt lat="29.55336000" lon="82.16760000">
        <ele>1801.0000</ele>
        <time>2010-01-01T01:32:04Z</time>
      </trkpt>
      <trkpt lat="29.55366000" lon="82.16716000">
        <ele>1780.0000</ele>
        <time>2010-01-01T01:32:23Z</time>
      </trkpt>
      <trkpt lat="29.55362000" lon="82.16648000">
        <ele>1801.0000</ele>
        <time>2010-01-01T01:32:47Z</time>
      </trkpt>
      <trkpt lat="29.55368000" lon="82.16597000">
        <ele>1798.0000</ele>
        <time>2010-01-01T01:33:05Z</time>
      </trkpt>
      <trkpt lat="29.55328000" lon="82.16481000">
        <ele>1833.0000</ele>
        <time>2010-01-01T01:33:48Z</time>
      </trkpt>
      <trkpt lat="29.55318000" lon="82.16430000">
        <ele>1852.0000</ele>
        <time>2010-01-01T01:34:06Z</time>
      </trkpt>
      <trkpt lat="29.55327000" lon="82.16401000">
        <ele>1855.0000</ele>
        <time>2010-01-01T01:34:17Z</time>
      </trkpt>
      <trkpt lat="29.55307000" lon="82.16424000">
        <ele>1861.0000</ele>
        <time>2010-01-01T01:34:29Z</time>
      </trkpt>
      <trkpt lat="29.55288000" lon="82.16439000">
        <ele>1870.0000</ele>
        <time>2010-01-01T01:34:38Z</time>
      </trkpt>
      <trkpt lat="29.55274000" lon="82.16452000">
        <ele>1874.0000</ele>
        <time>2010-01-01T01:34:45Z</time>
      </trkpt>
      <trkpt lat="29.55265000" lon="82.16470000">
        <ele>1874.0000</ele>
        <time>2010-01-01T01:34:52Z</time>
      </trkpt>
      <trkpt lat="29.55259000" lon="82.16495000">
        <ele>1877.0000</ele>
        <time>2010-01-01T01:35:01Z</time>
      </trkpt>
      <trkpt lat="29.55253000" lon="82.16512000">
        <ele>1881.0000</ele>
        <time>2010-01-01T01:35:08Z</time>
      </trkpt>
      <trkpt lat="29.55257000" lon="82.16528000">
        <ele>1879.0000</ele>
        <time>2010-01-01T01:35:13Z</time>
      </trkpt>
      <trkpt lat="29.55268000" lon="82.16562000">
        <ele>1868.0000</ele>
        <time>2010-01-01T01:35:26Z</time>
      </trkpt>
      <trkpt lat="29.55261000" lon="82.16582000">
        <ele>1870.0000</ele>
        <time>2010-01-01T01:35:34Z</time>
      </trkpt>
      <trkpt lat="29.55254000" lon="82.16588000">
        <ele>1874.0000</ele>
        <time>2010-01-01T01:35:37Z</time>
      </trkpt>
      <trkpt lat="29.55243000" lon="82.16592000">
        <ele>1879.0000</ele>
        <time>2010-01-01T01:35:42Z</time>
      </trkpt>
      <trkpt lat="29.55233000" lon="82.16600000">
        <ele>1881.0000</ele>
        <time>2010-01-01T01:35:47Z</time>
      </trkpt>
      <trkpt lat="29.55188000" lon="82.16652000">
        <ele>1886.0000</ele>
        <time>2010-01-01T01:36:12Z</time>
      </trkpt>
      <trkpt lat="29.55180000" lon="82.16667000">
        <ele>1889.0000</ele>
        <time>2010-01-01T01:36:18Z</time>
      </trkpt>
      <trkpt lat="29.55171000" lon="82.16687000">
        <ele>1891.0000</ele>
        <time>2010-01-01T01:36:26Z</time>
      </trkpt>
      <trkpt lat="29.55169000" lon="82.16703000">
        <ele>1890.0000</ele>
        <time>2010-01-01T01:36:32Z</time>
      </trkpt>
      <trkpt lat="29.55180000" lon="82.16722000">
        <ele>1886.0000</ele>
        <time>2010-01-01T01:36:40Z</time>
      </trkpt>
      <trkpt lat="29.55187000" lon="82.16742000">
        <ele>1887.0000</ele>
        <time>2010-01-01T01:36:47Z</time>
      </trkpt>
      <trkpt lat="29.55185000" lon="82.16753000">
        <ele>1889.0000</ele>
        <time>2010-01-01T01:36:51Z</time>
      </trkpt>
      <trkpt lat="29.55176000" lon="82.16754000">
        <ele>1891.0000</ele>
        <time>2010-01-01T01:36:55Z</time>
      </trkpt>
      <trkpt lat="29.55165000" lon="82.16750000">
        <ele>1895.0000</ele>
        <time>2010-01-01T01:36:59Z</time>
      </trkpt>
      <trkpt lat="29.55155000" lon="82.16740000">
        <ele>1898.0000</ele>
        <time>2010-01-01T01:37:05Z</time>
      </trkpt>
      <trkpt lat="29.55148000" lon="82.16719000">
        <ele>1902.0000</ele>
        <time>2010-01-01T01:37:12Z</time>
      </trkpt>
      <trkpt lat="29.55144000" lon="82.16681000">
        <ele>1908.0000</ele>
        <time>2010-01-01T01:37:26Z</time>
      </trkpt>
      <trkpt lat="29.55146000" lon="82.16652000">
        <ele>1914.0000</ele>
        <time>2010-01-01T01:37:36Z</time>
      </trkpt>
      <trkpt lat="29.55157000" lon="82.16590000">
        <ele>1925.0000</ele>
        <time>2010-01-01T01:37:58Z</time>
      </trkpt>
      <trkpt lat="29.55169000" lon="82.16567000">
        <ele>1919.0000</ele>
        <time>2010-01-01T01:38:07Z</time>
      </trkpt>
      <trkpt lat="29.55172000" lon="82.16547000">
        <ele>1917.0000</ele>
        <time>2010-01-01T01:38:14Z</time>
      </trkpt>
      <trkpt lat="29.55162000" lon="82.16524000">
        <ele>1921.0000</ele>
        <time>2010-01-01T01:38:23Z</time>
      </trkpt>
      <trkpt lat="29.55150000" lon="82.16509000">
        <ele>1925.0000</ele>
        <time>2010-01-01T01:38:30Z</time>
      </trkpt>
      <trkpt lat="29.55136000" lon="82.16498000">
        <ele>1931.0000</ele>
        <time>2010-01-01T01:38:37Z</time>
      </trkpt>
      <trkpt lat="29.55128000" lon="82.16479000">
        <ele>1938.0000</ele>
        <time>2010-01-01T01:38:45Z</time>
      </trkpt>
      <trkpt lat="29.55138000" lon="82.16466000">
        <ele>1934.0000</ele>
        <time>2010-01-01T01:38:51Z</time>
      </trkpt>
      <trkpt lat="29.55172000" lon="82.16440000">
        <ele>1925.0000</ele>
        <time>2010-01-01T01:39:07Z</time>
      </trkpt>
      <trkpt lat="29.55171000" lon="82.16422000">
        <ele>1929.0000</ele>
        <time>2010-01-01T01:39:13Z</time>
      </trkpt>
      <trkpt lat="29.55166000" lon="82.16396000">
        <ele>1936.0000</ele>
        <time>2010-01-01T01:39:22Z</time>
      </trkpt>
      <trkpt lat="29.55167000" lon="82.16367000">
        <ele>1939.0000</ele>
        <time>2010-01-01T01:39:33Z</time>
      </trkpt>
      <trkpt lat="29.55162000" lon="82.16343000">
        <ele>1944.0000</ele>
        <time>2010-01-01T01:39:41Z</time>
      </trkpt>
      <trkpt lat="29.55151000" lon="82.16306000">
        <ele>1947.0000</ele>
        <time>2010-01-01T01:39:55Z</time>
      </trkpt>
      <trkpt lat="29.55146000" lon="82.16296000">
        <ele>1948.0000</ele>
        <time>2010-01-01T01:39:59Z</time>
      </trkpt>
      <trkpt lat="29.55140000" lon="82.16297000">
        <ele>1950.0000</ele>
        <time>2010-01-01T01:40:01Z</time>
      </trkpt>
      <trkpt lat="29.55132000" lon="82.16311000">
        <ele>1954.0000</ele>
        <time>2010-01-01T01:40:07Z</time>
      </trkpt>
      <trkpt lat="29.55130000" lon="82.16360000">
        <ele>1957.0000</ele>
        <time>2010-01-01T01:40:24Z</time>
      </trkpt>
      <trkpt lat="29.55128000" lon="82.16366000">
        <ele>1957.0000</ele>
        <time>2010-01-01T01:40:26Z</time>
      </trkpt>
      <trkpt lat="29.55117000" lon="82.16357000">
        <ele>1961.0000</ele>
        <time>2010-01-01T01:40:32Z</time>
      </trkpt>
      <trkpt lat="29.55107000" lon="82.16345000">
        <ele>1964.0000</ele>
        <time>2010-01-01T01:40:38Z</time>
      </trkpt>
      <trkpt lat="29.55092000" lon="82.16296000">
        <ele>1967.0000</ele>
        <time>2010-01-01T01:40:56Z</time>
      </trkpt>
      <trkpt lat="29.55082000" lon="82.16251000">
        <ele>1968.0000</ele>
        <time>2010-01-01T01:41:12Z</time>
      </trkpt>
      <trkpt lat="29.55072000" lon="82.16233000">
        <ele>1973.0000</ele>
        <time>2010-01-01T01:41:19Z</time>
      </trkpt>
      <trkpt lat="29.55041000" lon="82.16206000">
        <ele>1986.0000</ele>
        <time>2010-01-01T01:41:35Z</time>
      </trkpt>
      <trkpt lat="29.55018000" lon="82.16182000">
        <ele>1994.0000</ele>
        <time>2010-01-01T01:41:47Z</time>
      </trkpt>
      <trkpt lat="29.55006000" lon="82.16172000">
        <ele>1999.0000</ele>
        <time>2010-01-01T01:41:53Z</time>
      </trkpt>
      <trkpt lat="29.54995000" lon="82.16176000">
        <ele>2006.0000</ele>
        <time>2010-01-01T01:41:58Z</time>
      </trkpt>
      <trkpt lat="29.54989000" lon="82.16186000">
        <ele>2010.0000</ele>
        <time>2010-01-01T01:42:02Z</time>
      </trkpt>
      <trkpt lat="29.54996000" lon="82.16205000">
        <ele>2009.0000</ele>
        <time>2010-01-01T01:42:09Z</time>
      </trkpt>
      <trkpt lat="29.55005000" lon="82.16222000">
        <ele>2006.0000</ele>
        <time>2010-01-01T01:42:16Z</time>
      </trkpt>
      <trkpt lat="29.55014000" lon="82.16247000">
        <ele>2003.0000</ele>
        <time>2010-01-01T01:42:26Z</time>
      </trkpt>
      <trkpt lat="29.55001000" lon="82.16306000">
        <ele>2013.0000</ele>
        <time>2010-01-01T01:42:47Z</time>
      </trkpt>
      <trkpt lat="29.54996000" lon="82.16324000">
        <ele>2015.0000</ele>
        <time>2010-01-01T01:42:53Z</time>
      </trkpt>
      <trkpt lat="29.54982000" lon="82.16356000">
        <ele>2017.0000</ele>
        <time>2010-01-01T01:43:06Z</time>
      </trkpt>
      <trkpt lat="29.54980000" lon="82.16367000">
        <ele>2016.0000</ele>
        <time>2010-01-01T01:43:10Z</time>
      </trkpt>
      <trkpt lat="29.54975000" lon="82.16371000">
        <ele>2016.0000</ele>
        <time>2010-01-01T01:43:12Z</time>
      </trkpt>
      <trkpt lat="29.54974000" lon="82.16360000">
        <ele>2019.0000</ele>
        <time>2010-01-01T01:43:16Z</time>
      </trkpt>
      <trkpt lat="29.54977000" lon="82.16331000">
        <ele>2023.0000</ele>
        <time>2010-01-01T01:43:26Z</time>
      </trkpt>
      <trkpt lat="29.54975000" lon="82.16319000">
        <ele>2023.0000</ele>
        <time>2010-01-01T01:43:30Z</time>
      </trkpt>
      <trkpt lat="29.54957000" lon="82.16276000">
        <ele>2033.0000</ele>
        <time>2010-01-01T01:43:47Z</time>
      </trkpt>
      <trkpt lat="29.54932000" lon="82.16236000">
        <ele>2044.0000</ele>
        <time>2010-01-01T01:44:04Z</time>
      </trkpt>
      <trkpt lat="29.54892000" lon="82.16158000">
        <ele>2055.0000</ele>
        <time>2010-01-01T01:44:36Z</time>
      </trkpt>
      <trkpt lat="29.54886000" lon="82.16113000">
        <ele>2053.0000</ele>
        <time>2010-01-01T01:44:52Z</time>
      </trkpt>
      <trkpt lat="29.54876000" lon="82.16089000">
        <ele>2058.0000</ele>
        <time>2010-01-01T01:45:01Z</time>
      </trkpt>
      <trkpt lat="29.54878000" lon="82.16025000">
        <ele>2060.0000</ele>
        <time>2010-01-01T01:45:23Z</time>
      </trkpt>
      <trkpt lat="29.54856000" lon="82.15984000">
        <ele>2059.0000</ele>
        <time>2010-01-01T01:45:40Z</time>
      </trkpt>
      <trkpt lat="29.54832000" lon="82.15955000">
        <ele>2062.0000</ele>
        <time>2010-01-01T01:45:54Z</time>
      </trkpt>
      <trkpt lat="29.54793000" lon="82.15860000">
        <ele>2076.0000</ele>
        <time>2010-01-01T01:46:30Z</time>
      </trkpt>
      <trkpt lat="29.54789000" lon="82.15869000">
        <ele>2076.0000</ele>
        <time>2010-01-01T01:46:34Z</time>
      </trkpt>
      <trkpt lat="29.54777000" lon="82.15885000">
        <ele>2078.0000</ele>
        <time>2010-01-01T01:46:41Z</time>
      </trkpt>
      <trkpt lat="29.54763000" lon="82.15896000">
        <ele>2080.0000</ele>
        <time>2010-01-01T01:46:48Z</time>
      </trkpt>
      <trkpt lat="29.54756000" lon="82.15904000">
        <ele>2080.0000</ele>
        <time>2010-01-01T01:46:52Z</time>
      </trkpt>
      <trkpt lat="29.54739000" lon="82.15870000">
        <ele>2086.0000</ele>
        <time>2010-01-01T01:47:06Z</time>
      </trkpt>
      <trkpt lat="29.54734000" lon="82.15854000">
        <ele>2089.0000</ele>
        <time>2010-01-01T01:47:12Z</time>
      </trkpt>
      <trkpt lat="29.54735000" lon="82.15846000">
        <ele>2090.0000</ele>
        <time>2010-01-01T01:47:14Z</time>
      </trkpt>
      <trkpt lat="29.54724000" lon="82.15779000">
        <ele>2088.0000</ele>
        <time>2010-01-01T01:47:38Z</time>
      </trkpt>
      <trkpt lat="29.54719000" lon="82.15756000">
        <ele>2088.0000</ele>
        <time>2010-01-01T01:47:46Z</time>
      </trkpt>
      <trkpt lat="29.54726000" lon="82.15732000">
        <ele>2092.0000</ele>
        <time>2010-01-01T01:47:55Z</time>
      </trkpt>
      <trkpt lat="29.54720000" lon="82.15717000">
        <ele>2092.0000</ele>
        <time>2010-01-01T01:48:01Z</time>
      </trkpt>
      <trkpt lat="29.54719000" lon="82.15707000">
        <ele>2094.0000</ele>
        <time>2010-01-01T01:48:05Z</time>
      </trkpt>
      <trkpt lat="29.54721000" lon="82.15686000">
        <ele>2097.0000</ele>
        <time>2010-01-01T01:48:12Z</time>
      </trkpt>
      <trkpt lat="29.54733000" lon="82.15661000">
        <ele>2104.0000</ele>
        <time>2010-01-01T01:48:22Z</time>
      </trkpt>
      <trkpt lat="29.54757000" lon="82.15626000">
        <ele>2110.0000</ele>
        <time>2010-01-01T01:48:37Z</time>
      </trkpt>
      <trkpt lat="29.54762000" lon="82.15613000">
        <ele>2109.0000</ele>
        <time>2010-01-01T01:48:42Z</time>
      </trkpt>
      <trkpt lat="29.54769000" lon="82.15591000">
        <ele>2109.0000</ele>
        <time>2010-01-01T01:48:50Z</time>
      </trkpt>
      <trkpt lat="29.54781000" lon="82.15531000">
        <ele>2110.0000</ele>
        <time>2010-01-01T01:49:12Z</time>
      </trkpt>
      <trkpt lat="29.54789000" lon="82.15501000">
        <ele>2116.0000</ele>
        <time>2010-01-01T01:49:23Z</time>
      </trkpt>
      <trkpt lat="29.54794000" lon="82.15493000">
        <ele>2118.0000</ele>
        <time>2010-01-01T01:49:26Z</time>
      </trkpt>
      <trkpt lat="29.54795000" lon="82.15486000">
        <ele>2119.0000</ele>
        <time>2010-01-01T01:49:29Z</time>
      </trkpt>
      <trkpt lat="29.54811289" lon="82.15490341">
        <ele>2119.0000</ele>
        <time>2010-01-01T00:00:00Z</time>
      </trkpt>
      <trkpt lat="29.54795000" lon="82.15487000">
        <ele>2119.0000</ele>
        <time>2010-01-01T00:00:06Z</time>
      </trkpt>
      <trkpt lat="29.54798000" lon="82.15466000">
        <ele>2122.0000</ele>
        <time>2010-01-01T00:00:14Z</time>
      </trkpt>
      <trkpt lat="29.54798000" lon="82.15451000">
        <ele>2123.0000</ele>
        <time>2010-01-01T00:00:19Z</time>
      </trkpt>
      <trkpt lat="29.54810000" lon="82.15415000">
        <ele>2131.0000</ele>
        <time>2010-01-01T00:00:32Z</time>
      </trkpt>
      <trkpt lat="29.54818000" lon="82.15405000">
        <ele>2135.0000</ele>
        <time>2010-01-01T00:00:37Z</time>
      </trkpt>
      <trkpt lat="29.54840000" lon="82.15391000">
        <ele>2141.0000</ele>
        <time>2010-01-01T00:00:47Z</time>
      </trkpt>
      <trkpt lat="29.54869000" lon="82.15381000">
        <ele>2142.0000</ele>
        <time>2010-01-01T00:00:59Z</time>
      </trkpt>
      <trkpt lat="29.54863000" lon="82.15374000">
        <ele>2145.0000</ele>
        <time>2010-01-01T00:01:03Z</time>
      </trkpt>
      <trkpt lat="29.54855000" lon="82.15369000">
        <ele>2148.0000</ele>
        <time>2010-01-01T00:01:06Z</time>
      </trkpt>
      <trkpt lat="29.54847000" lon="82.15360000">
        <ele>2151.0000</ele>
        <time>2010-01-01T00:01:11Z</time>
      </trkpt>
      <trkpt lat="29.54844000" lon="82.15348000">
        <ele>2154.0000</ele>
        <time>2010-01-01T00:01:15Z</time>
      </trkpt>
      <trkpt lat="29.54851000" lon="82.15313000">
        <ele>2163.0000</ele>
        <time>2010-01-01T00:01:28Z</time>
      </trkpt>
      <trkpt lat="29.54861000" lon="82.15298000">
        <ele>2168.0000</ele>
        <time>2010-01-01T00:01:34Z</time>
      </trkpt>
      <trkpt lat="29.54868000" lon="82.15294000">
        <ele>2168.0000</ele>
        <time>2010-01-01T00:01:37Z</time>
      </trkpt>
      <trkpt lat="29.54880000" lon="82.15295000">
        <ele>2166.0000</ele>
        <time>2010-01-01T00:01:42Z</time>
      </trkpt>
      <trkpt lat="29.54890000" lon="82.15282000">
        <ele>2170.0000</ele>
        <time>2010-01-01T00:01:48Z</time>
      </trkpt>
      <trkpt lat="29.54888000" lon="82.15250000">
        <ele>2180.0000</ele>
        <time>2010-01-01T00:01:59Z</time>
      </trkpt>
      <trkpt lat="29.54889000" lon="82.15217000">
        <ele>2185.0000</ele>
        <time>2010-01-01T00:02:11Z</time>
      </trkpt>
      <trkpt lat="29.54895000" lon="82.15194000">
        <ele>2191.0000</ele>
        <time>2010-01-01T00:02:19Z</time>
      </trkpt>
      <trkpt lat="29.54905000" lon="82.15168000">
        <ele>2197.0000</ele>
        <time>2010-01-01T00:02:29Z</time>
      </trkpt>
      <trkpt lat="29.54924000" lon="82.15139000">
        <ele>2211.0000</ele>
        <time>2010-01-01T00:02:42Z</time>
      </trkpt>
      <trkpt lat="29.54943000" lon="82.15121000">
        <ele>2221.0000</ele>
        <time>2010-01-01T00:02:52Z</time>
      </trkpt>
      <trkpt lat="29.54963000" lon="82.15106000">
        <ele>2234.0000</ele>
        <time>2010-01-01T00:03:01Z</time>
      </trkpt>
      <trkpt lat="29.54972000" lon="82.15084000">
        <ele>2246.0000</ele>
        <time>2010-01-01T00:03:10Z</time>
      </trkpt>
      <trkpt lat="29.55000000" lon="82.15032000">
        <ele>2268.0000</ele>
        <time>2010-01-01T00:03:31Z</time>
      </trkpt>
      <trkpt lat="29.54996000" lon="82.14976000">
        <ele>2278.0000</ele>
        <time>2010-01-01T00:03:50Z</time>
      </trkpt>
      <trkpt lat="29.54986000" lon="82.14958000">
        <ele>2276.0000</ele>
        <time>2010-01-01T00:03:58Z</time>
      </trkpt>
      <trkpt lat="29.54981000" lon="82.14943000">
        <ele>2275.0000</ele>
        <time>2010-01-01T00:04:03Z</time>
      </trkpt>
      <trkpt lat="29.55016000" lon="82.14944000">
        <ele>2288.0000</ele>
        <time>2010-01-01T00:04:17Z</time>
      </trkpt>
      <trkpt lat="29.55060000" lon="82.14906000">
        <ele>2307.0000</ele>
        <time>2010-01-01T00:04:39Z</time>
      </trkpt>
      <trkpt lat="29.55062000" lon="82.14854000">
        <ele>2310.0000</ele>
        <time>2010-01-01T00:04:58Z</time>
      </trkpt>
      <trkpt lat="29.55075000" lon="82.14770000">
        <ele>2327.0000</ele>
        <time>2010-01-01T00:05:27Z</time>
      </trkpt>
      <trkpt lat="29.55050000" lon="82.14726000">
        <ele>2332.0000</ele>
        <time>2010-01-01T00:05:46Z</time>
      </trkpt>
      <trkpt lat="29.55030000" lon="82.14664000">
        <ele>2344.0000</ele>
        <time>2010-01-01T00:06:09Z</time>
      </trkpt>
      <trkpt lat="29.55011000" lon="82.14610000">
        <ele>2346.0000</ele>
        <time>2010-01-01T00:06:29Z</time>
      </trkpt>
      <trkpt lat="29.55006000" lon="82.14582000">
        <ele>2345.0000</ele>
        <time>2010-01-01T00:06:39Z</time>
      </trkpt>
      <trkpt lat="29.54996000" lon="82.14472000">
        <ele>2350.0000</ele>
        <time>2010-01-01T00:07:17Z</time>
      </trkpt>
      <trkpt lat="29.55006000" lon="82.14416000">
        <ele>2371.0000</ele>
        <time>2010-01-01T00:07:37Z</time>
      </trkpt>
      <trkpt lat="29.54962000" lon="82.14268000">
        <ele>2383.0000</ele>
        <time>2010-01-01T00:08:32Z</time>
      </trkpt>
      <trkpt lat="29.54947000" lon="82.14232000">
        <ele>2383.0000</ele>
        <time>2010-01-01T00:08:46Z</time>
      </trkpt>
      <trkpt lat="29.54920000" lon="82.14154000">
        <ele>2390.0000</ele>
        <time>2010-01-01T00:09:15Z</time>
      </trkpt>
      <trkpt lat="29.54907000" lon="82.14126000">
        <ele>2391.0000</ele>
        <time>2010-01-01T00:09:26Z</time>
      </trkpt>
      <trkpt lat="29.54914000" lon="82.14114000">
        <ele>2400.0000</ele>
        <time>2010-01-01T00:09:31Z</time>
      </trkpt>
      <trkpt lat="29.54898000" lon="82.14065000">
        <ele>2404.0000</ele>
        <time>2010-01-01T00:09:49Z</time>
      </trkpt>
      <trkpt lat="29.54887000" lon="82.14017000">
        <ele>2416.0000</ele>
        <time>2010-01-01T00:10:06Z</time>
      </trkpt>
      <trkpt lat="29.54863000" lon="82.13966000">
        <ele>2417.0000</ele>
        <time>2010-01-01T00:10:27Z</time>
      </trkpt>
      <trkpt lat="29.54862000" lon="82.13894000">
        <ele>2441.0000</ele>
        <time>2010-01-01T00:10:52Z</time>
      </trkpt>
      <trkpt lat="29.54846000" lon="82.13845000">
        <ele>2455.0000</ele>
        <time>2010-01-01T00:11:10Z</time>
      </trkpt>
      <trkpt lat="29.54831000" lon="82.13813000">
        <ele>2467.0000</ele>
        <time>2010-01-01T00:11:23Z</time>
      </trkpt>
      <trkpt lat="29.54809000" lon="82.13812000">
        <ele>2466.0000</ele>
        <time>2010-01-01T00:11:31Z</time>
      </trkpt>
      <trkpt lat="29.54773000" lon="82.13748000">
        <ele>2478.0000</ele>
        <time>2010-01-01T00:11:58Z</time>
      </trkpt>
      <trkpt lat="29.54748000" lon="82.13671000">
        <ele>2489.0000</ele>
        <time>2010-01-01T00:12:27Z</time>
      </trkpt>
      <trkpt lat="29.54721000" lon="82.13602000">
        <ele>2493.0000</ele>
        <time>2010-01-01T00:12:53Z</time>
      </trkpt>
      <trkpt lat="29.54701000" lon="82.13526000">
        <ele>2501.0000</ele>
        <time>2010-01-01T00:13:21Z</time>
      </trkpt>
      <trkpt lat="29.54701000" lon="82.13503000">
        <ele>2508.0000</ele>
        <time>2010-01-01T00:13:29Z</time>
      </trkpt>
      <trkpt lat="29.54698000" lon="82.13492000">
        <ele>2510.0000</ele>
        <time>2010-01-01T00:13:33Z</time>
      </trkpt>
      <trkpt lat="29.54698000" lon="82.13491000">
        <ele>2510.0000</ele>
        <time>2010-01-01T00:13:33Z</time>
      </trkpt>
      <trkpt lat="29.54692000" lon="82.13472000">
        <ele>2514.0000</ele>
        <time>2010-01-01T00:13:40Z</time>
      </trkpt>
      <trkpt lat="29.54704000" lon="82.13470000">
        <ele>2515.0000</ele>
        <time>2010-01-01T00:13:45Z</time>
      </trkpt>
      <trkpt lat="29.54700000" lon="82.13453000">
        <ele>2519.0000</ele>
        <time>2010-01-01T00:13:51Z</time>
      </trkpt>
      <trkpt lat="29.54699000" lon="82.13434000">
        <ele>2524.0000</ele>
        <time>2010-01-01T00:13:58Z</time>
      </trkpt>
      <trkpt lat="29.54684000" lon="82.13422000">
        <ele>2529.0000</ele>
        <time>2010-01-01T00:14:05Z</time>
      </trkpt>
      <trkpt lat="29.54666000" lon="82.13375000">
        <ele>2550.0000</ele>
        <time>2010-01-01T00:14:23Z</time>
      </trkpt>
      <trkpt lat="29.54665000" lon="82.13358000">
        <ele>2554.0000</ele>
        <time>2010-01-01T00:14:29Z</time>
      </trkpt>
      <trkpt lat="29.54671000" lon="82.13338000">
        <ele>2559.0000</ele>
        <time>2010-01-01T00:14:36Z</time>
      </trkpt>
      <trkpt lat="29.54669000" lon="82.13308000">
        <ele>2564.0000</ele>
        <time>2010-01-01T00:14:47Z</time>
      </trkpt>
      <trkpt lat="29.54673000" lon="82.13296000">
        <ele>2567.0000</ele>
        <time>2010-01-01T00:14:51Z</time>
      </trkpt>
      <trkpt lat="29.54659000" lon="82.13284000">
        <ele>2571.0000</ele>
        <time>2010-01-01T00:14:58Z</time>
      </trkpt>
      <trkpt lat="29.54650000" lon="82.13239000">
        <ele>2582.0000</ele>
        <time>2010-01-01T00:15:14Z</time>
      </trkpt>
      <trkpt lat="29.54649000" lon="82.13207000">
        <ele>2588.0000</ele>
        <time>2010-01-01T00:15:25Z</time>
      </trkpt>
      <trkpt lat="29.54623000" lon="82.13162000">
        <ele>2603.0000</ele>
        <time>2010-01-01T00:15:44Z</time>
      </trkpt>
      <trkpt lat="29.54619000" lon="82.13143000">
        <ele>2609.0000</ele>
        <time>2010-01-01T00:15:51Z</time>
      </trkpt>
      <trkpt lat="29.54623000" lon="82.13073000">
        <ele>2628.0000</ele>
        <time>2010-01-01T00:16:15Z</time>
      </trkpt>
      <trkpt lat="29.54598000" lon="82.13011000">
        <ele>2641.0000</ele>
        <time>2010-01-01T00:16:39Z</time>
      </trkpt>
      <trkpt lat="29.54588000" lon="82.12943000">
        <ele>2657.0000</ele>
        <time>2010-01-01T00:17:03Z</time>
      </trkpt>
      <trkpt lat="29.54589000" lon="82.12911000">
        <ele>2663.0000</ele>
        <time>2010-01-01T00:17:14Z</time>
      </trkpt>
      <trkpt lat="29.54600000" lon="82.12865000">
        <ele>2672.0000</ele>
        <time>2010-01-01T00:17:31Z</time>
      </trkpt>
      <trkpt lat="29.54588000" lon="82.12819000">
        <ele>2687.0000</ele>
        <time>2010-01-01T00:17:48Z</time>
      </trkpt>
      <trkpt lat="29.54596000" lon="82.12767000">
        <ele>2701.0000</ele>
        <time>2010-01-01T00:18:06Z</time>
      </trkpt>
      <trkpt lat="29.54575000" lon="82.12712000">
        <ele>2712.0000</ele>
        <time>2010-01-01T00:18:27Z</time>
      </trkpt>
      <trkpt lat="29.54548000" lon="82.12680000">
        <ele>2718.0000</ele>
        <time>2010-01-01T00:18:43Z</time>
      </trkpt>
      <trkpt lat="29.54549000" lon="82.12641000">
        <ele>2728.0000</ele>
        <time>2010-01-01T00:18:56Z</time>
      </trkpt>
      <trkpt lat="29.54544000" lon="82.12608000">
        <ele>2735.0000</ele>
        <time>2010-01-01T00:19:08Z</time>
      </trkpt>
      <trkpt lat="29.54563000" lon="82.12512000">
        <ele>2760.0000</ele>
        <time>2010-01-01T00:19:42Z</time>
      </trkpt>
      <trkpt lat="29.54561000" lon="82.12463000">
        <ele>2776.0000</ele>
        <time>2010-01-01T00:19:59Z</time>
      </trkpt>
      <trkpt lat="29.54570000" lon="82.12425000">
        <ele>2787.0000</ele>
        <time>2010-01-01T00:20:13Z</time>
      </trkpt>
      <trkpt lat="29.54569000" lon="82.12336000">
        <ele>2801.0000</ele>
        <time>2010-01-01T00:20:44Z</time>
      </trkpt>
      <trkpt lat="29.54553000" lon="82.12250000">
        <ele>2816.0000</ele>
        <time>2010-01-01T00:21:14Z</time>
      </trkpt>
      <trkpt lat="29.54552000" lon="82.12217000">
        <ele>2822.0000</ele>
        <time>2010-01-01T00:21:26Z</time>
      </trkpt>
      <trkpt lat="29.54543000" lon="82.12190000">
        <ele>2827.0000</ele>
        <time>2010-01-01T00:21:36Z</time>
      </trkpt>
      <trkpt lat="29.54544000" lon="82.12175000">
        <ele>2829.0000</ele>
        <time>2010-01-01T00:21:41Z</time>
      </trkpt>
      <trkpt lat="29.54539000" lon="82.12156000">
        <ele>2831.0000</ele>
        <time>2010-01-01T00:21:48Z</time>
      </trkpt>
      <trkpt lat="29.54539000" lon="82.12155000">
        <ele>2831.0000</ele>
        <time>2010-01-01T00:21:49Z</time>
      </trkpt>
      <trkpt lat="29.54484000" lon="82.11942000">
        <ele>2864.0000</ele>
        <time>2010-01-01T00:23:06Z</time>
      </trkpt>
      <trkpt lat="29.54486000" lon="82.11885000">
        <ele>2867.0000</ele>
        <time>2010-01-01T00:23:26Z</time>
      </trkpt>
      <trkpt lat="29.54513000" lon="82.11783000">
        <ele>2883.0000</ele>
        <time>2010-01-01T00:24:03Z</time>
      </trkpt>
      <trkpt lat="29.54548000" lon="82.11743000">
        <ele>2900.0000</ele>
        <time>2010-01-01T00:24:23Z</time>
      </trkpt>
      <trkpt lat="29.54573000" lon="82.11699000">
        <ele>2913.0000</ele>
        <time>2010-01-01T00:24:41Z</time>
      </trkpt>
      <trkpt lat="29.54585000" lon="82.11634000">
        <ele>2925.0000</ele>
        <time>2010-01-01T00:25:04Z</time>
      </trkpt>
      <trkpt lat="29.54602000" lon="82.11605000">
        <ele>2931.0000</ele>
        <time>2010-01-01T00:25:16Z</time>
      </trkpt>
      <trkpt lat="29.54643000" lon="82.11553000">
        <ele>2943.0000</ele>
        <time>2010-01-01T00:25:41Z</time>
      </trkpt>
      <trkpt lat="29.54634000" lon="82.11453000">
        <ele>2953.0000</ele>
        <time>2010-01-01T00:26:16Z</time>
      </trkpt>
      <trkpt lat="29.54645000" lon="82.11330000">
        <ele>2976.0000</ele>
        <time>2010-01-01T00:26:59Z</time>
      </trkpt>
      <trkpt lat="29.54639000" lon="82.11133000">
        <ele>3012.0000</ele>
        <time>2010-01-01T00:28:07Z</time>
      </trkpt>
      <trkpt lat="29.54619000" lon="82.11114000">
        <ele>3018.0000</ele>
        <time>2010-01-01T00:28:18Z</time>
      </trkpt>
      <trkpt lat="29.54578000" lon="82.11096000">
        <ele>3023.0000</ele>
        <time>2010-01-01T00:28:35Z</time>
      </trkpt>
      <trkpt lat="29.54578000" lon="82.11025000">
        <ele>3023.0000</ele>
        <time>2010-01-01T00:29:00Z</time>
      </trkpt>
      <trkpt lat="29.54592000" lon="82.10919000">
        <ele>3032.0000</ele>
        <time>2010-01-01T00:29:37Z</time>
      </trkpt>
      <trkpt lat="29.54565000" lon="82.10873000">
        <ele>3037.0000</ele>
        <time>2010-01-01T00:29:57Z</time>
      </trkpt>
      <trkpt lat="29.54557000" lon="82.10822000">
        <ele>3045.0000</ele>
        <time>2010-01-01T00:30:15Z</time>
      </trkpt>
      <trkpt lat="29.54536000" lon="82.10754000">
        <ele>3054.0000</ele>
        <time>2010-01-01T00:30:40Z</time>
      </trkpt>
      <trkpt lat="29.54533000" lon="82.10697000">
        <ele>3059.0000</ele>
        <time>2010-01-01T00:31:00Z</time>
      </trkpt>
      <trkpt lat="29.54521000" lon="82.10629000">
        <ele>3062.0000</ele>
        <time>2010-01-01T00:31:24Z</time>
      </trkpt>
      <trkpt lat="29.54500000" lon="82.10552000">
        <ele>3066.0000</ele>
        <time>2010-01-01T00:31:52Z</time>
      </trkpt>
      <trkpt lat="29.54496000" lon="82.10521000">
        <ele>3066.0000</ele>
        <time>2010-01-01T00:32:03Z</time>
      </trkpt>
      <trkpt lat="29.54496000" lon="82.10520000">
        <ele>3066.0000</ele>
        <time>2010-01-01T00:32:03Z</time>
      </trkpt>
      <trkpt lat="29.54493000" lon="82.10498000">
        <ele>3064.0000</ele>
        <time>2010-01-01T00:32:11Z</time>
      </trkpt>
      <trkpt lat="29.54490000" lon="82.10442000">
        <ele>3057.0000</ele>
        <time>2010-01-01T00:32:31Z</time>
      </trkpt>
      <trkpt lat="29.54497000" lon="82.10419000">
        <ele>3057.0000</ele>
        <time>2010-01-01T00:32:39Z</time>
      </trkpt>
      <trkpt lat="29.54496000" lon="82.10392000">
        <ele>3054.0000</ele>
        <time>2010-01-01T00:32:49Z</time>
      </trkpt>
      <trkpt lat="29.54487000" lon="82.10349000">
        <ele>3052.0000</ele>
        <time>2010-01-01T00:33:04Z</time>
      </trkpt>
      <trkpt lat="29.54473000" lon="82.10313000">
        <ele>3050.0000</ele>
        <time>2010-01-01T00:33:18Z</time>
      </trkpt>
      <trkpt lat="29.54421000" lon="82.10208000">
        <ele>3044.0000</ele>
        <time>2010-01-01T00:34:00Z</time>
      </trkpt>
      <trkpt lat="29.54404000" lon="82.10159000">
        <ele>3045.0000</ele>
        <time>2010-01-01T00:34:18Z</time>
      </trkpt>
      <trkpt lat="29.54392000" lon="82.10116000">
        <ele>3042.0000</ele>
        <time>2010-01-01T00:34:34Z</time>
      </trkpt>
      <trkpt lat="29.54388000" lon="82.10074000">
        <ele>3042.0000</ele>
        <time>2010-01-01T00:34:49Z</time>
      </trkpt>
      <trkpt lat="29.54396000" lon="82.09941000">
        <ele>3038.0000</ele>
        <time>2010-01-01T00:35:35Z</time>
      </trkpt>
      <trkpt lat="29.54413000" lon="82.09817000">
        <ele>3040.0000</ele>
        <time>2010-01-01T00:36:19Z</time>
      </trkpt>
      <trkpt lat="29.54421000" lon="82.09626000">
        <ele>3043.0000</ele>
        <time>2010-01-01T00:37:25Z</time>
      </trkpt>
      <trkpt lat="29.54447000" lon="82.09495000">
        <ele>3037.0000</ele>
        <time>2010-01-01T00:38:12Z</time>
      </trkpt>
      <trkpt lat="29.54500000" lon="82.09378000">
        <ele>3038.0000</ele>
        <time>2010-01-01T00:38:58Z</time>
      </trkpt>
      <trkpt lat="29.54491000" lon="82.09354000">
        <ele>3036.0000</ele>
        <time>2010-01-01T00:39:07Z</time>
      </trkpt>
      <trkpt lat="29.54469000" lon="82.09331000">
        <ele>3032.0000</ele>
        <time>2010-01-01T00:39:19Z</time>
      </trkpt>
      <trkpt lat="29.54451000" lon="82.09287000">
        <ele>3030.0000</ele>
        <time>2010-01-01T00:39:36Z</time>
      </trkpt>
      <trkpt lat="29.54436000" lon="82.09265000">
        <ele>3026.0000</ele>
        <time>2010-01-01T00:39:46Z</time>
      </trkpt>
      <trkpt lat="29.54431000" lon="82.09226000">
        <ele>3026.0000</ele>
        <time>2010-01-01T00:39:59Z</time>
      </trkpt>
      <trkpt lat="29.54422000" lon="82.09207000">
        <ele>3024.0000</ele>
        <time>2010-01-01T00:40:07Z</time>
      </trkpt>
      <trkpt lat="29.54409000" lon="82.09196000">
        <ele>3019.0000</ele>
        <time>2010-01-01T00:40:13Z</time>
      </trkpt>
      <trkpt lat="29.54398000" lon="82.09177000">
        <ele>3014.0000</ele>
        <time>2010-01-01T00:40:21Z</time>
      </trkpt>
      <trkpt lat="29.54378000" lon="82.09120000">
        <ele>3005.0000</ele>
        <time>2010-01-01T00:40:43Z</time>
      </trkpt>
      <trkpt lat="29.54368000" lon="82.09063000">
        <ele>3003.0000</ele>
        <time>2010-01-01T00:41:03Z</time>
      </trkpt>
      <trkpt lat="29.54342000" lon="82.08991000">
        <ele>2997.0000</ele>
        <time>2010-01-01T00:41:30Z</time>
      </trkpt>
      <trkpt lat="29.54337000" lon="82.08960000">
        <ele>2997.0000</ele>
        <time>2010-01-01T00:41:41Z</time>
      </trkpt>
      <trkpt lat="29.54335000" lon="82.08957000">
        <ele>2997.0000</ele>
        <time>2010-01-01T00:41:42Z</time>
      </trkpt>
      <trkpt lat="29.54335000" lon="82.08956000">
        <ele>2997.0000</ele>
        <time>2010-01-01T00:41:43Z</time>
      </trkpt>
      <trkpt lat="29.54314000" lon="82.08918000">
        <ele>2990.0000</ele>
        <time>2010-01-01T00:41:59Z</time>
      </trkpt>
      <trkpt lat="29.54309000" lon="82.08878000">
        <ele>2989.0000</ele>
        <time>2010-01-01T00:42:13Z</time>
      </trkpt>
      <trkpt lat="29.54209000" lon="82.08626000">
        <ele>2983.0000</ele>
        <time>2010-01-01T00:43:49Z</time>
      </trkpt>
      <trkpt lat="29.54193000" lon="82.08551000">
        <ele>2996.0000</ele>
        <time>2010-01-01T00:44:16Z</time>
      </trkpt>
      <trkpt lat="29.54157000" lon="82.08450000">
        <ele>2990.0000</ele>
        <time>2010-01-01T00:44:54Z</time>
      </trkpt>
      <trkpt lat="29.54129000" lon="82.08411000">
        <ele>2987.0000</ele>
        <time>2010-01-01T00:45:12Z</time>
      </trkpt>
      <trkpt lat="29.54105000" lon="82.08353000">
        <ele>2991.0000</ele>
        <time>2010-01-01T00:45:34Z</time>
      </trkpt>
      <trkpt lat="29.54055000" lon="82.08272000">
        <ele>2980.0000</ele>
        <time>2010-01-01T00:46:09Z</time>
      </trkpt>
      <trkpt lat="29.54022000" lon="82.08163000">
        <ele>2980.0000</ele>
        <time>2010-01-01T00:46:49Z</time>
      </trkpt>
      <trkpt lat="29.54012000" lon="82.08154000">
        <ele>2978.0000</ele>
        <time>2010-01-01T00:46:54Z</time>
      </trkpt>
      <trkpt lat="29.53997000" lon="82.08159000">
        <ele>2975.0000</ele>
        <time>2010-01-01T00:47:00Z</time>
      </trkpt>
      <trkpt lat="29.53988000" lon="82.08154000">
        <ele>2974.0000</ele>
        <time>2010-01-01T00:47:04Z</time>
      </trkpt>
      <trkpt lat="29.53971000" lon="82.08110000">
        <ele>2975.0000</ele>
        <time>2010-01-01T00:47:21Z</time>
      </trkpt>
      <trkpt lat="29.53903000" lon="82.08031000">
        <ele>2973.0000</ele>
        <time>2010-01-01T00:48:00Z</time>
      </trkpt>
      <trkpt lat="29.54000000" lon="82.08001000">
        <ele>2984.0000</ele>
        <time>2010-01-01T00:48:40Z</time>
      </trkpt>
      <trkpt lat="29.54039000" lon="82.07998000">
        <ele>2992.0000</ele>
        <time>2010-01-01T00:48:55Z</time>
      </trkpt>
      <trkpt lat="29.54053000" lon="82.07982000">
        <ele>2997.0000</ele>
        <time>2010-01-01T00:49:03Z</time>
      </trkpt>
      <trkpt lat="29.54054142" lon="82.07997322">
        <ele>2995.0000</ele>
        <time>2010-01-01T00:00:00Z</time>
      </trkpt>
      <trkpt lat="29.54047000" lon="82.07988000">
        <ele>2995.0000</ele>
        <time>2010-01-01T00:00:04Z</time>
      </trkpt>
      <trkpt lat="29.54039000" lon="82.07998000">
        <ele>2992.0000</ele>
        <time>2010-01-01T00:00:09Z</time>
      </trkpt>
      <trkpt lat="29.54000000" lon="82.08001000">
        <ele>2984.0000</ele>
        <time>2010-01-01T00:00:24Z</time>
      </trkpt>
      <trkpt lat="29.53944000" lon="82.08017000">
        <ele>2977.0000</ele>
        <time>2010-01-01T00:00:47Z</time>
      </trkpt>
      <trkpt lat="29.53903000" lon="82.08031000">
        <ele>2973.0000</ele>
        <time>2010-01-01T00:01:04Z</time>
      </trkpt>
      <trkpt lat="29.53971000" lon="82.08110000">
        <ele>2975.0000</ele>
        <time>2010-01-01T00:01:43Z</time>
      </trkpt>
      <trkpt lat="29.53988000" lon="82.08154000">
        <ele>2974.0000</ele>
        <time>2010-01-01T00:02:00Z</time>
      </trkpt>
      <trkpt lat="29.53997000" lon="82.08159000">
        <ele>2975.0000</ele>
        <time>2010-01-01T00:02:04Z</time>
      </trkpt>
      <trkpt lat="29.54012000" lon="82.08154000">
        <ele>2978.0000</ele>
        <time>2010-01-01T00:02:10Z</time>
      </trkpt>
      <trkpt lat="29.54022000" lon="82.08163000">
        <ele>2980.0000</ele>
        <time>2010-01-01T00:02:15Z</time>
      </trkpt>
      <trkpt lat="29.54048000" lon="82.08248000">
        <ele>2979.0000</ele>
        <time>2010-01-01T00:02:47Z</time>
      </trkpt>
      <trkpt lat="29.54048000" lon="82.08247000">
        <ele>2979.0000</ele>
        <time>2010-01-01T00:02:47Z</time>
      </trkpt>
      <trkpt lat="29.54055000" lon="82.08272000">
        <ele>2980.0000</ele>
        <time>2010-01-01T00:02:56Z</time>
      </trkpt>
      <trkpt lat="29.54105000" lon="82.08353000">
        <ele>2991.0000</ele>
        <time>2010-01-01T00:03:31Z</time>
      </trkpt>
      <trkpt lat="29.54129000" lon="82.08411000">
        <ele>2987.0000</ele>
        <time>2010-01-01T00:03:53Z</time>
      </trkpt>
      <trkpt lat="29.54157000" lon="82.08450000">
        <ele>2990.0000</ele>
        <time>2010-01-01T00:04:11Z</time>
      </trkpt>
      <trkpt lat="29.54193000" lon="82.08551000">
        <ele>2996.0000</ele>
        <time>2010-01-01T00:04:49Z</time>
      </trkpt>
      <trkpt lat="29.54209000" lon="82.08626000">
        <ele>2983.0000</ele>
        <time>2010-01-01T00:05:16Z</time>
      </trkpt>
      <trkpt lat="29.54309000" lon="82.08878000">
        <ele>2989.0000</ele>
        <time>2010-01-01T00:06:52Z</time>
      </trkpt>
      <trkpt lat="29.54314000" lon="82.08918000">
        <ele>2990.0000</ele>
        <time>2010-01-01T00:07:06Z</time>
      </trkpt>
      <trkpt lat="29.54337000" lon="82.08960000">
        <ele>2997.0000</ele>
        <time>2010-01-01T00:07:23Z</time>
      </trkpt>
      <trkpt lat="29.54342000" lon="82.08991000">
        <ele>2997.0000</ele>
        <time>2010-01-01T00:07:34Z</time>
      </trkpt>
      <trkpt lat="29.54368000" lon="82.09063000">
        <ele>3003.0000</ele>
        <time>2010-01-01T00:08:02Z</time>
      </trkpt>
      <trkpt lat="29.54378000" lon="82.09120000">
        <ele>3005.0000</ele>
        <time>2010-01-01T00:08:22Z</time>
      </trkpt>
      <trkpt lat="29.54398000" lon="82.09177000">
        <ele>3014.0000</ele>
        <time>2010-01-01T00:08:43Z</time>
      </trkpt>
      <trkpt lat="29.54409000" lon="82.09196000">
        <ele>3019.0000</ele>
        <time>2010-01-01T00:08:51Z</time>
      </trkpt>
      <trkpt lat="29.54422000" lon="82.09207000">
        <ele>3024.0000</ele>
        <time>2010-01-01T00:08:58Z</time>
      </trkpt>
      <trkpt lat="29.54431000" lon="82.09226000">
        <ele>3026.0000</ele>
        <time>2010-01-01T00:09:05Z</time>
      </trkpt>
      <trkpt lat="29.54436000" lon="82.09265000">
        <ele>3026.0000</ele>
        <time>2010-01-01T00:09:19Z</time>
      </trkpt>
      <trkpt lat="29.54451000" lon="82.09287000">
        <ele>3030.0000</ele>
        <time>2010-01-01T00:09:29Z</time>
      </trkpt>
      <trkpt lat="29.54469000" lon="82.09331000">
        <ele>3032.0000</ele>
        <time>2010-01-01T00:09:46Z</time>
      </trkpt>
      <trkpt lat="29.54491000" lon="82.09354000">
        <ele>3036.0000</ele>
        <time>2010-01-01T00:09:57Z</time>
      </trkpt>
      <trkpt lat="29.54500000" lon="82.09378000">
        <ele>3038.0000</ele>
        <time>2010-01-01T00:10:07Z</time>
      </trkpt>
      <trkpt lat="29.54447000" lon="82.09495000">
        <ele>3037.0000</ele>
        <time>2010-01-01T00:10:52Z</time>
      </trkpt>
      <trkpt lat="29.54421000" lon="82.09626000">
        <ele>3043.0000</ele>
        <time>2010-01-01T00:11:39Z</time>
      </trkpt>
      <trkpt lat="29.54413000" lon="82.09817000">
        <ele>3040.0000</ele>
        <time>2010-01-01T00:12:46Z</time>
      </trkpt>
      <trkpt lat="29.54396000" lon="82.09941000">
        <ele>3038.0000</ele>
        <time>2010-01-01T00:13:30Z</time>
      </trkpt>
      <trkpt lat="29.54388000" lon="82.10074000">
        <ele>3042.0000</ele>
        <time>2010-01-01T00:14:16Z</time>
      </trkpt>
      <trkpt lat="29.54392000" lon="82.10116000">
        <ele>3042.0000</ele>
        <time>2010-01-01T00:14:31Z</time>
      </trkpt>
      <trkpt lat="29.54404000" lon="82.10159000">
        <ele>3045.0000</ele>
        <time>2010-01-01T00:14:46Z</time>
      </trkpt>
      <trkpt lat="29.54421000" lon="82.10208000">
        <ele>3044.0000</ele>
        <time>2010-01-01T00:15:05Z</time>
      </trkpt>
      <trkpt lat="29.54473000" lon="82.10313000">
        <ele>3050.0000</ele>
        <time>2010-01-01T00:15:47Z</time>
      </trkpt>
      <trkpt lat="29.54487000" lon="82.10349000">
        <ele>3052.0000</ele>
        <time>2010-01-01T00:16:01Z</time>
      </trkpt>
      <trkpt lat="29.54496000" lon="82.10392000">
        <ele>3054.0000</ele>
        <time>2010-01-01T00:16:16Z</time>
      </trkpt>
      <trkpt lat="29.54497000" lon="82.10419000">
        <ele>3057.0000</ele>
        <time>2010-01-01T00:16:25Z</time>
      </trkpt>
      <trkpt lat="29.54490000" lon="82.10442000">
        <ele>3057.0000</ele>
        <time>2010-01-01T00:16:34Z</time>
      </trkpt>
      <trkpt lat="29.54493000" lon="82.10498000">
        <ele>3064.0000</ele>
        <time>2010-01-01T00:16:53Z</time>
      </trkpt>
      <trkpt lat="29.54500000" lon="82.10552000">
        <ele>3066.0000</ele>
        <time>2010-01-01T00:17:12Z</time>
      </trkpt>
      <trkpt lat="29.54521000" lon="82.10629000">
        <ele>3062.0000</ele>
        <time>2010-01-01T00:17:41Z</time>
      </trkpt>
      <trkpt lat="29.54533000" lon="82.10697000">
        <ele>3059.0000</ele>
        <time>2010-01-01T00:18:05Z</time>
      </trkpt>
      <trkpt lat="29.54536000" lon="82.10754000">
        <ele>3054.0000</ele>
        <time>2010-01-01T00:18:25Z</time>
      </trkpt>
      <trkpt lat="29.54557000" lon="82.10822000">
        <ele>3045.0000</ele>
        <time>2010-01-01T00:18:50Z</time>
      </trkpt>
      <trkpt lat="29.54565000" lon="82.10873000">
        <ele>3037.0000</ele>
        <time>2010-01-01T00:19:08Z</time>
      </trkpt>
      <trkpt lat="29.54592000" lon="82.10919000">
        <ele>3032.0000</ele>
        <time>2010-01-01T00:19:27Z</time>
      </trkpt>
      <trkpt lat="29.54578000" lon="82.11025000">
        <ele>3023.0000</ele>
        <time>2010-01-01T00:20:04Z</time>
      </trkpt>
      <trkpt lat="29.54578000" lon="82.11096000">
        <ele>3023.0000</ele>
        <time>2010-01-01T00:20:29Z</time>
      </trkpt>
      <trkpt lat="29.54619000" lon="82.11114000">
        <ele>3018.0000</ele>
        <time>2010-01-01T00:20:47Z</time>
      </trkpt>
      <trkpt lat="29.54639000" lon="82.11133000">
        <ele>3012.0000</ele>
        <time>2010-01-01T00:20:57Z</time>
      </trkpt>
      <trkpt lat="29.54645000" lon="82.11330000">
        <ele>2976.0000</ele>
        <time>2010-01-01T00:22:06Z</time>
      </trkpt>
      <trkpt lat="29.54634000" lon="82.11453000">
        <ele>2953.0000</ele>
        <time>2010-01-01T00:22:49Z</time>
      </trkpt>
      <trkpt lat="29.54643000" lon="82.11553000">
        <ele>2943.0000</ele>
        <time>2010-01-01T00:23:24Z</time>
      </trkpt>
      <trkpt lat="29.54602000" lon="82.11605000">
        <ele>2931.0000</ele>
        <time>2010-01-01T00:23:48Z</time>
      </trkpt>
      <trkpt lat="29.54585000" lon="82.11634000">
        <ele>2925.0000</ele>
        <time>2010-01-01T00:24:00Z</time>
      </trkpt>
      <trkpt lat="29.54573000" lon="82.11699000">
        <ele>2913.0000</ele>
        <time>2010-01-01T00:24:24Z</time>
      </trkpt>
      <trkpt lat="29.54548000" lon="82.11743000">
        <ele>2900.0000</ele>
        <time>2010-01-01T00:24:42Z</time>
      </trkpt>
      <trkpt lat="29.54513000" lon="82.11783000">
        <ele>2883.0000</ele>
        <time>2010-01-01T00:25:02Z</time>
      </trkpt>
      <trkpt lat="29.54486000" lon="82.11885000">
        <ele>2867.0000</ele>
        <time>2010-01-01T00:25:39Z</time>
      </trkpt>
      <trkpt lat="29.54484000" lon="82.11942000">
        <ele>2864.0000</ele>
        <time>2010-01-01T00:25:59Z</time>
      </trkpt>
      <trkpt lat="29.54544000" lon="82.12175000">
        <ele>2829.0000</ele>
        <time>2010-01-01T00:27:23Z</time>
      </trkpt>
      <trkpt lat="29.54543000" lon="82.12190000">
        <ele>2827.0000</ele>
        <time>2010-01-01T00:27:29Z</time>
      </trkpt>
      <trkpt lat="29.54552000" lon="82.12217000">
        <ele>2822.0000</ele>
        <time>2010-01-01T00:27:39Z</time>
      </trkpt>
      <trkpt lat="29.54553000" lon="82.12250000">
        <ele>2816.0000</ele>
        <time>2010-01-01T00:27:50Z</time>
      </trkpt>
      <trkpt lat="29.54569000" lon="82.12336000">
        <ele>2801.0000</ele>
        <time>2010-01-01T00:28:21Z</time>
      </trkpt>
      <trkpt lat="29.54570000" lon="82.12425000">
        <ele>2787.0000</ele>
        <time>2010-01-01T00:28:52Z</time>
      </trkpt>
      <trkpt lat="29.54561000" lon="82.12463000">
        <ele>2776.0000</ele>
        <time>2010-01-01T00:29:05Z</time>
      </trkpt>
      <trkpt lat="29.54563000" lon="82.12512000">
        <ele>2760.0000</ele>
        <time>2010-01-01T00:29:23Z</time>
      </trkpt>
      <trkpt lat="29.54544000" lon="82.12608000">
        <ele>2735.0000</ele>
        <time>2010-01-01T00:29:57Z</time>
      </trkpt>
      <trkpt lat="29.54549000" lon="82.12641000">
        <ele>2728.0000</ele>
        <time>2010-01-01T00:30:08Z</time>
      </trkpt>
      <trkpt lat="29.54548000" lon="82.12680000">
        <ele>2718.0000</ele>
        <time>2010-01-01T00:30:22Z</time>
      </trkpt>
      <trkpt lat="29.54575000" lon="82.12712000">
        <ele>2712.0000</ele>
        <time>2010-01-01T00:30:38Z</time>
      </trkpt>
      <trkpt lat="29.54596000" lon="82.12767000">
        <ele>2701.0000</ele>
        <time>2010-01-01T00:30:58Z</time>
      </trkpt>
      <trkpt lat="29.54588000" lon="82.12819000">
        <ele>2687.0000</ele>
        <time>2010-01-01T00:31:17Z</time>
      </trkpt>
      <trkpt lat="29.54600000" lon="82.12865000">
        <ele>2672.0000</ele>
        <time>2010-01-01T00:31:34Z</time>
      </trkpt>
      <trkpt lat="29.54589000" lon="82.12911000">
        <ele>2663.0000</ele>
        <time>2010-01-01T00:31:50Z</time>
      </trkpt>
      <trkpt lat="29.54588000" lon="82.12943000">
        <ele>2657.0000</ele>
        <time>2010-01-01T00:32:01Z</time>
      </trkpt>
      <trkpt lat="29.54598000" lon="82.13011000">
        <ele>2641.0000</ele>
        <time>2010-01-01T00:32:25Z</time>
      </trkpt>
      <trkpt lat="29.54623000" lon="82.13073000">
        <ele>2628.0000</ele>
        <time>2010-01-01T00:32:49Z</time>
      </trkpt>
      <trkpt lat="29.54619000" lon="82.13143000">
        <ele>2609.0000</ele>
        <time>2010-01-01T00:33:14Z</time>
      </trkpt>
      <trkpt lat="29.54623000" lon="82.13162000">
        <ele>2603.0000</ele>
        <time>2010-01-01T00:33:20Z</time>
      </trkpt>
      <trkpt lat="29.54649000" lon="82.13207000">
        <ele>2588.0000</ele>
        <time>2010-01-01T00:33:39Z</time>
      </trkpt>
      <trkpt lat="29.54650000" lon="82.13239000">
        <ele>2582.0000</ele>
        <time>2010-01-01T00:33:50Z</time>
      </trkpt>
      <trkpt lat="29.54659000" lon="82.13284000">
        <ele>2571.0000</ele>
        <time>2010-01-01T00:34:06Z</time>
      </trkpt>
      <trkpt lat="29.54673000" lon="82.13296000">
        <ele>2567.0000</ele>
        <time>2010-01-01T00:34:13Z</time>
      </trkpt>
      <trkpt lat="29.54669000" lon="82.13308000">
        <ele>2564.0000</ele>
        <time>2010-01-01T00:34:18Z</time>
      </trkpt>
      <trkpt lat="29.54671000" lon="82.13338000">
        <ele>2559.0000</ele>
        <time>2010-01-01T00:34:28Z</time>
      </trkpt>
      <trkpt lat="29.54665000" lon="82.13358000">
        <ele>2554.0000</ele>
        <time>2010-01-01T00:34:36Z</time>
      </trkpt>
      <trkpt lat="29.54666000" lon="82.13375000">
        <ele>2550.0000</ele>
        <time>2010-01-01T00:34:42Z</time>
      </trkpt>
      <trkpt lat="29.54684000" lon="82.13422000">
        <ele>2529.0000</ele>
        <time>2010-01-01T00:35:00Z</time>
      </trkpt>
      <trkpt lat="29.54699000" lon="82.13434000">
        <ele>2524.0000</ele>
        <time>2010-01-01T00:35:07Z</time>
      </trkpt>
      <trkpt lat="29.54700000" lon="82.13453000">
        <ele>2519.0000</ele>
        <time>2010-01-01T00:35:14Z</time>
      </trkpt>
      <trkpt lat="29.54704000" lon="82.13470000">
        <ele>2515.0000</ele>
        <time>2010-01-01T00:35:20Z</time>
      </trkpt>
      <trkpt lat="29.54692000" lon="82.13472000">
        <ele>2514.0000</ele>
        <time>2010-01-01T00:35:25Z</time>
      </trkpt>
      <trkpt lat="29.54701000" lon="82.13503000">
        <ele>2508.0000</ele>
        <time>2010-01-01T00:35:36Z</time>
      </trkpt>
      <trkpt lat="29.54701000" lon="82.13526000">
        <ele>2501.0000</ele>
        <time>2010-01-01T00:35:44Z</time>
      </trkpt>
      <trkpt lat="29.54721000" lon="82.13602000">
        <ele>2493.0000</ele>
        <time>2010-01-01T00:36:12Z</time>
      </trkpt>
      <trkpt lat="29.54748000" lon="82.13671000">
        <ele>2489.0000</ele>
        <time>2010-01-01T00:36:38Z</time>
      </trkpt>
      <trkpt lat="29.54773000" lon="82.13748000">
        <ele>2478.0000</ele>
        <time>2010-01-01T00:37:07Z</time>
      </trkpt>
      <trkpt lat="29.54809000" lon="82.13812000">
        <ele>2466.0000</ele>
        <time>2010-01-01T00:37:33Z</time>
      </trkpt>
      <trkpt lat="29.54831000" lon="82.13813000">
        <ele>2467.0000</ele>
        <time>2010-01-01T00:37:42Z</time>
      </trkpt>
      <trkpt lat="29.54846000" lon="82.13845000">
        <ele>2455.0000</ele>
        <time>2010-01-01T00:37:55Z</time>
      </trkpt>
      <trkpt lat="29.54862000" lon="82.13894000">
        <ele>2441.0000</ele>
        <time>2010-01-01T00:38:13Z</time>
      </trkpt>
      <trkpt lat="29.54863000" lon="82.13966000">
        <ele>2417.0000</ele>
        <time>2010-01-01T00:38:38Z</time>
      </trkpt>
      <trkpt lat="29.54887000" lon="82.14017000">
        <ele>2416.0000</ele>
        <time>2010-01-01T00:38:58Z</time>
      </trkpt>
      <trkpt lat="29.54898000" lon="82.14065000">
        <ele>2404.0000</ele>
        <time>2010-01-01T00:39:15Z</time>
      </trkpt>
      <trkpt lat="29.54914000" lon="82.14114000">
        <ele>2400.0000</ele>
        <time>2010-01-01T00:39:34Z</time>
      </trkpt>
      <trkpt lat="29.54907000" lon="82.14126000">
        <ele>2391.0000</ele>
        <time>2010-01-01T00:39:39Z</time>
      </trkpt>
      <trkpt lat="29.54920000" lon="82.14154000">
        <ele>2390.0000</ele>
        <time>2010-01-01T00:39:50Z</time>
      </trkpt>
      <trkpt lat="29.54947000" lon="82.14232000">
        <ele>2383.0000</ele>
        <time>2010-01-01T00:40:19Z</time>
      </trkpt>
      <trkpt lat="29.54962000" lon="82.14268000">
        <ele>2383.0000</ele>
        <time>2010-01-01T00:40:33Z</time>
      </trkpt>
      <trkpt lat="29.55006000" lon="82.14416000">
        <ele>2371.0000</ele>
        <time>2010-01-01T00:41:27Z</time>
      </trkpt>
      <trkpt lat="29.54996000" lon="82.14472000">
        <ele>2350.0000</ele>
        <time>2010-01-01T00:41:47Z</time>
      </trkpt>
      <trkpt lat="29.55006000" lon="82.14582000">
        <ele>2345.0000</ele>
        <time>2010-01-01T00:42:26Z</time>
      </trkpt>
      <trkpt lat="29.55011000" lon="82.14610000">
        <ele>2346.0000</ele>
        <time>2010-01-01T00:42:36Z</time>
      </trkpt>
      <trkpt lat="29.55039000" lon="82.14694000">
        <ele>2335.0000</ele>
        <time>2010-01-01T00:43:07Z</time>
      </trkpt>
      <trkpt lat="29.55039000" lon="82.14693000">
        <ele>2336.0000</ele>
        <time>2010-01-01T00:43:07Z</time>
      </trkpt>
      <trkpt lat="29.55050000" lon="82.14726000">
        <ele>2332.0000</ele>
        <time>2010-01-01T00:43:20Z</time>
      </trkpt>
      <trkpt lat="29.55075000" lon="82.14770000">
        <ele>2327.0000</ele>
        <time>2010-01-01T00:43:38Z</time>
      </trkpt>
      <trkpt lat="29.55062000" lon="82.14854000">
        <ele>2310.0000</ele>
        <time>2010-01-01T00:44:08Z</time>
      </trkpt>
      <trkpt lat="29.55060000" lon="82.14906000">
        <ele>2307.0000</ele>
        <time>2010-01-01T00:44:26Z</time>
      </trkpt>
      <trkpt lat="29.55016000" lon="82.14944000">
        <ele>2288.0000</ele>
        <time>2010-01-01T00:44:48Z</time>
      </trkpt>
      <trkpt lat="29.54981000" lon="82.14943000">
        <ele>2275.0000</ele>
        <time>2010-01-01T00:45:02Z</time>
      </trkpt>
      <trkpt lat="29.54986000" lon="82.14958000">
        <ele>2276.0000</ele>
        <time>2010-01-01T00:45:07Z</time>
      </trkpt>
      <trkpt lat="29.54996000" lon="82.14976000">
        <ele>2278.0000</ele>
        <time>2010-01-01T00:45:15Z</time>
      </trkpt>
      <trkpt lat="29.55000000" lon="82.15032000">
        <ele>2268.0000</ele>
        <time>2010-01-01T00:45:34Z</time>
      </trkpt>
      <trkpt lat="29.54972000" lon="82.15084000">
        <ele>2246.0000</ele>
        <time>2010-01-01T00:45:56Z</time>
      </trkpt>
      <trkpt lat="29.54963000" lon="82.15106000">
        <ele>2234.0000</ele>
        <time>2010-01-01T00:46:04Z</time>
      </trkpt>
      <trkpt lat="29.54943000" lon="82.15121000">
        <ele>2221.0000</ele>
        <time>2010-01-01T00:46:14Z</time>
      </trkpt>
      <trkpt lat="29.54924000" lon="82.15139000">
        <ele>2211.0000</ele>
        <time>2010-01-01T00:46:24Z</time>
      </trkpt>
      <trkpt lat="29.54905000" lon="82.15168000">
        <ele>2197.0000</ele>
        <time>2010-01-01T00:46:36Z</time>
      </trkpt>
      <trkpt lat="29.54895000" lon="82.15194000">
        <ele>2191.0000</ele>
        <time>2010-01-01T00:46:46Z</time>
      </trkpt>
      <trkpt lat="29.54889000" lon="82.15217000">
        <ele>2185.0000</ele>
        <time>2010-01-01T00:46:54Z</time>
      </trkpt>
      <trkpt lat="29.54888000" lon="82.15250000">
        <ele>2180.0000</ele>
        <time>2010-01-01T00:47:06Z</time>
      </trkpt>
      <trkpt lat="29.54890000" lon="82.15282000">
        <ele>2170.0000</ele>
        <time>2010-01-01T00:47:17Z</time>
      </trkpt>
      <trkpt lat="29.54880000" lon="82.15295000">
        <ele>2166.0000</ele>
        <time>2010-01-01T00:47:23Z</time>
      </trkpt>
      <trkpt lat="29.54868000" lon="82.15294000">
        <ele>2168.0000</ele>
        <time>2010-01-01T00:47:28Z</time>
      </trkpt>
      <trkpt lat="29.54861000" lon="82.15298000">
        <ele>2168.0000</ele>
        <time>2010-01-01T00:47:31Z</time>
      </trkpt>
      <trkpt lat="29.54851000" lon="82.15313000">
        <ele>2163.0000</ele>
        <time>2010-01-01T00:47:38Z</time>
      </trkpt>
      <trkpt lat="29.54844000" lon="82.15348000">
        <ele>2154.0000</ele>
        <time>2010-01-01T00:47:50Z</time>
      </trkpt>
      <trkpt lat="29.54847000" lon="82.15360000">
        <ele>2151.0000</ele>
        <time>2010-01-01T00:47:55Z</time>
      </trkpt>
      <trkpt lat="29.54855000" lon="82.15369000">
        <ele>2148.0000</ele>
        <time>2010-01-01T00:47:59Z</time>
      </trkpt>
      <trkpt lat="29.54863000" lon="82.15374000">
        <ele>2145.0000</ele>
        <time>2010-01-01T00:48:03Z</time>
      </trkpt>
      <trkpt lat="29.54875000" lon="82.15388000">
        <ele>2138.0000</ele>
        <time>2010-01-01T00:48:10Z</time>
      </trkpt>
      <trkpt lat="29.54889000" lon="82.15418000">
        <ele>2123.0000</ele>
        <time>2010-01-01T00:48:21Z</time>
      </trkpt>
      <trkpt lat="29.54886000" lon="82.15436000">
        <ele>2119.0000</ele>
        <time>2010-01-01T00:48:28Z</time>
      </trkpt>
      <trkpt lat="29.54864000" lon="82.15462000">
        <ele>2115.0000</ele>
        <time>2010-01-01T00:48:40Z</time>
      </trkpt>
      <trkpt lat="29.54849000" lon="82.15493000">
        <ele>2107.0000</ele>
        <time>2010-01-01T00:48:53Z</time>
      </trkpt>
      <trkpt lat="29.54836000" lon="82.15536000">
        <ele>2097.0000</ele>
        <time>2010-01-01T00:49:09Z</time>
      </trkpt>
      <trkpt lat="29.54822000" lon="82.15575000">
        <ele>2099.0000</ele>
        <time>2010-01-01T00:49:23Z</time>
      </trkpt>
      <trkpt lat="29.54825000" lon="82.15579000">
        <ele>2097.0000</ele>
        <time>2010-01-01T00:49:25Z</time>
      </trkpt>
      <trkpt lat="29.54813000" lon="82.15649000">
        <ele>2103.0000</ele>
        <time>2010-01-01T00:49:50Z</time>
      </trkpt>
      <trkpt lat="29.54802000" lon="82.15690000">
        <ele>2098.0000</ele>
        <time>2010-01-01T00:50:05Z</time>
      </trkpt>
      <trkpt lat="29.54798000" lon="82.15738000">
        <ele>2082.0000</ele>
        <time>2010-01-01T00:50:22Z</time>
      </trkpt>
      <trkpt lat="29.54791000" lon="82.15771000">
        <ele>2081.0000</ele>
        <time>2010-01-01T00:50:34Z</time>
      </trkpt>
      <trkpt lat="29.54790000" lon="82.15808000">
        <ele>2084.0000</ele>
        <time>2010-01-01T00:50:46Z</time>
      </trkpt>
      <trkpt lat="29.54788000" lon="82.15826000">
        <ele>2085.0000</ele>
        <time>2010-01-01T00:50:53Z</time>
      </trkpt>
      <trkpt lat="29.54793000" lon="82.15860000">
        <ele>2076.0000</ele>
        <time>2010-01-01T00:51:05Z</time>
      </trkpt>
      <trkpt lat="29.54833000" lon="82.15744000">
        <ele>2069.0000</ele>
        <time>2010-01-01T00:51:48Z</time>
      </trkpt>
      <trkpt lat="29.54885000" lon="82.15670000">
        <ele>2051.0000</ele>
        <time>2010-01-01T00:52:21Z</time>
      </trkpt>
      <trkpt lat="29.54907000" lon="82.15617000">
        <ele>2056.0000</ele>
        <time>2010-01-01T00:52:42Z</time>
      </trkpt>
      <trkpt lat="29.54922000" lon="82.15603000">
        <ele>2053.0000</ele>
        <time>2010-01-01T00:52:50Z</time>
      </trkpt>
      <trkpt lat="29.54963000" lon="82.15587000">
        <ele>2050.0000</ele>
        <time>2010-01-01T00:53:07Z</time>
      </trkpt>
      <trkpt lat="29.55033000" lon="82.15602000">
        <ele>2042.0000</ele>
        <time>2010-01-01T00:53:35Z</time>
      </trkpt>
      <trkpt lat="29.55063000" lon="82.15582000">
        <ele>2045.0000</ele>
        <time>2010-01-01T00:53:49Z</time>
      </trkpt>
      <trkpt lat="29.55076000" lon="82.15556000">
        <ele>2048.0000</ele>
        <time>2010-01-01T00:54:00Z</time>
      </trkpt>
      <trkpt lat="29.55095000" lon="82.15540000">
        <ele>2049.0000</ele>
        <time>2010-01-01T00:54:09Z</time>
      </trkpt>
      <trkpt lat="29.55123000" lon="82.15538000">
        <ele>2047.0000</ele>
        <time>2010-01-01T00:54:20Z</time>
      </trkpt>
      <trkpt lat="29.55149000" lon="82.15514000">
        <ele>2054.0000</ele>
        <time>2010-01-01T00:54:34Z</time>
      </trkpt>
      <trkpt lat="29.55215000" lon="82.15551000">
        <ele>2047.0000</ele>
        <time>2010-01-01T00:55:03Z</time>
      </trkpt>
      <trkpt lat="29.55258000" lon="82.15593000">
        <ele>2038.0000</ele>
        <time>2010-01-01T00:55:26Z</time>
      </trkpt>
      <trkpt lat="29.55268000" lon="82.15614000">
        <ele>2029.0000</ele>
        <time>2010-01-01T00:55:34Z</time>
      </trkpt>
      <trkpt lat="29.55317000" lon="82.15618000">
        <ele>2033.0000</ele>
        <time>2010-01-01T00:55:54Z</time>
      </trkpt>
      <trkpt lat="29.55346000" lon="82.15632000">
        <ele>2026.0000</ele>
        <time>2010-01-01T00:56:06Z</time>
      </trkpt>
      <trkpt lat="29.55358000" lon="82.15650000">
        <ele>2013.0000</ele>
        <time>2010-01-01T00:56:14Z</time>
      </trkpt>
      <trkpt lat="29.55298000" lon="82.15675000">
        <ele>1998.0000</ele>
        <time>2010-01-01T00:56:40Z</time>
      </trkpt>
      <trkpt lat="29.55330000" lon="82.15696000">
        <ele>1987.0000</ele>
        <time>2010-01-01T00:56:54Z</time>
      </trkpt>
      <trkpt lat="29.55361000" lon="82.15682000">
        <ele>1989.0000</ele>
        <time>2010-01-01T00:57:08Z</time>
      </trkpt>
      <trkpt lat="29.55428000" lon="82.15690000">
        <ele>1974.0000</ele>
        <time>2010-01-01T00:57:35Z</time>
      </trkpt>
      <trkpt lat="29.55472000" lon="82.15711000">
        <ele>1970.0000</ele>
        <time>2010-01-01T00:57:54Z</time>
      </trkpt>
      <trkpt lat="29.55483000" lon="82.15727000">
        <ele>1962.0000</ele>
        <time>2010-01-01T00:58:01Z</time>
      </trkpt>
      <trkpt lat="29.55551000" lon="82.15748000">
        <ele>1941.0000</ele>
        <time>2010-01-01T00:58:29Z</time>
      </trkpt>
      <trkpt lat="29.55589000" lon="82.15707000">
        <ele>1935.0000</ele>
        <time>2010-01-01T00:58:50Z</time>
      </trkpt>
      <trkpt lat="29.55608000" lon="82.15708000">
        <ele>1924.0000</ele>
        <time>2010-01-01T00:58:58Z</time>
      </trkpt>
      <trkpt lat="29.55621000" lon="82.15645000">
        <ele>1944.0000</ele>
        <time>2010-01-01T00:59:20Z</time>
      </trkpt>
      <trkpt lat="29.55653000" lon="82.15702000">
        <ele>1921.0000</ele>
        <time>2010-01-01T00:59:44Z</time>
      </trkpt>
      <trkpt lat="29.55685000" lon="82.15730000">
        <ele>1907.0000</ele>
        <time>2010-01-01T01:00:00Z</time>
      </trkpt>
      <trkpt lat="29.55647000" lon="82.15782000">
        <ele>1887.0000</ele>
        <time>2010-01-01T01:00:23Z</time>
      </trkpt>
      <trkpt lat="29.55640000" lon="82.15814000">
        <ele>1870.0000</ele>
        <time>2010-01-01T01:00:35Z</time>
      </trkpt>
      <trkpt lat="29.55663000" lon="82.15839000">
        <ele>1849.0000</ele>
        <time>2010-01-01T01:00:48Z</time>
      </trkpt>
      <trkpt lat="29.55711000" lon="82.15801000">
        <ele>1871.0000</ele>
        <time>2010-01-01T01:01:11Z</time>
      </trkpt>
      <trkpt lat="29.55756000" lon="82.15747000">
        <ele>1862.0000</ele>
        <time>2010-01-01T01:01:37Z</time>
      </trkpt>
      <trkpt lat="29.55781000" lon="82.15678000">
        <ele>1859.0000</ele>
        <time>2010-01-01T01:02:03Z</time>
      </trkpt>
      <trkpt lat="29.55854000" lon="82.15644000">
        <ele>1836.0000</ele>
        <time>2010-01-01T01:02:35Z</time>
      </trkpt>
      <trkpt lat="29.55878000" lon="82.15686000">
        <ele>1802.0000</ele>
        <time>2010-01-01T01:02:52Z</time>
      </trkpt>
      <trkpt lat="29.55934000" lon="82.15685000">
        <ele>1784.0000</ele>
        <time>2010-01-01T01:03:14Z</time>
      </trkpt>
      <trkpt lat="29.55963000" lon="82.15668000">
        <ele>1782.0000</ele>
        <time>2010-01-01T01:03:28Z</time>
      </trkpt>
      <trkpt lat="29.56013000" lon="82.15655000">
        <ele>1772.0000</ele>
        <time>2010-01-01T01:03:48Z</time>
      </trkpt>
      <trkpt lat="29.56039000" lon="82.15654000">
        <ele>1763.0000</ele>
        <time>2010-01-01T01:03:58Z</time>
      </trkpt>
      <trkpt lat="29.56064000" lon="82.15665000">
        <ele>1745.0000</ele>
        <time>2010-01-01T01:04:09Z</time>
      </trkpt>
      <trkpt lat="29.56071000" lon="82.15688000">
        <ele>1736.0000</ele>
        <time>2010-01-01T01:04:18Z</time>
      </trkpt>
      <trkpt lat="29.56088000" lon="82.15726000">
        <ele>1734.0000</ele>
        <time>2010-01-01T01:04:33Z</time>
      </trkpt>
      <trkpt lat="29.56108000" lon="82.15759000">
        <ele>1746.0000</ele>
        <time>2010-01-01T01:04:47Z</time>
      </trkpt>
      <trkpt lat="29.56097000" lon="82.15775000">
        <ele>1750.0000</ele>
        <time>2010-01-01T01:04:54Z</time>
      </trkpt>
      <trkpt lat="29.56096000" lon="82.15783000">
        <ele>1753.0000</ele>
        <time>2010-01-01T01:04:56Z</time>
      </trkpt>
      <trkpt lat="29.56111000" lon="82.15797000">
        <ele>1760.0000</ele>
        <time>2010-01-01T01:05:04Z</time>
      </trkpt>
      <trkpt lat="29.56120000" lon="82.15801000">
        <ele>1765.0000</ele>
        <time>2010-01-01T01:05:08Z</time>
      </trkpt>
      <trkpt lat="29.56144000" lon="82.15802000">
        <ele>1775.0000</ele>
        <time>2010-01-01T01:05:18Z</time>
      </trkpt>
      <trkpt lat="29.56159000" lon="82.15800000">
        <ele>1781.0000</ele>
        <time>2010-01-01T01:05:24Z</time>
      </trkpt>
      <trkpt lat="29.56188000" lon="82.15780000">
        <ele>1780.0000</ele>
        <time>2010-01-01T01:05:37Z</time>
      </trkpt>
      <trkpt lat="29.56196000" lon="82.15777000">
        <ele>1781.0000</ele>
        <time>2010-01-01T01:05:41Z</time>
      </trkpt>
      <trkpt lat="29.56231000" lon="82.15765000">
        <ele>1796.0000</ele>
        <time>2010-01-01T01:05:55Z</time>
      </trkpt>
      <trkpt lat="29.56244000" lon="82.15780000">
        <ele>1810.0000</ele>
        <time>2010-01-01T01:06:03Z</time>
      </trkpt>
      <trkpt lat="29.56248000" lon="82.15791000">
        <ele>1816.0000</ele>
        <time>2010-01-01T01:06:07Z</time>
      </trkpt>
      <trkpt lat="29.56261000" lon="82.15802000">
        <ele>1824.0000</ele>
        <time>2010-01-01T01:06:13Z</time>
      </trkpt>
      <trkpt lat="29.56277000" lon="82.15797000">
        <ele>1827.0000</ele>
        <time>2010-01-01T01:06:20Z</time>
      </trkpt>
      <trkpt lat="29.56290000" lon="82.15807000">
        <ele>1837.0000</ele>
        <time>2010-01-01T01:06:26Z</time>
      </trkpt>
      <trkpt lat="29.56327000" lon="82.15800000">
        <ele>1846.0000</ele>
        <time>2010-01-01T01:06:41Z</time>
      </trkpt>
      <trkpt lat="29.56344000" lon="82.15783000">
        <ele>1840.0000</ele>
        <time>2010-01-01T01:06:50Z</time>
      </trkpt>
      <trkpt lat="29.56360000" lon="82.15792000">
        <ele>1852.0000</ele>
        <time>2010-01-01T01:06:57Z</time>
      </trkpt>
      <trkpt lat="29.56374000" lon="82.15797000">
        <ele>1863.0000</ele>
        <time>2010-01-01T01:07:03Z</time>
      </trkpt>
      <trkpt lat="29.56389000" lon="82.15797000">
        <ele>1872.0000</ele>
        <time>2010-01-01T01:07:09Z</time>
      </trkpt>
      <trkpt lat="29.56410000" lon="82.15790000">
        <ele>1876.0000</ele>
        <time>2010-01-01T01:07:18Z</time>
      </trkpt>
      <trkpt lat="29.56413000" lon="82.15798000">
        <ele>1882.0000</ele>
        <time>2010-01-01T01:07:21Z</time>
      </trkpt>
      <trkpt lat="29.56408000" lon="82.15809000">
        <ele>1886.0000</ele>
        <time>2010-01-01T01:07:25Z</time>
      </trkpt>
      <trkpt lat="29.56423000" lon="82.15808000">
        <ele>1890.0000</ele>
        <time>2010-01-01T01:07:31Z</time>
      </trkpt>
      <trkpt lat="29.56440000" lon="82.15801000">
        <ele>1891.0000</ele>
        <time>2010-01-01T01:07:39Z</time>
      </trkpt>
      <trkpt lat="29.56474000" lon="82.15798000">
        <ele>1898.0000</ele>
        <time>2010-01-01T01:07:52Z</time>
      </trkpt>
      <trkpt lat="29.56509000" lon="82.15817000">
        <ele>1918.0000</ele>
        <time>2010-01-01T01:08:08Z</time>
      </trkpt>
      <trkpt lat="29.56514000" lon="82.15818000">
        <ele>1920.0000</ele>
        <time>2010-01-01T01:08:10Z</time>
      </trkpt>
      <trkpt lat="29.56519000" lon="82.15798000">
        <ele>1914.0000</ele>
        <time>2010-01-01T01:08:17Z</time>
      </trkpt>
      <trkpt lat="29.56548000" lon="82.15797000">
        <ele>1921.0000</ele>
        <time>2010-01-01T01:08:29Z</time>
      </trkpt>
      <trkpt lat="29.56587000" lon="82.15783000">
        <ele>1932.0000</ele>
        <time>2010-01-01T01:08:45Z</time>
      </trkpt>
      <trkpt lat="29.56618000" lon="82.15788000">
        <ele>1949.0000</ele>
        <time>2010-01-01T01:08:57Z</time>
      </trkpt>
      <trkpt lat="29.56639000" lon="82.15780000">
        <ele>1955.0000</ele>
        <time>2010-01-01T01:09:06Z</time>
      </trkpt>
      <trkpt lat="29.56646000" lon="82.15776000">
        <ele>1958.0000</ele>
        <time>2010-01-01T01:09:09Z</time>
      </trkpt>
      <trkpt lat="29.56652000" lon="82.15770000">
        <ele>1959.0000</ele>
        <time>2010-01-01T01:09:13Z</time>
      </trkpt>
      <trkpt lat="29.56685000" lon="82.15756000">
        <ele>1971.0000</ele>
        <time>2010-01-01T01:09:27Z</time>
      </trkpt>
      <trkpt lat="29.56692000" lon="82.15744000">
        <ele>1969.0000</ele>
        <time>2010-01-01T01:09:32Z</time>
      </trkpt>
      <trkpt lat="29.56766000" lon="82.15761000">
        <ele>2004.0000</ele>
        <time>2010-01-01T01:10:02Z</time>
      </trkpt>
      <trkpt lat="29.56812000" lon="82.15779000">
        <ele>2027.0000</ele>
        <time>2010-01-01T01:10:21Z</time>
      </trkpt>
      <trkpt lat="29.56825000" lon="82.15778000">
        <ele>2030.0000</ele>
        <time>2010-01-01T01:10:27Z</time>
      </trkpt>
      <trkpt lat="29.56840000" lon="82.15757000">
        <ele>2027.0000</ele>
        <time>2010-01-01T01:10:36Z</time>
      </trkpt>
      <trkpt lat="29.56884000" lon="82.15760000">
        <ele>2044.0000</ele>
        <time>2010-01-01T01:10:54Z</time>
      </trkpt>
      <trkpt lat="29.56936000" lon="82.15736000">
        <ele>2052.0000</ele>
        <time>2010-01-01T01:11:16Z</time>
      </trkpt>
      <trkpt lat="29.56954000" lon="82.15717000">
        <ele>2053.0000</ele>
        <time>2010-01-01T01:11:26Z</time>
      </trkpt>
      <trkpt lat="29.57026000" lon="82.15707000">
        <ele>2081.0000</ele>
        <time>2010-01-01T01:11:55Z</time>
      </trkpt>
      <trkpt lat="29.57087000" lon="82.15684000">
        <ele>2096.0000</ele>
        <time>2010-01-01T01:12:21Z</time>
      </trkpt>
      <trkpt lat="29.57137000" lon="82.15656000">
        <ele>2117.0000</ele>
        <time>2010-01-01T01:12:43Z</time>
      </trkpt>
      <trkpt lat="29.57221000" lon="82.15578000">
        <ele>2138.0000</ele>
        <time>2010-01-01T01:13:26Z</time>
      </trkpt>
      <trkpt lat="29.57229000" lon="82.15561000">
        <ele>2140.0000</ele>
        <time>2010-01-01T01:13:33Z</time>
      </trkpt>
      <trkpt lat="29.57264000" lon="82.15514000">
        <ele>2147.0000</ele>
        <time>2010-01-01T01:13:54Z</time>
      </trkpt>
      <trkpt lat="29.57275000" lon="82.15479000">
        <ele>2161.0000</ele>
        <time>2010-01-01T01:14:07Z</time>
      </trkpt>
      <trkpt lat="29.57280000" lon="82.15454000">
        <ele>2176.0000</ele>
        <time>2010-01-01T01:14:16Z</time>
      </trkpt>
      <trkpt lat="29.57278000" lon="82.15441000">
        <ele>2182.0000</ele>
        <time>2010-01-01T01:14:21Z</time>
      </trkpt>
      <trkpt lat="29.57290000" lon="82.15441000">
        <ele>2183.0000</ele>
        <time>2010-01-01T01:14:26Z</time>
      </trkpt>
      <trkpt lat="29.57316000" lon="82.15502000">
        <ele>2156.0000</ele>
        <time>2010-01-01T01:14:49Z</time>
      </trkpt>
      <trkpt lat="29.57315000" lon="82.15511000">
        <ele>2156.0000</ele>
        <time>2010-01-01T01:14:52Z</time>
      </trkpt>
      <trkpt lat="29.57326000" lon="82.15529000">
        <ele>2158.0000</ele>
        <time>2010-01-01T01:15:00Z</time>
      </trkpt>
      <trkpt lat="29.57345000" lon="82.15545000">
        <ele>2157.0000</ele>
        <time>2010-01-01T01:15:10Z</time>
      </trkpt>
      <trkpt lat="29.57369000" lon="82.15560000">
        <ele>2154.0000</ele>
        <time>2010-01-01T01:15:21Z</time>
      </trkpt>
      <trkpt lat="29.57392000" lon="82.15579000">
        <ele>2147.0000</ele>
        <time>2010-01-01T01:15:32Z</time>
      </trkpt>
      <trkpt lat="29.57415000" lon="82.15586000">
        <ele>2137.0000</ele>
        <time>2010-01-01T01:15:41Z</time>
      </trkpt>
      <trkpt lat="29.57434000" lon="82.15600000">
        <ele>2128.0000</ele>
        <time>2010-01-01T01:15:50Z</time>
      </trkpt>
      <trkpt lat="29.57439000" lon="82.15614000">
        <ele>2126.0000</ele>
        <time>2010-01-01T01:15:56Z</time>
      </trkpt>
      <trkpt lat="29.57462000" lon="82.15605000">
        <ele>2107.0000</ele>
        <time>2010-01-01T01:16:05Z</time>
      </trkpt>
      <trkpt lat="29.57481000" lon="82.15710000">
        <ele>2095.0000</ele>
        <time>2010-01-01T01:16:43Z</time>
      </trkpt>
      <trkpt lat="29.57514000" lon="82.15728000">
        <ele>2080.0000</ele>
        <time>2010-01-01T01:16:57Z</time>
      </trkpt>
      <trkpt lat="29.57541000" lon="82.15748000">
        <ele>2066.0000</ele>
        <time>2010-01-01T01:17:10Z</time>
      </trkpt>
      <trkpt lat="29.57559000" lon="82.15764000">
        <ele>2059.0000</ele>
        <time>2010-01-01T01:17:19Z</time>
      </trkpt>
      <trkpt lat="29.57590000" lon="82.15778000">
        <ele>2037.0000</ele>
        <time>2010-01-01T01:17:33Z</time>
      </trkpt>
      <trkpt lat="29.57620000" lon="82.15746000">
        <ele>2020.0000</ele>
        <time>2010-01-01T01:17:49Z</time>
      </trkpt>
      <trkpt lat="29.57636000" lon="82.15796000">
        <ele>2008.0000</ele>
        <time>2010-01-01T01:18:08Z</time>
      </trkpt>
      <trkpt lat="29.57701000" lon="82.15828000">
        <ele>1970.0000</ele>
        <time>2010-01-01T01:18:36Z</time>
      </trkpt>
      <trkpt lat="29.57739000" lon="82.15923000">
        <ele>1948.0000</ele>
        <time>2010-01-01T01:19:12Z</time>
      </trkpt>
      <trkpt lat="29.57758000" lon="82.16018000">
        <ele>1943.0000</ele>
        <time>2010-01-01T01:19:46Z</time>
      </trkpt>
      <trkpt lat="29.57790000" lon="82.16071000">
        <ele>1947.0000</ele>
        <time>2010-01-01T01:20:09Z</time>
      </trkpt>
      <trkpt lat="29.57825000" lon="82.16071000">
        <ele>1959.0000</ele>
        <time>2010-01-01T01:20:23Z</time>
      </trkpt>
      <trkpt lat="29.57820000" lon="82.15989000">
        <ele>1947.0000</ele>
        <time>2010-01-01T01:20:51Z</time>
      </trkpt>
      <trkpt lat="29.57871000" lon="82.15936000">
        <ele>1965.0000</ele>
        <time>2010-01-01T01:21:19Z</time>
      </trkpt>
      <trkpt lat="29.57887000" lon="82.15953000">
        <ele>1973.0000</ele>
        <time>2010-01-01T01:21:28Z</time>
      </trkpt>
      <trkpt lat="29.57898000" lon="82.15944000">
        <ele>1980.0000</ele>
        <time>2010-01-01T01:21:33Z</time>
      </trkpt>
      <trkpt lat="29.57931000" lon="82.15955000">
        <ele>1997.0000</ele>
        <time>2010-01-01T01:21:47Z</time>
      </trkpt>
      <trkpt lat="29.57966000" lon="82.15953000">
        <ele>2011.0000</ele>
        <time>2010-01-01T01:22:01Z</time>
      </trkpt>
      <trkpt lat="29.57994000" lon="82.15957000">
        <ele>2021.0000</ele>
        <time>2010-01-01T01:22:12Z</time>
      </trkpt>
      <trkpt lat="29.58004000" lon="82.15950000">
        <ele>2027.0000</ele>
        <time>2010-01-01T01:22:17Z</time>
      </trkpt>
      <trkpt lat="29.58007000" lon="82.15944000">
        <ele>2030.0000</ele>
        <time>2010-01-01T01:22:19Z</time>
      </trkpt>
      <trkpt lat="29.58022000" lon="82.15945000">
        <ele>2035.0000</ele>
        <time>2010-01-01T01:22:25Z</time>
      </trkpt>
      <trkpt lat="29.58029000" lon="82.15938000">
        <ele>2038.0000</ele>
        <time>2010-01-01T01:22:29Z</time>
      </trkpt>
      <trkpt lat="29.58041000" lon="82.15938000">
        <ele>2042.0000</ele>
        <time>2010-01-01T01:22:34Z</time>
      </trkpt>
      <trkpt lat="29.58048000" lon="82.15934000">
        <ele>2045.0000</ele>
        <time>2010-01-01T01:22:37Z</time>
      </trkpt>
      <trkpt lat="29.58048000" lon="82.15935000">
        <ele>2045.0000</ele>
        <time>2010-01-01T01:22:37Z</time>
      </trkpt>
      <trkpt lat="29.58069000" lon="82.15930000">
        <ele>2053.0000</ele>
        <time>2010-01-01T01:22:46Z</time>
      </trkpt>
      <trkpt lat="29.58083000" lon="82.15934000">
        <ele>2056.0000</ele>
        <time>2010-01-01T01:22:51Z</time>
      </trkpt>
      <trkpt lat="29.58096000" lon="82.15928000">
        <ele>2061.0000</ele>
        <time>2010-01-01T01:22:57Z</time>
      </trkpt>
      <trkpt lat="29.58124000" lon="82.15920000">
        <ele>2071.0000</ele>
        <time>2010-01-01T01:23:09Z</time>
      </trkpt>
      <trkpt lat="29.58134000" lon="82.15889000">
        <ele>2080.0000</ele>
        <time>2010-01-01T01:23:20Z</time>
      </trkpt>
      <trkpt lat="29.58139000" lon="82.15881000">
        <ele>2082.0000</ele>
        <time>2010-01-01T01:23:24Z</time>
      </trkpt>
      <trkpt lat="29.58155000" lon="82.15881000">
        <ele>2087.0000</ele>
        <time>2010-01-01T01:23:30Z</time>
      </trkpt>
      <trkpt lat="29.58168000" lon="82.15891000">
        <ele>2091.0000</ele>
        <time>2010-01-01T01:23:36Z</time>
      </trkpt>
      <trkpt lat="29.58214000" lon="82.15910000">
        <ele>2107.0000</ele>
        <time>2010-01-01T01:23:56Z</time>
      </trkpt>
      <trkpt lat="29.58242000" lon="82.15916000">
        <ele>2118.0000</ele>
        <time>2010-01-01T01:24:07Z</time>
      </trkpt>
      <trkpt lat="29.58250000" lon="82.15912000">
        <ele>2122.0000</ele>
        <time>2010-01-01T01:24:11Z</time>
      </trkpt>
      <trkpt lat="29.58261000" lon="82.15900000">
        <ele>2129.0000</ele>
        <time>2010-01-01T01:24:17Z</time>
      </trkpt>
      <trkpt lat="29.58271000" lon="82.15883000">
        <ele>2136.0000</ele>
        <time>2010-01-01T01:24:24Z</time>
      </trkpt>
      <trkpt lat="29.58278000" lon="82.15856000">
        <ele>2145.0000</ele>
        <time>2010-01-01T01:24:34Z</time>
      </trkpt>
      <trkpt lat="29.58291000" lon="82.15792000">
        <ele>2166.0000</ele>
        <time>2010-01-01T01:24:57Z</time>
      </trkpt>
      <trkpt lat="29.58301000" lon="82.15732000">
        <ele>2176.0000</ele>
        <time>2010-01-01T01:25:18Z</time>
      </trkpt>
      <trkpt lat="29.58314000" lon="82.15705000">
        <ele>2182.0000</ele>
        <time>2010-01-01T01:25:29Z</time>
      </trkpt>
      <trkpt lat="29.58332000" lon="82.15688000">
        <ele>2191.0000</ele>
        <time>2010-01-01T01:25:38Z</time>
      </trkpt>
      <trkpt lat="29.58347000" lon="82.15661000">
        <ele>2199.0000</ele>
        <time>2010-01-01T01:25:49Z</time>
      </trkpt>
      <trkpt lat="29.58357000" lon="82.15654000">
        <ele>2202.0000</ele>
        <time>2010-01-01T01:25:54Z</time>
      </trkpt>
      <trkpt lat="29.58374000" lon="82.15650000">
        <ele>2209.0000</ele>
        <time>2010-01-01T01:26:01Z</time>
      </trkpt>
      <trkpt lat="29.58390000" lon="82.15634000">
        <ele>2217.0000</ele>
        <time>2010-01-01T01:26:09Z</time>
      </trkpt>
      <trkpt lat="29.58418000" lon="82.15636000">
        <ele>2230.0000</ele>
        <time>2010-01-01T01:26:20Z</time>
      </trkpt>
      <trkpt lat="29.58432000" lon="82.15620000">
        <ele>2241.0000</ele>
        <time>2010-01-01T01:26:28Z</time>
      </trkpt>
      <trkpt lat="29.58455000" lon="82.15607000">
        <ele>2258.0000</ele>
        <time>2010-01-01T01:26:39Z</time>
      </trkpt>
      <trkpt lat="29.58458000" lon="82.15600000">
        <ele>2261.0000</ele>
        <time>2010-01-01T01:26:41Z</time>
      </trkpt>
      <trkpt lat="29.58445000" lon="82.15583000">
        <ele>2256.0000</ele>
        <time>2010-01-01T01:26:49Z</time>
      </trkpt>
      <trkpt lat="29.58442000" lon="82.15561000">
        <ele>2257.0000</ele>
        <time>2010-01-01T01:26:57Z</time>
      </trkpt>
      <trkpt lat="29.58445000" lon="82.15547000">
        <ele>2261.0000</ele>
        <time>2010-01-01T01:27:02Z</time>
      </trkpt>
      <trkpt lat="29.58443000" lon="82.15537000">
        <ele>2262.0000</ele>
        <time>2010-01-01T01:27:06Z</time>
      </trkpt>
      <trkpt lat="29.58448000" lon="82.15523000">
        <ele>2266.0000</ele>
        <time>2010-01-01T01:27:11Z</time>
      </trkpt>
      <trkpt lat="29.58461000" lon="82.15498000">
        <ele>2273.0000</ele>
        <time>2010-01-01T01:27:21Z</time>
      </trkpt>
      <trkpt lat="29.58465000" lon="82.15458000">
        <ele>2279.0000</ele>
        <time>2010-01-01T01:27:35Z</time>
      </trkpt>
      <trkpt lat="29.58472000" lon="82.15425000">
        <ele>2289.0000</ele>
        <time>2010-01-01T01:27:47Z</time>
      </trkpt>
      <trkpt lat="29.58472000" lon="82.15402000">
        <ele>2294.0000</ele>
        <time>2010-01-01T01:27:55Z</time>
      </trkpt>
      <trkpt lat="29.58486000" lon="82.15385000">
        <ele>2303.0000</ele>
        <time>2010-01-01T01:28:03Z</time>
      </trkpt>
      <trkpt lat="29.58503000" lon="82.15373000">
        <ele>2310.0000</ele>
        <time>2010-01-01T01:28:11Z</time>
      </trkpt>
      <trkpt lat="29.58526000" lon="82.15342000">
        <ele>2318.0000</ele>
        <time>2010-01-01T01:28:25Z</time>
      </trkpt>
      <trkpt lat="29.58536000" lon="82.15338000">
        <ele>2321.0000</ele>
        <time>2010-01-01T01:28:29Z</time>
      </trkpt>
      <trkpt lat="29.58551000" lon="82.15325000">
        <ele>2327.0000</ele>
        <time>2010-01-01T01:28:37Z</time>
      </trkpt>
      <trkpt lat="29.58554000" lon="82.15311000">
        <ele>2330.0000</ele>
        <time>2010-01-01T01:28:42Z</time>
      </trkpt>
      <trkpt lat="29.58583000" lon="82.15287000">
        <ele>2348.0000</ele>
        <time>2010-01-01T01:28:56Z</time>
      </trkpt>
      <trkpt lat="29.58596000" lon="82.15269000">
        <ele>2357.0000</ele>
        <time>2010-01-01T01:29:04Z</time>
      </trkpt>
      <trkpt lat="29.58599000" lon="82.15250000">
        <ele>2361.0000</ele>
        <time>2010-01-01T01:29:11Z</time>
      </trkpt>
      <trkpt lat="29.58598000" lon="82.15222000">
        <ele>2360.0000</ele>
        <time>2010-01-01T01:29:21Z</time>
      </trkpt>
      <trkpt lat="29.58602000" lon="82.15207000">
        <ele>2359.0000</ele>
        <time>2010-01-01T01:29:26Z</time>
      </trkpt>
      <trkpt lat="29.58617000" lon="82.15199000">
        <ele>2365.0000</ele>
        <time>2010-01-01T01:29:33Z</time>
      </trkpt>
      <trkpt lat="29.58639000" lon="82.15195000">
        <ele>2370.0000</ele>
        <time>2010-01-01T01:29:42Z</time>
      </trkpt>
      <trkpt lat="29.58653000" lon="82.15199000">
        <ele>2377.0000</ele>
        <time>2010-01-01T01:29:48Z</time>
      </trkpt>
      <trkpt lat="29.58668000" lon="82.15193000">
        <ele>2382.0000</ele>
        <time>2010-01-01T01:29:54Z</time>
      </trkpt>
      <trkpt lat="29.58685000" lon="82.15204000">
        <ele>2397.0000</ele>
        <time>2010-01-01T01:30:02Z</time>
      </trkpt>
      <trkpt lat="29.58696000" lon="82.15201000">
        <ele>2404.0000</ele>
        <time>2010-01-01T01:30:06Z</time>
      </trkpt>
      <trkpt lat="29.58716000" lon="82.15125000">
        <ele>2420.0000</ele>
        <time>2010-01-01T01:30:34Z</time>
      </trkpt>
      <trkpt lat="29.58731000" lon="82.15096000">
        <ele>2427.0000</ele>
        <time>2010-01-01T01:30:46Z</time>
      </trkpt>
      <trkpt lat="29.58755000" lon="82.15071000">
        <ele>2447.0000</ele>
        <time>2010-01-01T01:30:59Z</time>
      </trkpt>
      <trkpt lat="29.58758000" lon="82.15026000">
        <ele>2459.0000</ele>
        <time>2010-01-01T01:31:14Z</time>
      </trkpt>
      <trkpt lat="29.58758000" lon="82.15004000">
        <ele>2459.0000</ele>
        <time>2010-01-01T01:31:22Z</time>
      </trkpt>
      <trkpt lat="29.58751000" lon="82.14980000">
        <ele>2455.0000</ele>
        <time>2010-01-01T01:31:31Z</time>
      </trkpt>
      <trkpt lat="29.58758000" lon="82.14935000">
        <ele>2481.0000</ele>
        <time>2010-01-01T01:31:47Z</time>
      </trkpt>
      <trkpt lat="29.58774000" lon="82.14903000">
        <ele>2503.0000</ele>
        <time>2010-01-01T01:32:00Z</time>
      </trkpt>
      <trkpt lat="29.58779000" lon="82.14883000">
        <ele>2512.0000</ele>
        <time>2010-01-01T01:32:07Z</time>
      </trkpt>
      <trkpt lat="29.58784000" lon="82.14849000">
        <ele>2522.0000</ele>
        <time>2010-01-01T01:32:19Z</time>
      </trkpt>
      <trkpt lat="29.58782000" lon="82.14809000">
        <ele>2533.0000</ele>
        <time>2010-01-01T01:32:33Z</time>
      </trkpt>
      <trkpt lat="29.58784000" lon="82.14786000">
        <ele>2538.0000</ele>
        <time>2010-01-01T01:32:41Z</time>
      </trkpt>
      <trkpt lat="29.58826000" lon="82.14742000">
        <ele>2569.0000</ele>
        <time>2010-01-01T01:33:04Z</time>
      </trkpt>
      <trkpt lat="29.58837000" lon="82.14721000">
        <ele>2580.0000</ele>
        <time>2010-01-01T01:33:12Z</time>
      </trkpt>
      <trkpt lat="29.58868000" lon="82.14699000">
        <ele>2596.0000</ele>
        <time>2010-01-01T01:33:27Z</time>
      </trkpt>
      <trkpt lat="29.58880000" lon="82.14670000">
        <ele>2601.0000</ele>
        <time>2010-01-01T01:33:38Z</time>
      </trkpt>
      <trkpt lat="29.58888000" lon="82.14656000">
        <ele>2606.0000</ele>
        <time>2010-01-01T01:33:44Z</time>
      </trkpt>
      <trkpt lat="29.58939000" lon="82.14639000">
        <ele>2610.0000</ele>
        <time>2010-01-01T01:34:05Z</time>
      </trkpt>
      <trkpt lat="29.59029000" lon="82.14592000">
        <ele>2606.0000</ele>
        <time>2010-01-01T01:34:45Z</time>
      </trkpt>
      <trkpt lat="29.59082000" lon="82.14583000">
        <ele>2606.0000</ele>
        <time>2010-01-01T01:35:06Z</time>
      </trkpt>
      <trkpt lat="29.59131000" lon="82.14570000">
        <ele>2607.0000</ele>
        <time>2010-01-01T01:35:26Z</time>
      </trkpt>
      <trkpt lat="29.59149000" lon="82.14563000">
        <ele>2607.0000</ele>
        <time>2010-01-01T01:35:34Z</time>
      </trkpt>
      <trkpt lat="29.59216000" lon="82.14566000">
        <ele>2615.0000</ele>
        <time>2010-01-01T01:36:01Z</time>
      </trkpt>
      <trkpt lat="29.59231000" lon="82.14562000">
        <ele>2613.0000</ele>
        <time>2010-01-01T01:36:07Z</time>
      </trkpt>
      <trkpt lat="29.59250000" lon="82.14547000">
        <ele>2607.0000</ele>
        <time>2010-01-01T01:36:16Z</time>
      </trkpt>
      <trkpt lat="29.59269000" lon="82.14556000">
        <ele>2611.0000</ele>
        <time>2010-01-01T01:36:24Z</time>
      </trkpt>
      <trkpt lat="29.59279000" lon="82.14572000">
        <ele>2620.0000</ele>
        <time>2010-01-01T01:36:31Z</time>
      </trkpt>
      <trkpt lat="29.59305000" lon="82.14578000">
        <ele>2625.0000</ele>
        <time>2010-01-01T01:36:42Z</time>
      </trkpt>
      <trkpt lat="29.59329000" lon="82.14570000">
        <ele>2622.0000</ele>
        <time>2010-01-01T01:36:52Z</time>
      </trkpt>
      <trkpt lat="29.59364000" lon="82.14578000">
        <ele>2630.0000</ele>
        <time>2010-01-01T01:37:06Z</time>
      </trkpt>
      <trkpt lat="29.59401000" lon="82.14570000">
        <ele>2626.0000</ele>
        <time>2010-01-01T01:37:21Z</time>
      </trkpt>
      <trkpt lat="29.59445000" lon="82.14590000">
        <ele>2632.0000</ele>
        <time>2010-01-01T01:37:40Z</time>
      </trkpt>
      <trkpt lat="29.59478000" lon="82.14594000">
        <ele>2631.0000</ele>
        <time>2010-01-01T01:37:53Z</time>
      </trkpt>
      <trkpt lat="29.59512000" lon="82.14596000">
        <ele>2629.0000</ele>
        <time>2010-01-01T01:38:07Z</time>
      </trkpt>
      <trkpt lat="29.59578000" lon="82.14611000">
        <ele>2623.0000</ele>
        <time>2010-01-01T01:38:34Z</time>
      </trkpt>
      <trkpt lat="29.59603000" lon="82.14625000">
        <ele>2629.0000</ele>
        <time>2010-01-01T01:38:45Z</time>
      </trkpt>
      <trkpt lat="29.59612000" lon="82.14606000">
        <ele>2627.0000</ele>
        <time>2010-01-01T01:38:52Z</time>
      </trkpt>
      <trkpt lat="29.59609000" lon="82.14582000">
        <ele>2628.0000</ele>
        <time>2010-01-01T01:39:01Z</time>
      </trkpt>
      <trkpt lat="29.59646000" lon="82.14531000">
        <ele>2638.0000</ele>
        <time>2010-01-01T01:39:24Z</time>
      </trkpt>
      <trkpt lat="29.59662000" lon="82.14501000">
        <ele>2640.0000</ele>
        <time>2010-01-01T01:39:36Z</time>
      </trkpt>
      <trkpt lat="29.59671000" lon="82.14508000">
        <ele>2643.0000</ele>
        <time>2010-01-01T01:39:41Z</time>
      </trkpt>
      <trkpt lat="29.59684000" lon="82.14500000">
        <ele>2644.0000</ele>
        <time>2010-01-01T01:39:47Z</time>
      </trkpt>
      <trkpt lat="29.59688000" lon="82.14502000">
        <ele>2645.0000</ele>
        <time>2010-01-01T01:39:48Z</time>
      </trkpt>
      <trkpt lat="29.59716000" lon="82.14480000">
        <ele>2643.0000</ele>
        <time>2010-01-01T01:40:02Z</time>
      </trkpt>
      <trkpt lat="29.59730000" lon="82.14492000">
        <ele>2645.0000</ele>
        <time>2010-01-01T01:40:09Z</time>
      </trkpt>
      <trkpt lat="29.59728711" lon="82.14494705">
        <ele>2646.0000</ele>
        <time>2010-01-01T00:00:00Z</time>
      </trkpt>
      <trkpt lat="29.59730000" lon="82.14492000">
        <ele>2645.0000</ele>
        <time>2010-01-01T00:00:02Z</time>
      </trkpt>
      <trkpt lat="29.59749000" lon="82.14486000">
        <ele>2646.0000</ele>
        <time>2010-01-01T00:00:17Z</time>
      </trkpt>
      <trkpt lat="29.59755000" lon="82.14494000">
        <ele>2649.0000</ele>
        <time>2010-01-01T00:00:25Z</time>
      </trkpt>
      <trkpt lat="29.59766000" lon="82.14520000">
        <ele>2653.0000</ele>
        <time>2010-01-01T00:00:45Z</time>
      </trkpt>
      <trkpt lat="29.59771000" lon="82.14541000">
        <ele>2655.0000</ele>
        <time>2010-01-01T00:01:00Z</time>
      </trkpt>
      <trkpt lat="29.59779000" lon="82.14546000">
        <ele>2657.0000</ele>
        <time>2010-01-01T00:01:07Z</time>
      </trkpt>
      <trkpt lat="29.59799000" lon="82.14529000">
        <ele>2660.0000</ele>
        <time>2010-01-01T00:01:27Z</time>
      </trkpt>
      <trkpt lat="29.59816000" lon="82.14520000">
        <ele>2662.0000</ele>
        <time>2010-01-01T00:01:42Z</time>
      </trkpt>
      <trkpt lat="29.59823000" lon="82.14522000">
        <ele>2663.0000</ele>
        <time>2010-01-01T00:01:48Z</time>
      </trkpt>
      <trkpt lat="29.59848000" lon="82.14503000">
        <ele>2662.0000</ele>
        <time>2010-01-01T00:02:12Z</time>
      </trkpt>
      <trkpt lat="29.59860000" lon="82.14492000">
        <ele>2662.0000</ele>
        <time>2010-01-01T00:02:24Z</time>
      </trkpt>
      <trkpt lat="29.59878000" lon="82.14479000">
        <ele>2666.0000</ele>
        <time>2010-01-01T00:02:41Z</time>
      </trkpt>
      <trkpt lat="29.59897000" lon="82.14468000">
        <ele>2672.0000</ele>
        <time>2010-01-01T00:02:58Z</time>
      </trkpt>
      <trkpt lat="29.59909000" lon="82.14413000">
        <ele>2672.0000</ele>
        <time>2010-01-01T00:03:38Z</time>
      </trkpt>
      <trkpt lat="29.59932000" lon="82.14373000">
        <ele>2676.0000</ele>
        <time>2010-01-01T00:04:11Z</time>
      </trkpt>
      <trkpt lat="29.59953000" lon="82.14359000">
        <ele>2685.0000</ele>
        <time>2010-01-01T00:04:31Z</time>
      </trkpt>
      <trkpt lat="29.59968000" lon="82.14332000">
        <ele>2696.0000</ele>
        <time>2010-01-01T00:04:53Z</time>
      </trkpt>
      <trkpt lat="29.60013000" lon="82.14198000">
        <ele>2708.0000</ele>
        <time>2010-01-01T00:06:33Z</time>
      </trkpt>
      <trkpt lat="29.60036000" lon="82.14176000">
        <ele>2712.0000</ele>
        <time>2010-01-01T00:06:57Z</time>
      </trkpt>
      <trkpt lat="29.60066000" lon="82.14157000">
        <ele>2714.0000</ele>
        <time>2010-01-01T00:07:24Z</time>
      </trkpt>
      <trkpt lat="29.60101000" lon="82.14143000">
        <ele>2713.0000</ele>
        <time>2010-01-01T00:07:54Z</time>
      </trkpt>
      <trkpt lat="29.60158000" lon="82.14132000">
        <ele>2699.0000</ele>
        <time>2010-01-01T00:08:40Z</time>
      </trkpt>
      <trkpt lat="29.60217000" lon="82.14107000">
        <ele>2692.0000</ele>
        <time>2010-01-01T00:09:31Z</time>
      </trkpt>
      <trkpt lat="29.60295000" lon="82.14075000">
        <ele>2691.0000</ele>
        <time>2010-01-01T00:10:37Z</time>
      </trkpt>
      <trkpt lat="29.60355000" lon="82.14031000">
        <ele>2688.0000</ele>
        <time>2010-01-01T00:11:34Z</time>
      </trkpt>
      <trkpt lat="29.60449000" lon="82.13991000">
        <ele>2687.0000</ele>
        <time>2010-01-01T00:12:54Z</time>
      </trkpt>
      <trkpt lat="29.60470000" lon="82.13988000">
        <ele>2688.0000</ele>
        <time>2010-01-01T00:13:11Z</time>
      </trkpt>
      <trkpt lat="29.60486000" lon="82.13990000">
        <ele>2689.0000</ele>
        <time>2010-01-01T00:13:24Z</time>
      </trkpt>
      <trkpt lat="29.60507000" lon="82.13981000">
        <ele>2687.0000</ele>
        <time>2010-01-01T00:13:42Z</time>
      </trkpt>
      <trkpt lat="29.60523000" lon="82.13985000">
        <ele>2690.0000</ele>
        <time>2010-01-01T00:13:55Z</time>
      </trkpt>
      <trkpt lat="29.60534000" lon="82.13982000">
        <ele>2689.0000</ele>
        <time>2010-01-01T00:14:04Z</time>
      </trkpt>
      <trkpt lat="29.60598000" lon="82.13998000">
        <ele>2681.0000</ele>
        <time>2010-01-01T00:14:56Z</time>
      </trkpt>
      <trkpt lat="29.60641000" lon="82.14006000">
        <ele>2673.0000</ele>
        <time>2010-01-01T00:15:31Z</time>
      </trkpt>
      <trkpt lat="29.60703000" lon="82.14055000">
        <ele>2663.0000</ele>
        <time>2010-01-01T00:16:32Z</time>
      </trkpt>
      <trkpt lat="29.60780000" lon="82.14105000">
        <ele>2645.0000</ele>
        <time>2010-01-01T00:17:42Z</time>
      </trkpt>
      <trkpt lat="29.60824000" lon="82.14136000">
        <ele>2624.0000</ele>
        <time>2010-01-01T00:18:24Z</time>
      </trkpt>
      <trkpt lat="29.60832000" lon="82.14162000">
        <ele>2627.0000</ele>
        <time>2010-01-01T00:18:43Z</time>
      </trkpt>
      <trkpt lat="29.60865000" lon="82.14200000">
        <ele>2621.0000</ele>
        <time>2010-01-01T00:19:20Z</time>
      </trkpt>
      <trkpt lat="29.60888000" lon="82.14216000">
        <ele>2617.0000</ele>
        <time>2010-01-01T00:19:42Z</time>
      </trkpt>
      <trkpt lat="29.60919000" lon="82.14210000">
        <ele>2620.0000</ele>
        <time>2010-01-01T00:20:07Z</time>
      </trkpt>
      <trkpt lat="29.60922000" lon="82.14200000">
        <ele>2620.0000</ele>
        <time>2010-01-01T00:20:14Z</time>
      </trkpt>
      <trkpt lat="29.60936000" lon="82.14177000">
        <ele>2622.0000</ele>
        <time>2010-01-01T00:20:34Z</time>
      </trkpt>
      <trkpt lat="29.60939000" lon="82.14163000">
        <ele>2621.0000</ele>
        <time>2010-01-01T00:20:44Z</time>
      </trkpt>
      <trkpt lat="29.60940000" lon="82.14142000">
        <ele>2623.0000</ele>
        <time>2010-01-01T00:20:59Z</time>
      </trkpt>
      <trkpt lat="29.60931000" lon="82.14093000">
        <ele>2627.0000</ele>
        <time>2010-01-01T00:21:33Z</time>
      </trkpt>
      <trkpt lat="29.60932000" lon="82.14079000">
        <ele>2628.0000</ele>
        <time>2010-01-01T00:21:43Z</time>
      </trkpt>
      <trkpt lat="29.60939000" lon="82.14069000">
        <ele>2632.0000</ele>
        <time>2010-01-01T00:21:52Z</time>
      </trkpt>
      <trkpt lat="29.60943000" lon="82.14040000">
        <ele>2634.0000</ele>
        <time>2010-01-01T00:22:13Z</time>
      </trkpt>
      <trkpt lat="29.60960000" lon="82.14024000">
        <ele>2639.0000</ele>
        <time>2010-01-01T00:22:30Z</time>
      </trkpt>
      <trkpt lat="29.60978000" lon="82.14003000">
        <ele>2643.0000</ele>
        <time>2010-01-01T00:22:51Z</time>
      </trkpt>
      <trkpt lat="29.60987000" lon="82.13985000">
        <ele>2644.0000</ele>
        <time>2010-01-01T00:23:05Z</time>
      </trkpt>
      <trkpt lat="29.60989000" lon="82.13966000">
        <ele>2642.0000</ele>
        <time>2010-01-01T00:23:18Z</time>
      </trkpt>
      <trkpt lat="29.61002000" lon="82.13949000">
        <ele>2645.0000</ele>
        <time>2010-01-01T00:23:34Z</time>
      </trkpt>
      <trkpt lat="29.61002000" lon="82.13938000">
        <ele>2644.0000</ele>
        <time>2010-01-01T00:23:42Z</time>
      </trkpt>
      <trkpt lat="29.61010000" lon="82.13929000">
        <ele>2647.0000</ele>
        <time>2010-01-01T00:23:51Z</time>
      </trkpt>
      <trkpt lat="29.61015000" lon="82.13903000">
        <ele>2644.0000</ele>
        <time>2010-01-01T00:24:09Z</time>
      </trkpt>
      <trkpt lat="29.61022000" lon="82.13887000">
        <ele>2644.0000</ele>
        <time>2010-01-01T00:24:22Z</time>
      </trkpt>
      <trkpt lat="29.61036000" lon="82.13871000">
        <ele>2648.0000</ele>
        <time>2010-01-01T00:24:38Z</time>
      </trkpt>
      <trkpt lat="29.61045000" lon="82.13855000">
        <ele>2652.0000</ele>
        <time>2010-01-01T00:24:51Z</time>
      </trkpt>
      <trkpt lat="29.61050000" lon="82.13805000">
        <ele>2646.0000</ele>
        <time>2010-01-01T00:25:26Z</time>
      </trkpt>
      <trkpt lat="29.61063000" lon="82.13782000">
        <ele>2649.0000</ele>
        <time>2010-01-01T00:25:45Z</time>
      </trkpt>
      <trkpt lat="29.61068000" lon="82.13762000">
        <ele>2650.0000</ele>
        <time>2010-01-01T00:25:59Z</time>
      </trkpt>
      <trkpt lat="29.61070000" lon="82.13744000">
        <ele>2650.0000</ele>
        <time>2010-01-01T00:26:12Z</time>
      </trkpt>
      <trkpt lat="29.61080000" lon="82.13712000">
        <ele>2657.0000</ele>
        <time>2010-01-01T00:26:36Z</time>
      </trkpt>
      <trkpt lat="29.61077000" lon="82.13698000">
        <ele>2656.0000</ele>
        <time>2010-01-01T00:26:46Z</time>
      </trkpt>
      <trkpt lat="29.61083000" lon="82.13670000">
        <ele>2658.0000</ele>
        <time>2010-01-01T00:27:06Z</time>
      </trkpt>
      <trkpt lat="29.61082000" lon="82.13651000">
        <ele>2659.0000</ele>
        <time>2010-01-01T00:27:19Z</time>
      </trkpt>
      <trkpt lat="29.61086000" lon="82.13628000">
        <ele>2663.0000</ele>
        <time>2010-01-01T00:27:35Z</time>
      </trkpt>
      <trkpt lat="29.61097000" lon="82.13612000">
        <ele>2667.0000</ele>
        <time>2010-01-01T00:27:50Z</time>
      </trkpt>
      <trkpt lat="29.61119000" lon="82.13590000">
        <ele>2670.0000</ele>
        <time>2010-01-01T00:28:13Z</time>
      </trkpt>
      <trkpt lat="29.61123000" lon="82.13583000">
        <ele>2670.0000</ele>
        <time>2010-01-01T00:28:19Z</time>
      </trkpt>
      <trkpt lat="29.61139000" lon="82.13540000">
        <ele>2666.0000</ele>
        <time>2010-01-01T00:28:51Z</time>
      </trkpt>
      <trkpt lat="29.61148000" lon="82.13501000">
        <ele>2671.0000</ele>
        <time>2010-01-01T00:29:19Z</time>
      </trkpt>
      <trkpt lat="29.61160000" lon="82.13463000">
        <ele>2676.0000</ele>
        <time>2010-01-01T00:29:48Z</time>
      </trkpt>
      <trkpt lat="29.61171000" lon="82.13438000">
        <ele>2681.0000</ele>
        <time>2010-01-01T00:30:07Z</time>
      </trkpt>
      <trkpt lat="29.61186000" lon="82.13412000">
        <ele>2686.0000</ele>
        <time>2010-01-01T00:30:29Z</time>
      </trkpt>
      <trkpt lat="29.61198000" lon="82.13378000">
        <ele>2685.0000</ele>
        <time>2010-01-01T00:30:54Z</time>
      </trkpt>
      <trkpt lat="29.61229000" lon="82.13348000">
        <ele>2689.0000</ele>
        <time>2010-01-01T00:31:27Z</time>
      </trkpt>
      <trkpt lat="29.61249000" lon="82.13338000">
        <ele>2693.0000</ele>
        <time>2010-01-01T00:31:44Z</time>
      </trkpt>
      <trkpt lat="29.61289000" lon="82.13305000">
        <ele>2694.0000</ele>
        <time>2010-01-01T00:32:24Z</time>
      </trkpt>
      <trkpt lat="29.61323000" lon="82.13288000">
        <ele>2707.0000</ele>
        <time>2010-01-01T00:32:53Z</time>
      </trkpt>
      <trkpt lat="29.61343000" lon="82.13253000">
        <ele>2703.0000</ele>
        <time>2010-01-01T00:33:22Z</time>
      </trkpt>
      <trkpt lat="29.61366000" lon="82.13235000">
        <ele>2707.0000</ele>
        <time>2010-01-01T00:33:45Z</time>
      </trkpt>
      <trkpt lat="29.61394000" lon="82.13219000">
        <ele>2722.0000</ele>
        <time>2010-01-01T00:34:10Z</time>
      </trkpt>
      <trkpt lat="29.61402000" lon="82.13203000">
        <ele>2721.0000</ele>
        <time>2010-01-01T00:34:23Z</time>
      </trkpt>
      <trkpt lat="29.61407000" lon="82.13186000">
        <ele>2719.0000</ele>
        <time>2010-01-01T00:34:35Z</time>
      </trkpt>
      <trkpt lat="29.61418000" lon="82.13171000">
        <ele>2722.0000</ele>
        <time>2010-01-01T00:34:49Z</time>
      </trkpt>
      <trkpt lat="29.61427000" lon="82.13144000">
        <ele>2723.0000</ele>
        <time>2010-01-01T00:35:09Z</time>
      </trkpt>
      <trkpt lat="29.61452000" lon="82.13106000">
        <ele>2730.0000</ele>
        <time>2010-01-01T00:35:42Z</time>
      </trkpt>
      <trkpt lat="29.61476000" lon="82.13095000">
        <ele>2741.0000</ele>
        <time>2010-01-01T00:36:03Z</time>
      </trkpt>
      <trkpt lat="29.61516000" lon="82.13059000">
        <ele>2751.0000</ele>
        <time>2010-01-01T00:36:43Z</time>
      </trkpt>
      <trkpt lat="29.61544000" lon="82.13044000">
        <ele>2757.0000</ele>
        <time>2010-01-01T00:37:08Z</time>
      </trkpt>
      <trkpt lat="29.61552000" lon="82.13045000">
        <ele>2759.0000</ele>
        <time>2010-01-01T00:37:15Z</time>
      </trkpt>
      <trkpt lat="29.61557000" lon="82.13062000">
        <ele>2759.0000</ele>
        <time>2010-01-01T00:37:27Z</time>
      </trkpt>
      <trkpt lat="29.61569000" lon="82.13085000">
        <ele>2758.0000</ele>
        <time>2010-01-01T00:37:46Z</time>
      </trkpt>
      <trkpt lat="29.61631000" lon="82.13130000">
        <ele>2767.0000</ele>
        <time>2010-01-01T00:38:44Z</time>
      </trkpt>
      <trkpt lat="29.61648000" lon="82.13137000">
        <ele>2769.0000</ele>
        <time>2010-01-01T00:38:59Z</time>
      </trkpt>
      <trkpt lat="29.61681000" lon="82.13140000">
        <ele>2765.0000</ele>
        <time>2010-01-01T00:39:25Z</time>
      </trkpt>
      <trkpt lat="29.61698000" lon="82.13145000">
        <ele>2761.0000</ele>
        <time>2010-01-01T00:39:39Z</time>
      </trkpt>
      <trkpt lat="29.61740000" lon="82.13228000">
        <ele>2760.0000</ele>
        <time>2010-01-01T00:40:46Z</time>
      </trkpt>
      <trkpt lat="29.61773000" lon="82.13290000">
        <ele>2750.0000</ele>
        <time>2010-01-01T00:41:37Z</time>
      </trkpt>
      <trkpt lat="29.61817000" lon="82.13389000">
        <ele>2756.0000</ele>
        <time>2010-01-01T00:42:54Z</time>
      </trkpt>
      <trkpt lat="29.61876000" lon="82.13425000">
        <ele>2747.0000</ele>
        <time>2010-01-01T00:43:48Z</time>
      </trkpt>
      <trkpt lat="29.61903000" lon="82.13436000">
        <ele>2743.0000</ele>
        <time>2010-01-01T00:44:11Z</time>
      </trkpt>
      <trkpt lat="29.61927000" lon="82.13463000">
        <ele>2745.0000</ele>
        <time>2010-01-01T00:44:38Z</time>
      </trkpt>
      <trkpt lat="29.61945000" lon="82.13493000">
        <ele>2745.0000</ele>
        <time>2010-01-01T00:45:03Z</time>
      </trkpt>
      <trkpt lat="29.61965000" lon="82.13503000">
        <ele>2741.0000</ele>
        <time>2010-01-01T00:45:20Z</time>
      </trkpt>
      <trkpt lat="29.61988000" lon="82.13518000">
        <ele>2741.0000</ele>
        <time>2010-01-01T00:45:42Z</time>
      </trkpt>
      <trkpt lat="29.62003000" lon="82.13541000">
        <ele>2749.0000</ele>
        <time>2010-01-01T00:46:02Z</time>
      </trkpt>
      <trkpt lat="29.62038000" lon="82.13575000">
        <ele>2743.0000</ele>
        <time>2010-01-01T00:46:38Z</time>
      </trkpt>
      <trkpt lat="29.62067000" lon="82.13612000">
        <ele>2743.0000</ele>
        <time>2010-01-01T00:47:13Z</time>
      </trkpt>
      <trkpt lat="29.62094000" lon="82.13628000">
        <ele>2737.0000</ele>
        <time>2010-01-01T00:47:37Z</time>
      </trkpt>
      <trkpt lat="29.62130000" lon="82.13642000">
        <ele>2738.0000</ele>
        <time>2010-01-01T00:48:08Z</time>
      </trkpt>
      <trkpt lat="29.62142000" lon="82.13635000">
        <ele>2737.0000</ele>
        <time>2010-01-01T00:48:18Z</time>
      </trkpt>
      <trkpt lat="29.62143000" lon="82.13606000">
        <ele>2738.0000</ele>
        <time>2010-01-01T00:48:39Z</time>
      </trkpt>
      <trkpt lat="29.62153000" lon="82.13601000">
        <ele>2742.0000</ele>
        <time>2010-01-01T00:48:47Z</time>
      </trkpt>
      <trkpt lat="29.62160000" lon="82.13587000">
        <ele>2746.0000</ele>
        <time>2010-01-01T00:48:59Z</time>
      </trkpt>
      <trkpt lat="29.62170000" lon="82.13598000">
        <ele>2748.0000</ele>
        <time>2010-01-01T00:49:10Z</time>
      </trkpt>
      <trkpt lat="29.62183000" lon="82.13577000">
        <ele>2758.0000</ele>
        <time>2010-01-01T00:49:28Z</time>
      </trkpt>
      <trkpt lat="29.62215000" lon="82.13550000">
        <ele>2783.0000</ele>
        <time>2010-01-01T00:49:59Z</time>
      </trkpt>
      <trkpt lat="29.62225000" lon="82.13537000">
        <ele>2789.0000</ele>
        <time>2010-01-01T00:50:11Z</time>
      </trkpt>
      <trkpt lat="29.62237000" lon="82.13540000">
        <ele>2791.0000</ele>
        <time>2010-01-01T00:50:21Z</time>
      </trkpt>
      <trkpt lat="29.62244000" lon="82.13527000">
        <ele>2794.0000</ele>
        <time>2010-01-01T00:50:32Z</time>
      </trkpt>
      <trkpt lat="29.62248000" lon="82.13513000">
        <ele>2802.0000</ele>
        <time>2010-01-01T00:50:42Z</time>
      </trkpt>
      <trkpt lat="29.62233000" lon="82.13487000">
        <ele>2813.0000</ele>
        <time>2010-01-01T00:51:04Z</time>
      </trkpt>
      <trkpt lat="29.62220000" lon="82.13473000">
        <ele>2815.0000</ele>
        <time>2010-01-01T00:51:18Z</time>
      </trkpt>
      <trkpt lat="29.62223000" lon="82.13435000">
        <ele>2829.0000</ele>
        <time>2010-01-01T00:51:45Z</time>
      </trkpt>
      <trkpt lat="29.62231000" lon="82.13422000">
        <ele>2840.0000</ele>
        <time>2010-01-01T00:51:56Z</time>
      </trkpt>
      <trkpt lat="29.62244000" lon="82.13435000">
        <ele>2842.0000</ele>
        <time>2010-01-01T00:52:10Z</time>
      </trkpt>
      <trkpt lat="29.62249000" lon="82.13437000">
        <ele>2845.0000</ele>
        <time>2010-01-01T00:52:14Z</time>
      </trkpt>
      <trkpt lat="29.62249000" lon="82.13397000">
        <ele>2862.0000</ele>
        <time>2010-01-01T00:52:42Z</time>
      </trkpt>
      <trkpt lat="29.62254000" lon="82.13375000">
        <ele>2873.0000</ele>
        <time>2010-01-01T00:52:58Z</time>
      </trkpt>
      <trkpt lat="29.62269000" lon="82.13393000">
        <ele>2879.0000</ele>
        <time>2010-01-01T00:53:15Z</time>
      </trkpt>
      <trkpt lat="29.62278000" lon="82.13398000">
        <ele>2884.0000</ele>
        <time>2010-01-01T00:53:23Z</time>
      </trkpt>
      <trkpt lat="29.62289000" lon="82.13396000">
        <ele>2892.0000</ele>
        <time>2010-01-01T00:53:32Z</time>
      </trkpt>
      <trkpt lat="29.62297000" lon="82.13371000">
        <ele>2905.0000</ele>
        <time>2010-01-01T00:53:50Z</time>
      </trkpt>
      <trkpt lat="29.62316000" lon="82.13358000">
        <ele>2918.0000</ele>
        <time>2010-01-01T00:54:08Z</time>
      </trkpt>
      <trkpt lat="29.62330000" lon="82.13339000">
        <ele>2929.0000</ele>
        <time>2010-01-01T00:54:25Z</time>
      </trkpt>
      <trkpt lat="29.62332000" lon="82.13301000">
        <ele>2942.0000</ele>
        <time>2010-01-01T00:54:52Z</time>
      </trkpt>
      <trkpt lat="29.62339000" lon="82.13296000">
        <ele>2947.0000</ele>
        <time>2010-01-01T00:54:58Z</time>
      </trkpt>
      <trkpt lat="29.62341000" lon="82.13290000">
        <ele>2949.0000</ele>
        <time>2010-01-01T00:55:03Z</time>
      </trkpt>
      <trkpt lat="29.62351000" lon="82.13281000">
        <ele>2956.0000</ele>
        <time>2010-01-01T00:55:13Z</time>
      </trkpt>
      <trkpt lat="29.62357000" lon="82.13265000">
        <ele>2963.0000</ele>
        <time>2010-01-01T00:55:25Z</time>
      </trkpt>
      <trkpt lat="29.62367000" lon="82.13259000">
        <ele>2967.0000</ele>
        <time>2010-01-01T00:55:34Z</time>
      </trkpt>
      <trkpt lat="29.62365000" lon="82.13242000">
        <ele>2969.0000</ele>
        <time>2010-01-01T00:55:46Z</time>
      </trkpt>
      <trkpt lat="29.62368000" lon="82.13233000">
        <ele>2971.0000</ele>
        <time>2010-01-01T00:55:53Z</time>
      </trkpt>
      <trkpt lat="29.62379000" lon="82.13225000">
        <ele>2977.0000</ele>
        <time>2010-01-01T00:56:03Z</time>
      </trkpt>
      <trkpt lat="29.62384000" lon="82.13209000">
        <ele>2983.0000</ele>
        <time>2010-01-01T00:56:15Z</time>
      </trkpt>
      <trkpt lat="29.62393000" lon="82.13196000">
        <ele>2990.0000</ele>
        <time>2010-01-01T00:56:27Z</time>
      </trkpt>
      <trkpt lat="29.62399000" lon="82.13184000">
        <ele>2993.0000</ele>
        <time>2010-01-01T00:56:36Z</time>
      </trkpt>
      <trkpt lat="29.62427000" lon="82.13148000">
        <ele>3005.0000</ele>
        <time>2010-01-01T00:57:10Z</time>
      </trkpt>
      <trkpt lat="29.62441000" lon="82.13116000">
        <ele>3016.0000</ele>
        <time>2010-01-01T00:57:35Z</time>
      </trkpt>
      <trkpt lat="29.62455000" lon="82.13102000">
        <ele>3022.0000</ele>
        <time>2010-01-01T00:57:50Z</time>
      </trkpt>
      <trkpt lat="29.62453000" lon="82.13078000">
        <ele>3022.0000</ele>
        <time>2010-01-01T00:58:07Z</time>
      </trkpt>
      <trkpt lat="29.62472000" lon="82.13063000">
        <ele>3033.0000</ele>
        <time>2010-01-01T00:58:25Z</time>
      </trkpt>
      <trkpt lat="29.62489000" lon="82.13045000">
        <ele>3041.0000</ele>
        <time>2010-01-01T00:58:43Z</time>
      </trkpt>
      <trkpt lat="29.62493000" lon="82.13031000">
        <ele>3042.0000</ele>
        <time>2010-01-01T00:58:54Z</time>
      </trkpt>
      <trkpt lat="29.62505000" lon="82.13009000">
        <ele>3044.0000</ele>
        <time>2010-01-01T00:59:12Z</time>
      </trkpt>
      <trkpt lat="29.62514000" lon="82.13000000">
        <ele>3046.0000</ele>
        <time>2010-01-01T00:59:21Z</time>
      </trkpt>
      <trkpt lat="29.62521000" lon="82.12988000">
        <ele>3048.0000</ele>
        <time>2010-01-01T00:59:31Z</time>
      </trkpt>
      <trkpt lat="29.62539000" lon="82.12967000">
        <ele>3052.0000</ele>
        <time>2010-01-01T00:59:52Z</time>
      </trkpt>
      <trkpt lat="29.62543000" lon="82.12948000">
        <ele>3053.0000</ele>
        <time>2010-01-01T01:00:06Z</time>
      </trkpt>
      <trkpt lat="29.62552000" lon="82.12935000">
        <ele>3057.0000</ele>
        <time>2010-01-01T01:00:17Z</time>
      </trkpt>
      <trkpt lat="29.62568000" lon="82.12926000">
        <ele>3061.0000</ele>
        <time>2010-01-01T01:00:31Z</time>
      </trkpt>
      <trkpt lat="29.62583000" lon="82.12912000">
        <ele>3066.0000</ele>
        <time>2010-01-01T01:00:47Z</time>
      </trkpt>
      <trkpt lat="29.62594000" lon="82.12874000">
        <ele>3073.0000</ele>
        <time>2010-01-01T01:01:15Z</time>
      </trkpt>
      <trkpt lat="29.62593000" lon="82.12863000">
        <ele>3072.0000</ele>
        <time>2010-01-01T01:01:22Z</time>
      </trkpt>
      <trkpt lat="29.62604000" lon="82.12834000">
        <ele>3075.0000</ele>
        <time>2010-01-01T01:01:44Z</time>
      </trkpt>
      <trkpt lat="29.62621000" lon="82.12803000">
        <ele>3088.0000</ele>
        <time>2010-01-01T01:02:10Z</time>
      </trkpt>
      <trkpt lat="29.62636000" lon="82.12775000">
        <ele>3104.0000</ele>
        <time>2010-01-01T01:02:33Z</time>
      </trkpt>
      <trkpt lat="29.62641000" lon="82.12750000">
        <ele>3109.0000</ele>
        <time>2010-01-01T01:02:51Z</time>
      </trkpt>
      <trkpt lat="29.62677000" lon="82.12700000">
        <ele>3133.0000</ele>
        <time>2010-01-01T01:03:36Z</time>
      </trkpt>
      <trkpt lat="29.62685000" lon="82.12681000">
        <ele>3140.0000</ele>
        <time>2010-01-01T01:03:51Z</time>
      </trkpt>
      <trkpt lat="29.62701000" lon="82.12673000">
        <ele>3152.0000</ele>
        <time>2010-01-01T01:04:05Z</time>
      </trkpt>
      <trkpt lat="29.62713000" lon="82.12667000">
        <ele>3158.0000</ele>
        <time>2010-01-01T01:04:15Z</time>
      </trkpt>
      <trkpt lat="29.62737000" lon="82.12576000">
        <ele>3169.0000</ele>
        <time>2010-01-01T01:05:21Z</time>
      </trkpt>
      <trkpt lat="29.62766000" lon="82.12550000">
        <ele>3190.0000</ele>
        <time>2010-01-01T01:05:51Z</time>
      </trkpt>
      <trkpt lat="29.62816000" lon="82.12522000">
        <ele>3215.0000</ele>
        <time>2010-01-01T01:06:35Z</time>
      </trkpt>
      <trkpt lat="29.62835000" lon="82.12486000">
        <ele>3222.0000</ele>
        <time>2010-01-01T01:07:04Z</time>
      </trkpt>
      <trkpt lat="29.62852000" lon="82.12435000">
        <ele>3237.0000</ele>
        <time>2010-01-01T01:07:42Z</time>
      </trkpt>
      <trkpt lat="29.62872000" lon="82.12389000">
        <ele>3258.0000</ele>
        <time>2010-01-01T01:08:18Z</time>
      </trkpt>
      <trkpt lat="29.62887000" lon="82.12367000">
        <ele>3269.0000</ele>
        <time>2010-01-01T01:08:38Z</time>
      </trkpt>
      <trkpt lat="29.62889000" lon="82.12329000">
        <ele>3278.0000</ele>
        <time>2010-01-01T01:09:04Z</time>
      </trkpt>
      <trkpt lat="29.62917000" lon="82.12278000">
        <ele>3296.0000</ele>
        <time>2010-01-01T01:09:46Z</time>
      </trkpt>
      <trkpt lat="29.62949000" lon="82.12230000">
        <ele>3317.0000</ele>
        <time>2010-01-01T01:10:28Z</time>
      </trkpt>
      <trkpt lat="29.62967000" lon="82.12192000">
        <ele>3327.0000</ele>
        <time>2010-01-01T01:10:58Z</time>
      </trkpt>
      <trkpt lat="29.62996000" lon="82.12145000">
        <ele>3344.0000</ele>
        <time>2010-01-01T01:11:38Z</time>
      </trkpt>
      <trkpt lat="29.63019000" lon="82.12088000">
        <ele>3360.0000</ele>
        <time>2010-01-01T01:12:22Z</time>
      </trkpt>
      <trkpt lat="29.63050000" lon="82.12043000">
        <ele>3372.0000</ele>
        <time>2010-01-01T01:13:02Z</time>
      </trkpt>
      <trkpt lat="29.63074000" lon="82.12002000">
        <ele>3385.0000</ele>
        <time>2010-01-01T01:13:37Z</time>
      </trkpt>
      <trkpt lat="29.63116000" lon="82.11981000">
        <ele>3401.0000</ele>
        <time>2010-01-01T01:14:13Z</time>
      </trkpt>
      <trkpt lat="29.63143000" lon="82.11979000">
        <ele>3406.0000</ele>
        <time>2010-01-01T01:14:35Z</time>
      </trkpt>
      <trkpt lat="29.63180000" lon="82.11949000">
        <ele>3423.0000</ele>
        <time>2010-01-01T01:15:11Z</time>
      </trkpt>
      <trkpt lat="29.63224000" lon="82.11932000">
        <ele>3443.0000</ele>
        <time>2010-01-01T01:15:48Z</time>
      </trkpt>
      <trkpt lat="29.63285000" lon="82.11844000">
        <ele>3469.0000</ele>
        <time>2010-01-01T01:17:07Z</time>
      </trkpt>
      <trkpt lat="29.63355000" lon="82.11758000">
        <ele>3496.0000</ele>
        <time>2010-01-01T01:18:29Z</time>
      </trkpt>
      <trkpt lat="29.63476000" lon="82.11712000">
        <ele>3536.0000</ele>
        <time>2010-01-01T01:20:11Z</time>
      </trkpt>
      <trkpt lat="29.63514000" lon="82.11657000">
        <ele>3536.0000</ele>
        <time>2010-01-01T01:21:00Z</time>
      </trkpt>
      <trkpt lat="29.63606000" lon="82.11631000">
        <ele>3544.0000</ele>
        <time>2010-01-01T01:22:15Z</time>
      </trkpt>
      <trkpt lat="29.63657000" lon="82.11575000">
        <ele>3542.0000</ele>
        <time>2010-01-01T01:23:12Z</time>
      </trkpt>
      <trkpt lat="29.63762000" lon="82.11576000">
        <ele>3556.0000</ele>
        <time>2010-01-01T01:24:36Z</time>
      </trkpt>
      <trkpt lat="29.63796000" lon="82.11560000">
        <ele>3558.0000</ele>
        <time>2010-01-01T01:25:05Z</time>
      </trkpt>
      <trkpt lat="29.63840000" lon="82.11515000">
        <ele>3567.0000</ele>
        <time>2010-01-01T01:25:52Z</time>
      </trkpt>
      <trkpt lat="29.63874000" lon="82.11510000">
        <ele>3577.0000</ele>
        <time>2010-01-01T01:26:20Z</time>
      </trkpt>
      <trkpt lat="29.63935000" lon="82.11496000">
        <ele>3582.0000</ele>
        <time>2010-01-01T01:27:10Z</time>
      </trkpt>
      <trkpt lat="29.63946000" lon="82.11464000">
        <ele>3578.0000</ele>
        <time>2010-01-01T01:27:34Z</time>
      </trkpt>
      <trkpt lat="29.63958000" lon="82.11434000">
        <ele>3569.0000</ele>
        <time>2010-01-01T01:27:57Z</time>
      </trkpt>
      <trkpt lat="29.63961000" lon="82.11429000">
        <ele>3567.0000</ele>
        <time>2010-01-01T01:28:01Z</time>
      </trkpt>
      <trkpt lat="29.63976000" lon="82.11449000">
        <ele>3570.0000</ele>
        <time>2010-01-01T01:28:19Z</time>
      </trkpt>
      <trkpt lat="29.64024000" lon="82.11450000">
        <ele>3557.0000</ele>
        <time>2010-01-01T01:28:58Z</time>
      </trkpt>
      <trkpt lat="29.64073000" lon="82.11432000">
        <ele>3537.0000</ele>
        <time>2010-01-01T01:29:39Z</time>
      </trkpt>
      <trkpt lat="29.64102000" lon="82.11449000">
        <ele>3534.0000</ele>
        <time>2010-01-01T01:30:05Z</time>
      </trkpt>
      <trkpt lat="29.64113000" lon="82.11435000">
        <ele>3526.0000</ele>
        <time>2010-01-01T01:30:18Z</time>
      </trkpt>
      <trkpt lat="29.64184000" lon="82.11424000">
        <ele>3503.0000</ele>
        <time>2010-01-01T01:31:15Z</time>
      </trkpt>
      <trkpt lat="29.64203000" lon="82.11428000">
        <ele>3500.0000</ele>
        <time>2010-01-01T01:31:31Z</time>
      </trkpt>
      <trkpt lat="29.64213000" lon="82.11423000">
        <ele>3498.0000</ele>
        <time>2010-01-01T01:31:40Z</time>
      </trkpt>
      <trkpt lat="29.64346000" lon="82.11451000">
        <ele>3428.0000</ele>
        <time>2010-01-01T01:33:28Z</time>
      </trkpt>
      <trkpt lat="29.64373000" lon="82.11496000">
        <ele>3417.0000</ele>
        <time>2010-01-01T01:34:06Z</time>
      </trkpt>
      <trkpt lat="29.64453000" lon="82.11477000">
        <ele>3375.0000</ele>
        <time>2010-01-01T01:35:11Z</time>
      </trkpt>
      <trkpt lat="29.64490000" lon="82.11492000">
        <ele>3360.0000</ele>
        <time>2010-01-01T01:35:43Z</time>
      </trkpt>
      <trkpt lat="29.64617000" lon="82.11443000">
        <ele>3303.0000</ele>
        <time>2010-01-01T01:37:30Z</time>
      </trkpt>
      <trkpt lat="29.64666000" lon="82.11400000">
        <ele>3292.0000</ele>
        <time>2010-01-01T01:38:19Z</time>
      </trkpt>
      <trkpt lat="29.64711000" lon="82.11454000">
        <ele>3267.0000</ele>
        <time>2010-01-01T01:39:11Z</time>
      </trkpt>
      <trkpt lat="29.64794000" lon="82.11428000">
        <ele>3230.0000</ele>
        <time>2010-01-01T01:40:20Z</time>
      </trkpt>
      <trkpt lat="29.64803000" lon="82.11426000">
        <ele>3227.0000</ele>
        <time>2010-01-01T01:40:28Z</time>
      </trkpt>
      <trkpt lat="29.64937000" lon="82.11500000">
        <ele>3162.0000</ele>
        <time>2010-01-01T01:42:27Z</time>
      </trkpt>
      <trkpt lat="29.64992000" lon="82.11459000">
        <ele>3135.0000</ele>
        <time>2010-01-01T01:43:19Z</time>
      </trkpt>
      <trkpt lat="29.65015000" lon="82.11499000">
        <ele>3126.0000</ele>
        <time>2010-01-01T01:43:52Z</time>
      </trkpt>
      <trkpt lat="29.65069000" lon="82.11463000">
        <ele>3087.0000</ele>
        <time>2010-01-01T01:44:42Z</time>
      </trkpt>
      <trkpt lat="29.65113000" lon="82.11523000">
        <ele>3069.0000</ele>
        <time>2010-01-01T01:45:37Z</time>
      </trkpt>
      <trkpt lat="29.65149000" lon="82.11490000">
        <ele>3052.0000</ele>
        <time>2010-01-01T01:46:14Z</time>
      </trkpt>
      <trkpt lat="29.65269000" lon="82.11544000">
        <ele>3029.0000</ele>
        <time>2010-01-01T01:47:57Z</time>
      </trkpt>
      <trkpt lat="29.65303000" lon="82.11548000">
        <ele>3013.0000</ele>
        <time>2010-01-01T01:48:24Z</time>
      </trkpt>
      <trkpt lat="29.65349000" lon="82.11543000">
        <ele>3003.0000</ele>
        <time>2010-01-01T01:49:01Z</time>
      </trkpt>
      <trkpt lat="29.65443000" lon="82.11446000">
        <ele>3008.0000</ele>
        <time>2010-01-01T01:50:42Z</time>
      </trkpt>
      <trkpt lat="29.65532000" lon="82.11340000">
        <ele>3033.0000</ele>
        <time>2010-01-01T01:52:25Z</time>
      </trkpt>
      <trkpt lat="29.65599000" lon="82.11224000">
        <ele>3070.0000</ele>
        <time>2010-01-01T01:54:02Z</time>
      </trkpt>
      <trkpt lat="29.65647000" lon="82.11212000">
        <ele>3075.0000</ele>
        <time>2010-01-01T01:54:41Z</time>
      </trkpt>
      <trkpt lat="29.65726000" lon="82.11206000">
        <ele>3072.0000</ele>
        <time>2010-01-01T01:55:45Z</time>
      </trkpt>
      <trkpt lat="29.65745000" lon="82.11214000">
        <ele>3071.0000</ele>
        <time>2010-01-01T01:56:01Z</time>
      </trkpt>
      <trkpt lat="29.65762000" lon="82.11229000">
        <ele>3077.0000</ele>
        <time>2010-01-01T01:56:18Z</time>
      </trkpt>
      <trkpt lat="29.65795000" lon="82.11220000">
        <ele>3084.0000</ele>
        <time>2010-01-01T01:56:45Z</time>
      </trkpt>
      <trkpt lat="29.65805000" lon="82.11198000">
        <ele>3081.0000</ele>
        <time>2010-01-01T01:57:02Z</time>
      </trkpt>
      <trkpt lat="29.65823000" lon="82.11171000">
        <ele>3085.0000</ele>
        <time>2010-01-01T01:57:26Z</time>
      </trkpt>
      <trkpt lat="29.65849000" lon="82.11140000">
        <ele>3087.0000</ele>
        <time>2010-01-01T01:57:56Z</time>
      </trkpt>
      <trkpt lat="29.65929000" lon="82.11077000">
        <ele>3110.0000</ele>
        <time>2010-01-01T01:59:14Z</time>
      </trkpt>
      <trkpt lat="29.65936128" lon="82.11070060">
        <ele>3111.0000</ele>
        <time>2010-01-01T00:00:00Z</time>
      </trkpt>
      <trkpt lat="29.65937000" lon="82.11071000">
        <ele>3112.0000</ele>
        <time>2010-01-01T00:00:00Z</time>
      </trkpt>
      <trkpt lat="29.65978000" lon="82.11039000">
        <ele>3121.0000</ele>
        <time>2010-01-01T00:00:20Z</time>
      </trkpt>
      <trkpt lat="29.65983000" lon="82.11038000">
        <ele>3124.0000</ele>
        <time>2010-01-01T00:00:22Z</time>
      </trkpt>
      <trkpt lat="29.66005000" lon="82.11003000">
        <ele>3120.0000</ele>
        <time>2010-01-01T00:00:37Z</time>
      </trkpt>
      <trkpt lat="29.66043000" lon="82.10997000">
        <ele>3141.0000</ele>
        <time>2010-01-01T00:00:52Z</time>
      </trkpt>
      <trkpt lat="29.66075000" lon="82.10964000">
        <ele>3150.0000</ele>
        <time>2010-01-01T00:01:09Z</time>
      </trkpt>
      <trkpt lat="29.66144000" lon="82.10979000">
        <ele>3169.0000</ele>
        <time>2010-01-01T00:01:38Z</time>
      </trkpt>
      <trkpt lat="29.66224000" lon="82.10980000">
        <ele>3209.0000</ele>
        <time>2010-01-01T00:02:10Z</time>
      </trkpt>
      <trkpt lat="29.66250000" lon="82.10920000">
        <ele>3205.0000</ele>
        <time>2010-01-01T00:02:33Z</time>
      </trkpt>
      <trkpt lat="29.66279000" lon="82.10911000">
        <ele>3221.0000</ele>
        <time>2010-01-01T00:02:45Z</time>
      </trkpt>
      <trkpt lat="29.66291000" lon="82.10888000">
        <ele>3221.0000</ele>
        <time>2010-01-01T00:02:54Z</time>
      </trkpt>
      <trkpt lat="29.66326000" lon="82.10864000">
        <ele>3229.0000</ele>
        <time>2010-01-01T00:03:11Z</time>
      </trkpt>
      <trkpt lat="29.66366000" lon="82.10833000">
        <ele>3239.0000</ele>
        <time>2010-01-01T00:03:30Z</time>
      </trkpt>
      <trkpt lat="29.66379000" lon="82.10830000">
        <ele>3242.0000</ele>
        <time>2010-01-01T00:03:35Z</time>
      </trkpt>
      <trkpt lat="29.66395000" lon="82.10831000">
        <ele>3243.0000</ele>
        <time>2010-01-01T00:03:42Z</time>
      </trkpt>
      <trkpt lat="29.66404000" lon="82.10842000">
        <ele>3245.0000</ele>
        <time>2010-01-01T00:03:47Z</time>
      </trkpt>
      <trkpt lat="29.66423000" lon="82.10830000">
        <ele>3240.0000</ele>
        <time>2010-01-01T00:03:55Z</time>
      </trkpt>
      <trkpt lat="29.66455000" lon="82.10831000">
        <ele>3235.0000</ele>
        <time>2010-01-01T00:04:08Z</time>
      </trkpt>
      <trkpt lat="29.66504000" lon="82.10839000">
        <ele>3223.0000</ele>
        <time>2010-01-01T00:04:28Z</time>
      </trkpt>
      <trkpt lat="29.66587000" lon="82.10831000">
        <ele>3214.0000</ele>
        <time>2010-01-01T00:05:01Z</time>
      </trkpt>
      <trkpt lat="29.66623000" lon="82.10817000">
        <ele>3201.0000</ele>
        <time>2010-01-01T00:05:17Z</time>
      </trkpt>
      <trkpt lat="29.66669000" lon="82.10838000">
        <ele>3187.0000</ele>
        <time>2010-01-01T00:05:36Z</time>
      </trkpt>
      <trkpt lat="29.66779000" lon="82.10871000">
        <ele>3137.0000</ele>
        <time>2010-01-01T00:06:22Z</time>
      </trkpt>
      <trkpt lat="29.66923000" lon="82.10929000">
        <ele>3102.0000</ele>
        <time>2010-01-01T00:07:23Z</time>
      </trkpt>
      <trkpt lat="29.66987000" lon="82.10903000">
        <ele>3085.0000</ele>
        <time>2010-01-01T00:07:50Z</time>
      </trkpt>
      <trkpt lat="29.67074000" lon="82.10794000">
        <ele>3071.0000</ele>
        <time>2010-01-01T00:08:42Z</time>
      </trkpt>
      <trkpt lat="29.67121000" lon="82.10730000">
        <ele>3061.0000</ele>
        <time>2010-01-01T00:09:11Z</time>
      </trkpt>
      <trkpt lat="29.67200000" lon="82.10706000">
        <ele>3056.0000</ele>
        <time>2010-01-01T00:09:44Z</time>
      </trkpt>
      <trkpt lat="29.67332000" lon="82.10643000">
        <ele>3024.0000</ele>
        <time>2010-01-01T00:10:41Z</time>
      </trkpt>
      <trkpt lat="29.67487000" lon="82.10569000">
        <ele>2993.0000</ele>
        <time>2010-01-01T00:11:48Z</time>
      </trkpt>
      <trkpt lat="29.67514000" lon="82.10567000">
        <ele>2991.0000</ele>
        <time>2010-01-01T00:11:59Z</time>
      </trkpt>
      <trkpt lat="29.67642000" lon="82.10514000">
        <ele>2969.0000</ele>
        <time>2010-01-01T00:12:53Z</time>
      </trkpt>
      <trkpt lat="29.67723000" lon="82.10528000">
        <ele>2956.0000</ele>
        <time>2010-01-01T00:13:26Z</time>
      </trkpt>
      <trkpt lat="29.67755000" lon="82.10515000">
        <ele>2949.0000</ele>
        <time>2010-01-01T00:13:40Z</time>
      </trkpt>
      <trkpt lat="29.67802000" lon="82.10474000">
        <ele>2945.0000</ele>
        <time>2010-01-01T00:14:03Z</time>
      </trkpt>
      <trkpt lat="29.67824000" lon="82.10457000">
        <ele>2947.0000</ele>
        <time>2010-01-01T00:14:14Z</time>
      </trkpt>
      <trkpt lat="29.67862000" lon="82.10481000">
        <ele>2939.0000</ele>
        <time>2010-01-01T00:14:31Z</time>
      </trkpt>
      <trkpt lat="29.67941000" lon="82.10463000">
        <ele>2899.0000</ele>
        <time>2010-01-01T00:15:03Z</time>
      </trkpt>
      <trkpt lat="29.68079000" lon="82.10435000">
        <ele>2860.0000</ele>
        <time>2010-01-01T00:15:59Z</time>
      </trkpt>
      <trkpt lat="29.68146000" lon="82.10486000">
        <ele>2822.0000</ele>
        <time>2010-01-01T00:16:32Z</time>
      </trkpt>
      <trkpt lat="29.68183000" lon="82.10440000">
        <ele>2810.0000</ele>
        <time>2010-01-01T00:16:53Z</time>
      </trkpt>
      <trkpt lat="29.68244000" lon="82.10471000">
        <ele>2761.0000</ele>
        <time>2010-01-01T00:17:20Z</time>
      </trkpt>
      <trkpt lat="29.68256000" lon="82.10435000">
        <ele>2758.0000</ele>
        <time>2010-01-01T00:17:34Z</time>
      </trkpt>
      <trkpt lat="29.68274000" lon="82.10457000">
        <ele>2749.0000</ele>
        <time>2010-01-01T00:17:44Z</time>
      </trkpt>
      <trkpt lat="29.68374000" lon="82.10422000">
        <ele>2691.0000</ele>
        <time>2010-01-01T00:18:26Z</time>
      </trkpt>
      <trkpt lat="29.68431000" lon="82.10408000">
        <ele>2670.0000</ele>
        <time>2010-01-01T00:18:49Z</time>
      </trkpt>
      <trkpt lat="29.68446000" lon="82.10393000">
        <ele>2660.0000</ele>
        <time>2010-01-01T00:18:57Z</time>
      </trkpt>
      <trkpt lat="29.68528000" lon="82.10538000">
        <ele>2620.0000</ele>
        <time>2010-01-01T00:19:57Z</time>
      </trkpt>
      <trkpt lat="29.68570000" lon="82.10487000">
        <ele>2597.0000</ele>
        <time>2010-01-01T00:20:22Z</time>
      </trkpt>
      <trkpt lat="29.68616000" lon="82.10403000">
        <ele>2598.0000</ele>
        <time>2010-01-01T00:20:56Z</time>
      </trkpt>
      <trkpt lat="29.68639000" lon="82.10341000">
        <ele>2584.0000</ele>
        <time>2010-01-01T00:21:20Z</time>
      </trkpt>
      <trkpt lat="29.68682000" lon="82.10289000">
        <ele>2600.0000</ele>
        <time>2010-01-01T00:21:45Z</time>
      </trkpt>
      <trkpt lat="29.68693000" lon="82.10286000">
        <ele>2608.0000</ele>
        <time>2010-01-01T00:21:49Z</time>
      </trkpt>
      <trkpt lat="29.68715000" lon="82.10282000">
        <ele>2618.0000</ele>
        <time>2010-01-01T00:21:58Z</time>
      </trkpt>
      <trkpt lat="29.68746000" lon="82.10226000">
        <ele>2606.0000</ele>
        <time>2010-01-01T00:22:21Z</time>
      </trkpt>
      <trkpt lat="29.68877000" lon="82.10145000">
        <ele>2634.0000</ele>
        <time>2010-01-01T00:23:21Z</time>
      </trkpt>
      <trkpt lat="29.68917000" lon="82.10103000">
        <ele>2643.0000</ele>
        <time>2010-01-01T00:23:42Z</time>
      </trkpt>
      <trkpt lat="29.68986000" lon="82.10085000">
        <ele>2665.0000</ele>
        <time>2010-01-01T00:24:11Z</time>
      </trkpt>
      <trkpt lat="29.69067000" lon="82.09999000">
        <ele>2694.0000</ele>
        <time>2010-01-01T00:24:55Z</time>
      </trkpt>
      <trkpt lat="29.69093000" lon="82.09900000">
        <ele>2687.0000</ele>
        <time>2010-01-01T00:25:31Z</time>
      </trkpt>
      <trkpt lat="29.69123000" lon="82.09868000">
        <ele>2697.0000</ele>
        <time>2010-01-01T00:25:47Z</time>
      </trkpt>
      <trkpt lat="29.69146000" lon="82.09827000">
        <ele>2701.0000</ele>
        <time>2010-01-01T00:26:04Z</time>
      </trkpt>
      <trkpt lat="29.69194000" lon="82.09812000">
        <ele>2713.0000</ele>
        <time>2010-01-01T00:26:24Z</time>
      </trkpt>
      <trkpt lat="29.69204000" lon="82.09789000">
        <ele>2708.0000</ele>
        <time>2010-01-01T00:26:33Z</time>
      </trkpt>
      <trkpt lat="29.69283000" lon="82.09873000">
        <ele>2667.0000</ele>
        <time>2010-01-01T00:27:16Z</time>
      </trkpt>
      <trkpt lat="29.69380000" lon="82.09886000">
        <ele>2618.0000</ele>
        <time>2010-01-01T00:27:55Z</time>
      </trkpt>
      <trkpt lat="29.69466000" lon="82.09914000">
        <ele>2616.0000</ele>
        <time>2010-01-01T00:28:31Z</time>
      </trkpt>
      <trkpt lat="29.69574000" lon="82.10003000">
        <ele>2604.0000</ele>
        <time>2010-01-01T00:29:24Z</time>
      </trkpt>
      <trkpt lat="29.69648000" lon="82.09989000">
        <ele>2587.0000</ele>
        <time>2010-01-01T00:29:54Z</time>
      </trkpt>
      <trkpt lat="29.69737000" lon="82.09936000">
        <ele>2583.0000</ele>
        <time>2010-01-01T00:30:34Z</time>
      </trkpt>
      <trkpt lat="29.69817000" lon="82.09933000">
        <ele>2557.0000</ele>
        <time>2010-01-01T00:31:06Z</time>
      </trkpt>
      <trkpt lat="29.69870000" lon="82.09983000">
        <ele>2544.0000</ele>
        <time>2010-01-01T00:31:34Z</time>
      </trkpt>
      <trkpt lat="29.69942000" lon="82.09999000">
        <ele>2521.0000</ele>
        <time>2010-01-01T00:32:03Z</time>
      </trkpt>
      <trkpt lat="29.70071000" lon="82.09965000">
        <ele>2478.0000</ele>
        <time>2010-01-01T00:32:56Z</time>
      </trkpt>
      <trkpt lat="29.70142000" lon="82.09953000">
        <ele>2452.0000</ele>
        <time>2010-01-01T00:33:25Z</time>
      </trkpt>
      <trkpt lat="29.70202000" lon="82.10017000">
        <ele>2455.0000</ele>
        <time>2010-01-01T00:33:58Z</time>
      </trkpt>
      <trkpt lat="29.70219000" lon="82.09984000">
        <ele>2453.0000</ele>
        <time>2010-01-01T00:34:11Z</time>
      </trkpt>
      <trkpt lat="29.70224000" lon="82.09961000">
        <ele>2456.0000</ele>
        <time>2010-01-01T00:34:19Z</time>
      </trkpt>
      <trkpt lat="29.70196000" lon="82.09937000">
        <ele>2446.0000</ele>
        <time>2010-01-01T00:34:33Z</time>
      </trkpt>
      <trkpt lat="29.70174000" lon="82.09880000">
        <ele>2445.0000</ele>
        <time>2010-01-01T00:34:55Z</time>
      </trkpt>
      <trkpt lat="29.70177000" lon="82.09816000">
        <ele>2451.0000</ele>
        <time>2010-01-01T00:35:17Z</time>
      </trkpt>
      <trkpt lat="29.70167000" lon="82.09785000">
        <ele>2452.0000</ele>
        <time>2010-01-01T00:35:29Z</time>
      </trkpt>
      <trkpt lat="29.70172000" lon="82.09743000">
        <ele>2462.0000</ele>
        <time>2010-01-01T00:35:43Z</time>
      </trkpt>
      <trkpt lat="29.70170000" lon="82.09726000">
        <ele>2458.0000</ele>
        <time>2010-01-01T00:35:49Z</time>
      </trkpt>
      <trkpt lat="29.70160000" lon="82.09713000">
        <ele>2448.0000</ele>
        <time>2010-01-01T00:35:55Z</time>
      </trkpt>
      <trkpt lat="29.70163000" lon="82.09703000">
        <ele>2449.0000</ele>
        <time>2010-01-01T00:35:59Z</time>
      </trkpt>
      <trkpt lat="29.70179000" lon="82.09693000">
        <ele>2455.0000</ele>
        <time>2010-01-01T00:36:06Z</time>
      </trkpt>
      <trkpt lat="29.70202000" lon="82.09660000">
        <ele>2464.0000</ele>
        <time>2010-01-01T00:36:21Z</time>
      </trkpt>
      <trkpt lat="29.70195000" lon="82.09637000">
        <ele>2460.0000</ele>
        <time>2010-01-01T00:36:29Z</time>
      </trkpt>
      <trkpt lat="29.70203000" lon="82.09617000">
        <ele>2464.0000</ele>
        <time>2010-01-01T00:36:37Z</time>
      </trkpt>
      <trkpt lat="29.70214000" lon="82.09610000">
        <ele>2470.0000</ele>
        <time>2010-01-01T00:36:42Z</time>
      </trkpt>
      <trkpt lat="29.70220000" lon="82.09586000">
        <ele>2473.0000</ele>
        <time>2010-01-01T00:36:51Z</time>
      </trkpt>
      <trkpt lat="29.70220000" lon="82.09545000">
        <ele>2481.0000</ele>
        <time>2010-01-01T00:37:05Z</time>
      </trkpt>
      <trkpt lat="29.70214000" lon="82.09516000">
        <ele>2477.0000</ele>
        <time>2010-01-01T00:37:15Z</time>
      </trkpt>
      <trkpt lat="29.70217000" lon="82.09504000">
        <ele>2477.0000</ele>
        <time>2010-01-01T00:37:20Z</time>
      </trkpt>
      <trkpt lat="29.70255000" lon="82.09475000">
        <ele>2494.0000</ele>
        <time>2010-01-01T00:37:38Z</time>
      </trkpt>
      <trkpt lat="29.70260000" lon="82.09461000">
        <ele>2495.0000</ele>
        <time>2010-01-01T00:37:43Z</time>
      </trkpt>
      <trkpt lat="29.70279000" lon="82.09453000">
        <ele>2507.0000</ele>
        <time>2010-01-01T00:37:51Z</time>
      </trkpt>
      <trkpt lat="29.70285000" lon="82.09412000">
        <ele>2503.0000</ele>
        <time>2010-01-01T00:38:06Z</time>
      </trkpt>
      <trkpt lat="29.70296000" lon="82.09376000">
        <ele>2505.0000</ele>
        <time>2010-01-01T00:38:19Z</time>
      </trkpt>
      <trkpt lat="29.70321000" lon="82.09333000">
        <ele>2520.0000</ele>
        <time>2010-01-01T00:38:37Z</time>
      </trkpt>
      <trkpt lat="29.70336000" lon="82.09324000">
        <ele>2530.0000</ele>
        <time>2010-01-01T00:38:44Z</time>
      </trkpt>
      <trkpt lat="29.70338000" lon="82.09293000">
        <ele>2525.0000</ele>
        <time>2010-01-01T00:38:55Z</time>
      </trkpt>
      <trkpt lat="29.70371000" lon="82.09213000">
        <ele>2532.0000</ele>
        <time>2010-01-01T00:39:26Z</time>
      </trkpt>
      <trkpt lat="29.70393000" lon="82.09138000">
        <ele>2534.0000</ele>
        <time>2010-01-01T00:39:53Z</time>
      </trkpt>
      <trkpt lat="29.70412000" lon="82.09112000">
        <ele>2539.0000</ele>
        <time>2010-01-01T00:40:05Z</time>
      </trkpt>
      <trkpt lat="29.70427000" lon="82.09083000">
        <ele>2535.0000</ele>
        <time>2010-01-01T00:40:17Z</time>
      </trkpt>
      <trkpt lat="29.70446000" lon="82.09060000">
        <ele>2536.0000</ele>
        <time>2010-01-01T00:40:28Z</time>
      </trkpt>
      <trkpt lat="29.70467000" lon="82.09047000">
        <ele>2543.0000</ele>
        <time>2010-01-01T00:40:37Z</time>
      </trkpt>
      <trkpt lat="29.70490000" lon="82.09038000">
        <ele>2553.0000</ele>
        <time>2010-01-01T00:40:47Z</time>
      </trkpt>
      <trkpt lat="29.70495000" lon="82.09025000">
        <ele>2551.0000</ele>
        <time>2010-01-01T00:40:52Z</time>
      </trkpt>
      <trkpt lat="29.70496000" lon="82.09002000">
        <ele>2544.0000</ele>
        <time>2010-01-01T00:41:00Z</time>
      </trkpt>
      <trkpt lat="29.70494000" lon="82.08972000">
        <ele>2537.0000</ele>
        <time>2010-01-01T00:41:10Z</time>
      </trkpt>
      <trkpt lat="29.70495000" lon="82.08953000">
        <ele>2536.0000</ele>
        <time>2010-01-01T00:41:17Z</time>
      </trkpt>
      <trkpt lat="29.70506000" lon="82.08944000">
        <ele>2539.0000</ele>
        <time>2010-01-01T00:41:22Z</time>
      </trkpt>
      <trkpt lat="29.70524000" lon="82.08944000">
        <ele>2543.0000</ele>
        <time>2010-01-01T00:41:30Z</time>
      </trkpt>
      <trkpt lat="29.70567000" lon="82.08959000">
        <ele>2547.0000</ele>
        <time>2010-01-01T00:41:48Z</time>
      </trkpt>
      <trkpt lat="29.70611000" lon="82.08965000">
        <ele>2536.0000</ele>
        <time>2010-01-01T00:42:05Z</time>
      </trkpt>
      <trkpt lat="29.70652000" lon="82.08996000">
        <ele>2529.0000</ele>
        <time>2010-01-01T00:42:25Z</time>
      </trkpt>
      <trkpt lat="29.70671000" lon="82.09020000">
        <ele>2527.0000</ele>
        <time>2010-01-01T00:42:36Z</time>
      </trkpt>
      <trkpt lat="29.70702000" lon="82.09055000">
        <ele>2515.0000</ele>
        <time>2010-01-01T00:42:54Z</time>
      </trkpt>
      <trkpt lat="29.70711000" lon="82.09097000">
        <ele>2512.0000</ele>
        <time>2010-01-01T00:43:09Z</time>
      </trkpt>
      <trkpt lat="29.70710000" lon="82.09131000">
        <ele>2518.0000</ele>
        <time>2010-01-01T00:43:20Z</time>
      </trkpt>
      <trkpt lat="29.70702000" lon="82.09174000">
        <ele>2521.0000</ele>
        <time>2010-01-01T00:43:36Z</time>
      </trkpt>
      <trkpt lat="29.70705000" lon="82.09211000">
        <ele>2513.0000</ele>
        <time>2010-01-01T00:43:49Z</time>
      </trkpt>
      <trkpt lat="29.70700000" lon="82.09230000">
        <ele>2518.0000</ele>
        <time>2010-01-01T00:43:56Z</time>
      </trkpt>
      <trkpt lat="29.70697000" lon="82.09252000">
        <ele>2529.0000</ele>
        <time>2010-01-01T00:44:03Z</time>
      </trkpt>
      <trkpt lat="29.70704000" lon="82.09271000">
        <ele>2536.0000</ele>
        <time>2010-01-01T00:44:10Z</time>
      </trkpt>
      <trkpt lat="29.70734000" lon="82.09295000">
        <ele>2531.0000</ele>
        <time>2010-01-01T00:44:25Z</time>
      </trkpt>
      <trkpt lat="29.70786000" lon="82.09342000">
        <ele>2545.0000</ele>
        <time>2010-01-01T00:44:52Z</time>
      </trkpt>
      <trkpt lat="29.70893000" lon="82.09380000">
        <ele>2557.0000</ele>
        <time>2010-01-01T00:45:36Z</time>
      </trkpt>
      <trkpt lat="29.70949000" lon="82.09392000">
        <ele>2552.0000</ele>
        <time>2010-01-01T00:45:59Z</time>
      </trkpt>
      <trkpt lat="29.71010000" lon="82.09398000">
        <ele>2537.0000</ele>
        <time>2010-01-01T00:46:24Z</time>
      </trkpt>
      <trkpt lat="29.71077000" lon="82.09432000">
        <ele>2559.0000</ele>
        <time>2010-01-01T00:46:53Z</time>
      </trkpt>
      <trkpt lat="29.71088000" lon="82.09385000">
        <ele>2555.0000</ele>
        <time>2010-01-01T00:47:10Z</time>
      </trkpt>
      <trkpt lat="29.71081000" lon="82.09366000">
        <ele>2549.0000</ele>
        <time>2010-01-01T00:47:17Z</time>
      </trkpt>
      <trkpt lat="29.71096000" lon="82.09340000">
        <ele>2558.0000</ele>
        <time>2010-01-01T00:47:28Z</time>
      </trkpt>
      <trkpt lat="29.71098000" lon="82.09325000">
        <ele>2557.0000</ele>
        <time>2010-01-01T00:47:33Z</time>
      </trkpt>
      <trkpt lat="29.71109000" lon="82.09312000">
        <ele>2560.0000</ele>
        <time>2010-01-01T00:47:40Z</time>
      </trkpt>
      <trkpt lat="29.71128000" lon="82.09300000">
        <ele>2567.0000</ele>
        <time>2010-01-01T00:47:48Z</time>
      </trkpt>
      <trkpt lat="29.71157000" lon="82.09274000">
        <ele>2568.0000</ele>
        <time>2010-01-01T00:48:03Z</time>
      </trkpt>
      <trkpt lat="29.71160000" lon="82.09264000">
        <ele>2566.0000</ele>
        <time>2010-01-01T00:48:07Z</time>
      </trkpt>
      <trkpt lat="29.71154000" lon="82.09254000">
        <ele>2560.0000</ele>
        <time>2010-01-01T00:48:11Z</time>
      </trkpt>
      <trkpt lat="29.71166000" lon="82.09239000">
        <ele>2560.0000</ele>
        <time>2010-01-01T00:48:18Z</time>
      </trkpt>
      <trkpt lat="29.71191000" lon="82.09237000">
        <ele>2565.0000</ele>
        <time>2010-01-01T00:48:28Z</time>
      </trkpt>
      <trkpt lat="29.71217000" lon="82.09199000">
        <ele>2557.0000</ele>
        <time>2010-01-01T00:48:45Z</time>
      </trkpt>
      <trkpt lat="29.71256000" lon="82.09180000">
        <ele>2552.0000</ele>
        <time>2010-01-01T00:49:02Z</time>
      </trkpt>
      <trkpt lat="29.71293000" lon="82.09142000">
        <ele>2543.0000</ele>
        <time>2010-01-01T00:49:22Z</time>
      </trkpt>
      <trkpt lat="29.71327000" lon="82.09068000">
        <ele>2537.0000</ele>
        <time>2010-01-01T00:49:51Z</time>
      </trkpt>
      <trkpt lat="29.71375000" lon="82.09017000">
        <ele>2537.0000</ele>
        <time>2010-01-01T00:50:17Z</time>
      </trkpt>
      <trkpt lat="29.71395000" lon="82.08999000">
        <ele>2540.0000</ele>
        <time>2010-01-01T00:50:27Z</time>
      </trkpt>
      <trkpt lat="29.71402000" lon="82.08988000">
        <ele>2542.0000</ele>
        <time>2010-01-01T00:50:32Z</time>
      </trkpt>
      <trkpt lat="29.71411000" lon="82.08959000">
        <ele>2540.0000</ele>
        <time>2010-01-01T00:50:42Z</time>
      </trkpt>
      <trkpt lat="29.71469000" lon="82.08891000">
        <ele>2541.0000</ele>
        <time>2010-01-01T00:51:16Z</time>
      </trkpt>
      <trkpt lat="29.71485000" lon="82.08878000">
        <ele>2545.0000</ele>
        <time>2010-01-01T00:51:23Z</time>
      </trkpt>
      <trkpt lat="29.71493000" lon="82.08862000">
        <ele>2543.0000</ele>
        <time>2010-01-01T00:51:30Z</time>
      </trkpt>
      <trkpt lat="29.71493000" lon="82.08849000">
        <ele>2539.0000</ele>
        <time>2010-01-01T00:51:34Z</time>
      </trkpt>
      <trkpt lat="29.71510000" lon="82.08810000">
        <ele>2539.0000</ele>
        <time>2010-01-01T00:51:50Z</time>
      </trkpt>
      <trkpt lat="29.71510000" lon="82.08777000">
        <ele>2536.0000</ele>
        <time>2010-01-01T00:52:01Z</time>
      </trkpt>
      <trkpt lat="29.71513000" lon="82.08758000">
        <ele>2535.0000</ele>
        <time>2010-01-01T00:52:08Z</time>
      </trkpt>
      <trkpt lat="29.71521000" lon="82.08735000">
        <ele>2534.0000</ele>
        <time>2010-01-01T00:52:16Z</time>
      </trkpt>
      <trkpt lat="29.71538000" lon="82.08723000">
        <ele>2541.0000</ele>
        <time>2010-01-01T00:52:24Z</time>
      </trkpt>
      <trkpt lat="29.71550000" lon="82.08703000">
        <ele>2542.0000</ele>
        <time>2010-01-01T00:52:33Z</time>
      </trkpt>
      <trkpt lat="29.71576000" lon="82.08703000">
        <ele>2557.0000</ele>
        <time>2010-01-01T00:52:43Z</time>
      </trkpt>
      <trkpt lat="29.71591000" lon="82.08688000">
        <ele>2557.0000</ele>
        <time>2010-01-01T00:52:51Z</time>
      </trkpt>
      <trkpt lat="29.71632000" lon="82.08671000">
        <ele>2557.0000</ele>
        <time>2010-01-01T00:53:09Z</time>
      </trkpt>
      <trkpt lat="29.71672000" lon="82.08669000">
        <ele>2559.0000</ele>
        <time>2010-01-01T00:53:25Z</time>
      </trkpt>
      <trkpt lat="29.71680000" lon="82.08670000">
        <ele>2566.0000</ele>
        <time>2010-01-01T00:53:28Z</time>
      </trkpt>
      <trkpt lat="29.71682000" lon="82.08623000">
        <ele>2542.0000</ele>
        <time>2010-01-01T00:53:44Z</time>
      </trkpt>
      <trkpt lat="29.71713000" lon="82.08571000">
        <ele>2541.0000</ele>
        <time>2010-01-01T00:54:06Z</time>
      </trkpt>
      <trkpt lat="29.71737000" lon="82.08545000">
        <ele>2542.0000</ele>
        <time>2010-01-01T00:54:19Z</time>
      </trkpt>
      <trkpt lat="29.71740000" lon="82.08492000">
        <ele>2530.0000</ele>
        <time>2010-01-01T00:54:38Z</time>
      </trkpt>
      <trkpt lat="29.71759000" lon="82.08464000">
        <ele>2538.0000</ele>
        <time>2010-01-01T00:54:50Z</time>
      </trkpt>
      <trkpt lat="29.71760000" lon="82.08445000">
        <ele>2536.0000</ele>
        <time>2010-01-01T00:54:57Z</time>
      </trkpt>
      <trkpt lat="29.71761000" lon="82.08438000">
        <ele>2536.0000</ele>
        <time>2010-01-01T00:54:59Z</time>
      </trkpt>
      <trkpt lat="29.71747000" lon="82.08408000">
        <ele>2522.0000</ele>
        <time>2010-01-01T00:55:11Z</time>
      </trkpt>
      <trkpt lat="29.71760000" lon="82.08306000">
        <ele>2510.0000</ele>
        <time>2010-01-01T00:55:47Z</time>
      </trkpt>
      <trkpt lat="29.71801000" lon="82.08253000">
        <ele>2523.0000</ele>
        <time>2010-01-01T00:56:12Z</time>
      </trkpt>
      <trkpt lat="29.71822000" lon="82.08197000">
        <ele>2516.0000</ele>
        <time>2010-01-01T00:56:33Z</time>
      </trkpt>
      <trkpt lat="29.71832000" lon="82.08148000">
        <ele>2509.0000</ele>
        <time>2010-01-01T00:56:50Z</time>
      </trkpt>
      <trkpt lat="29.71860000" lon="82.08074000">
        <ele>2521.0000</ele>
        <time>2010-01-01T00:57:18Z</time>
      </trkpt>
      <trkpt lat="29.71835000" lon="82.08025000">
        <ele>2505.0000</ele>
        <time>2010-01-01T00:57:38Z</time>
      </trkpt>
      <trkpt lat="29.71846000" lon="82.07974000">
        <ele>2508.0000</ele>
        <time>2010-01-01T00:57:56Z</time>
      </trkpt>
      <trkpt lat="29.71847000" lon="82.07941000">
        <ele>2517.0000</ele>
        <time>2010-01-01T00:58:08Z</time>
      </trkpt>
      <trkpt lat="29.71836000" lon="82.07893000">
        <ele>2521.0000</ele>
        <time>2010-01-01T00:58:25Z</time>
      </trkpt>
      <trkpt lat="29.71825000" lon="82.07865000">
        <ele>2517.0000</ele>
        <time>2010-01-01T00:58:36Z</time>
      </trkpt>
      <trkpt lat="29.71826000" lon="82.07839000">
        <ele>2523.0000</ele>
        <time>2010-01-01T00:58:45Z</time>
      </trkpt>
      <trkpt lat="29.71831000" lon="82.07825000">
        <ele>2529.0000</ele>
        <time>2010-01-01T00:58:50Z</time>
      </trkpt>
      <trkpt lat="29.71799000" lon="82.07785000">
        <ele>2516.0000</ele>
        <time>2010-01-01T00:59:09Z</time>
      </trkpt>
      <trkpt lat="29.71784000" lon="82.07754000">
        <ele>2517.0000</ele>
        <time>2010-01-01T00:59:21Z</time>
      </trkpt>
      <trkpt lat="29.71781000" lon="82.07731000">
        <ele>2519.0000</ele>
        <time>2010-01-01T00:59:29Z</time>
      </trkpt>
      <trkpt lat="29.71770000" lon="82.07696000">
        <ele>2518.0000</ele>
        <time>2010-01-01T00:59:42Z</time>
      </trkpt>
      <trkpt lat="29.71765000" lon="82.07658000">
        <ele>2512.0000</ele>
        <time>2010-01-01T00:59:56Z</time>
      </trkpt>
      <trkpt lat="29.71770000" lon="82.07640000">
        <ele>2508.0000</ele>
        <time>2010-01-01T01:00:02Z</time>
      </trkpt>
      <trkpt lat="29.71779000" lon="82.07625000">
        <ele>2505.0000</ele>
        <time>2010-01-01T01:00:09Z</time>
      </trkpt>
      <trkpt lat="29.71794000" lon="82.07612000">
        <ele>2502.0000</ele>
        <time>2010-01-01T01:00:16Z</time>
      </trkpt>
      <trkpt lat="29.71865000" lon="82.07560000">
        <ele>2488.0000</ele>
        <time>2010-01-01T01:00:50Z</time>
      </trkpt>
      <trkpt lat="29.71880000" lon="82.07542000">
        <ele>2484.0000</ele>
        <time>2010-01-01T01:00:58Z</time>
      </trkpt>
      <trkpt lat="29.71965000" lon="82.07495000">
        <ele>2475.0000</ele>
        <time>2010-01-01T01:01:36Z</time>
      </trkpt>
      <trkpt lat="29.72010000" lon="82.07442000">
        <ele>2457.0000</ele>
        <time>2010-01-01T01:02:02Z</time>
      </trkpt>
      <trkpt lat="29.72038000" lon="82.07425000">
        <ele>2457.0000</ele>
        <time>2010-01-01T01:02:15Z</time>
      </trkpt>
      <trkpt lat="29.72092000" lon="82.07440000">
        <ele>2448.0000</ele>
        <time>2010-01-01T01:02:37Z</time>
      </trkpt>
      <trkpt lat="29.72138000" lon="82.07455000">
        <ele>2428.0000</ele>
        <time>2010-01-01T01:02:56Z</time>
      </trkpt>
      <trkpt lat="29.72203000" lon="82.07463000">
        <ele>2408.0000</ele>
        <time>2010-01-01T01:03:22Z</time>
      </trkpt>
      <trkpt lat="29.72251000" lon="82.07508000">
        <ele>2400.0000</ele>
        <time>2010-01-01T01:03:47Z</time>
      </trkpt>
      <trkpt lat="29.72308000" lon="82.07522000">
        <ele>2379.0000</ele>
        <time>2010-01-01T01:04:10Z</time>
      </trkpt>
      <trkpt lat="29.72365000" lon="82.07546000">
        <ele>2365.0000</ele>
        <time>2010-01-01T01:04:35Z</time>
      </trkpt>
      <trkpt lat="29.72410000" lon="82.07560000">
        <ele>2364.0000</ele>
        <time>2010-01-01T01:04:53Z</time>
      </trkpt>
      <trkpt lat="29.72459000" lon="82.07560000">
        <ele>2368.0000</ele>
        <time>2010-01-01T01:05:13Z</time>
      </trkpt>
      <trkpt lat="29.72465000" lon="82.07558000">
        <ele>2366.0000</ele>
        <time>2010-01-01T01:05:15Z</time>
      </trkpt>
      <trkpt lat="29.72472000" lon="82.07550000">
        <ele>2361.0000</ele>
        <time>2010-01-01T01:05:19Z</time>
      </trkpt>
      <trkpt lat="29.72492000" lon="82.07546000">
        <ele>2356.0000</ele>
        <time>2010-01-01T01:05:27Z</time>
      </trkpt>
      <trkpt lat="29.72510000" lon="82.07550000">
        <ele>2358.0000</ele>
        <time>2010-01-01T01:05:35Z</time>
      </trkpt>
      <trkpt lat="29.72517000" lon="82.07545000">
        <ele>2354.0000</ele>
        <time>2010-01-01T01:05:38Z</time>
      </trkpt>
      <trkpt lat="29.72550000" lon="82.07533000">
        <ele>2325.0000</ele>
        <time>2010-01-01T01:05:52Z</time>
      </trkpt>
      <trkpt lat="29.72593000" lon="82.07523000">
        <ele>2341.0000</ele>
        <time>2010-01-01T01:06:09Z</time>
      </trkpt>
      <trkpt lat="29.72666000" lon="82.07513000">
        <ele>2337.0000</ele>
        <time>2010-01-01T01:06:39Z</time>
      </trkpt>
      <trkpt lat="29.72686000" lon="82.07497000">
        <ele>2337.0000</ele>
        <time>2010-01-01T01:06:49Z</time>
      </trkpt>
      <trkpt lat="29.72688000" lon="82.07489000">
        <ele>2332.0000</ele>
        <time>2010-01-01T01:06:52Z</time>
      </trkpt>
      <trkpt lat="29.72704000" lon="82.07478000">
        <ele>2329.0000</ele>
        <time>2010-01-01T01:06:59Z</time>
      </trkpt>
      <trkpt lat="29.72725000" lon="82.07451000">
        <ele>2304.0000</ele>
        <time>2010-01-01T01:07:12Z</time>
      </trkpt>
      <trkpt lat="29.72765000" lon="82.07431000">
        <ele>2299.0000</ele>
        <time>2010-01-01T01:07:29Z</time>
      </trkpt>
      <trkpt lat="29.72812000" lon="82.07433000">
        <ele>2306.0000</ele>
        <time>2010-01-01T01:07:48Z</time>
      </trkpt>
      <trkpt lat="29.72833000" lon="82.07407000">
        <ele>2294.0000</ele>
        <time>2010-01-01T01:08:00Z</time>
      </trkpt>
      <trkpt lat="29.72869000" lon="82.07389000">
        <ele>2301.0000</ele>
        <time>2010-01-01T01:08:16Z</time>
      </trkpt>
      <trkpt lat="29.72912000" lon="82.07360000">
        <ele>2297.0000</ele>
        <time>2010-01-01T01:08:36Z</time>
      </trkpt>
      <trkpt lat="29.72916000" lon="82.07355000">
        <ele>2295.0000</ele>
        <time>2010-01-01T01:08:38Z</time>
      </trkpt>
      <trkpt lat="29.72944000" lon="82.07319000">
        <ele>2291.0000</ele>
        <time>2010-01-01T01:08:55Z</time>
      </trkpt>
      <trkpt lat="29.72979000" lon="82.07282000">
        <ele>2296.0000</ele>
        <time>2010-01-01T01:09:14Z</time>
      </trkpt>
      <trkpt lat="29.72984000" lon="82.07244000">
        <ele>2275.0000</ele>
        <time>2010-01-01T01:09:27Z</time>
      </trkpt>
      <trkpt lat="29.72997000" lon="82.07220000">
        <ele>2270.0000</ele>
        <time>2010-01-01T01:09:37Z</time>
      </trkpt>
      <trkpt lat="29.73014000" lon="82.07201000">
        <ele>2270.0000</ele>
        <time>2010-01-01T01:09:47Z</time>
      </trkpt>
      <trkpt lat="29.73024000" lon="82.07164000">
        <ele>2265.0000</ele>
        <time>2010-01-01T01:10:00Z</time>
      </trkpt>
      <trkpt lat="29.73045000" lon="82.07076000">
        <ele>2244.0000</ele>
        <time>2010-01-01T01:10:32Z</time>
      </trkpt>
      <trkpt lat="29.73054000" lon="82.07053000">
        <ele>2245.0000</ele>
        <time>2010-01-01T01:10:41Z</time>
      </trkpt>
      <trkpt lat="29.73073000" lon="82.06949000">
        <ele>2234.0000</ele>
        <time>2010-01-01T01:11:18Z</time>
      </trkpt>
      <trkpt lat="29.73086000" lon="82.06938000">
        <ele>2238.0000</ele>
        <time>2010-01-01T01:11:24Z</time>
      </trkpt>
      <trkpt lat="29.73101000" lon="82.06932000">
        <ele>2237.0000</ele>
        <time>2010-01-01T01:11:30Z</time>
      </trkpt>
      <trkpt lat="29.73111000" lon="82.06897000">
        <ele>2239.0000</ele>
        <time>2010-01-01T01:11:43Z</time>
      </trkpt>
      <trkpt lat="29.73121000" lon="82.06900000">
        <ele>2230.0000</ele>
        <time>2010-01-01T01:11:47Z</time>
      </trkpt>
      <trkpt lat="29.73133000" lon="82.06915000">
        <ele>2216.0000</ele>
        <time>2010-01-01T01:11:55Z</time>
      </trkpt>
      <trkpt lat="29.73138000" lon="82.06942000">
        <ele>2215.0000</ele>
        <time>2010-01-01T01:12:04Z</time>
      </trkpt>
      <trkpt lat="29.73139000" lon="82.06990000">
        <ele>2219.0000</ele>
        <time>2010-01-01T01:12:21Z</time>
      </trkpt>
      <trkpt lat="29.73160000" lon="82.07036000">
        <ele>2215.0000</ele>
        <time>2010-01-01T01:12:39Z</time>
      </trkpt>
      <trkpt lat="29.73198000" lon="82.07077000">
        <ele>2201.0000</ele>
        <time>2010-01-01T01:13:00Z</time>
      </trkpt>
      <trkpt lat="29.73235000" lon="82.07091000">
        <ele>2196.0000</ele>
        <time>2010-01-01T01:13:15Z</time>
      </trkpt>
      <trkpt lat="29.73261000" lon="82.07079000">
        <ele>2190.0000</ele>
        <time>2010-01-01T01:13:27Z</time>
      </trkpt>
      <trkpt lat="29.73301000" lon="82.07077000">
        <ele>2181.0000</ele>
        <time>2010-01-01T01:13:43Z</time>
      </trkpt>
      <trkpt lat="29.73325000" lon="82.07095000">
        <ele>2178.0000</ele>
        <time>2010-01-01T01:13:54Z</time>
      </trkpt>
      <trkpt lat="29.73356000" lon="82.07145000">
        <ele>2179.0000</ele>
        <time>2010-01-01T01:14:15Z</time>
      </trkpt>
      <trkpt lat="29.73379000" lon="82.07176000">
        <ele>2172.0000</ele>
        <time>2010-01-01T01:14:30Z</time>
      </trkpt>
      <trkpt lat="29.73393000" lon="82.07205000">
        <ele>2166.0000</ele>
        <time>2010-01-01T01:14:41Z</time>
      </trkpt>
      <trkpt lat="29.73416000" lon="82.07218000">
        <ele>2162.0000</ele>
        <time>2010-01-01T01:14:51Z</time>
      </trkpt>
      <trkpt lat="29.73465000" lon="82.07234000">
        <ele>2161.0000</ele>
        <time>2010-01-01T01:15:12Z</time>
      </trkpt>
      <trkpt lat="29.73494000" lon="82.07232000">
        <ele>2153.0000</ele>
        <time>2010-01-01T01:15:23Z</time>
      </trkpt>
      <trkpt lat="29.73542000" lon="82.07261000">
        <ele>2149.0000</ele>
        <time>2010-01-01T01:15:45Z</time>
      </trkpt>
      <trkpt lat="29.73601000" lon="82.07270000">
        <ele>2138.0000</ele>
        <time>2010-01-01T01:16:09Z</time>
      </trkpt>
      <trkpt lat="29.73731000" lon="82.07309000">
        <ele>2134.0000</ele>
        <time>2010-01-01T01:17:03Z</time>
      </trkpt>
      <trkpt lat="29.73757000" lon="82.07322000">
        <ele>2132.0000</ele>
        <time>2010-01-01T01:17:14Z</time>
      </trkpt>
      <trkpt lat="29.73801000" lon="82.07320000">
        <ele>2128.0000</ele>
        <time>2010-01-01T01:17:32Z</time>
      </trkpt>
      <trkpt lat="29.73850000" lon="82.07322000">
        <ele>2130.0000</ele>
        <time>2010-01-01T01:17:51Z</time>
      </trkpt>
      <trkpt lat="29.73880000" lon="82.07336000">
        <ele>2132.0000</ele>
        <time>2010-01-01T01:18:04Z</time>
      </trkpt>
      <trkpt lat="29.73928000" lon="82.07364000">
        <ele>2133.0000</ele>
        <time>2010-01-01T01:18:26Z</time>
      </trkpt>
      <trkpt lat="29.73961000" lon="82.07358000">
        <ele>2130.0000</ele>
        <time>2010-01-01T01:18:39Z</time>
      </trkpt>
      <trkpt lat="29.73989000" lon="82.07335000">
        <ele>2132.0000</ele>
        <time>2010-01-01T01:18:53Z</time>
      </trkpt>
      <trkpt lat="29.74012000" lon="82.07298000">
        <ele>2124.0000</ele>
        <time>2010-01-01T01:19:09Z</time>
      </trkpt>
      <trkpt lat="29.74042000" lon="82.07268000">
        <ele>2126.0000</ele>
        <time>2010-01-01T01:19:25Z</time>
      </trkpt>
      <trkpt lat="29.74062000" lon="82.07254000">
        <ele>2126.0000</ele>
        <time>2010-01-01T01:19:34Z</time>
      </trkpt>
      <trkpt lat="29.74104000" lon="82.07213000">
        <ele>2113.0000</ele>
        <time>2010-01-01T01:19:56Z</time>
      </trkpt>
      <trkpt lat="29.74146000" lon="82.07186000">
        <ele>2113.0000</ele>
        <time>2010-01-01T01:20:15Z</time>
      </trkpt>
      <trkpt lat="29.74162000" lon="82.07139000">
        <ele>2104.0000</ele>
        <time>2010-01-01T01:20:33Z</time>
      </trkpt>
      <trkpt lat="29.74188000" lon="82.07099000">
        <ele>2094.0000</ele>
        <time>2010-01-01T01:20:50Z</time>
      </trkpt>
      <trkpt lat="29.74203000" lon="82.07070000">
        <ele>2085.0000</ele>
        <time>2010-01-01T01:21:02Z</time>
      </trkpt>
      <trkpt lat="29.74211000" lon="82.07059000">
        <ele>2079.0000</ele>
        <time>2010-01-01T01:21:07Z</time>
      </trkpt>
      <trkpt lat="29.74215000" lon="82.07064000">
        <ele>2080.0000</ele>
        <time>2010-01-01T01:21:09Z</time>
      </trkpt>
      <trkpt lat="29.74226000" lon="82.07165000">
        <ele>2079.0000</ele>
        <time>2010-01-01T01:21:45Z</time>
      </trkpt>
      <trkpt lat="29.74277000" lon="82.07271000">
        <ele>2056.0000</ele>
        <time>2010-01-01T01:22:27Z</time>
      </trkpt>
      <trkpt lat="29.74366000" lon="82.07248000">
        <ele>2002.0000</ele>
        <time>2010-01-01T01:23:03Z</time>
      </trkpt>
      <trkpt lat="29.74441000" lon="82.07199000">
        <ele>1962.0000</ele>
        <time>2010-01-01T01:23:38Z</time>
      </trkpt>
      <trkpt lat="29.74465000" lon="82.07232000">
        <ele>1965.0000</ele>
        <time>2010-01-01T01:23:53Z</time>
      </trkpt>
      <trkpt lat="29.74473000" lon="82.07214000">
        <ele>1957.0000</ele>
        <time>2010-01-01T01:24:00Z</time>
      </trkpt>
      <trkpt lat="29.74566000" lon="82.07207000">
        <ele>1891.0000</ele>
        <time>2010-01-01T01:24:37Z</time>
      </trkpt>
      <trkpt lat="29.74691000" lon="82.07110000">
        <ele>1809.0000</ele>
        <time>2010-01-01T01:25:37Z</time>
      </trkpt>
      <trkpt lat="29.74763000" lon="82.07019000">
        <ele>1741.0000</ele>
        <time>2010-01-01T01:26:20Z</time>
      </trkpt>
      <trkpt lat="29.74794000" lon="82.07032000">
        <ele>1731.0000</ele>
        <time>2010-01-01T01:26:33Z</time>
      </trkpt>
      <trkpt lat="29.74827000" lon="82.07019000">
        <ele>1715.0000</ele>
        <time>2010-01-01T01:26:47Z</time>
      </trkpt>
      <trkpt lat="29.74844000" lon="82.07011000">
        <ele>1706.0000</ele>
        <time>2010-01-01T01:26:55Z</time>
      </trkpt>
      <trkpt lat="29.74850000" lon="82.06996000">
        <ele>1700.0000</ele>
        <time>2010-01-01T01:27:00Z</time>
      </trkpt>
      <trkpt lat="29.74909000" lon="82.07027000">
        <ele>1695.0000</ele>
        <time>2010-01-01T01:27:26Z</time>
      </trkpt>
      <trkpt lat="29.74983000" lon="82.07036000">
        <ele>1654.0000</ele>
        <time>2010-01-01T01:27:56Z</time>
      </trkpt>
      <trkpt lat="29.75030000" lon="82.07102000">
        <ele>1644.0000</ele>
        <time>2010-01-01T01:28:26Z</time>
      </trkpt>
      <trkpt lat="29.75084000" lon="82.07075000">
        <ele>1636.0000</ele>
        <time>2010-01-01T01:28:49Z</time>
      </trkpt>
      <trkpt lat="29.75077000" lon="82.06998000">
        <ele>1655.0000</ele>
        <time>2010-01-01T01:29:16Z</time>
      </trkpt>
      <trkpt lat="29.75101000" lon="82.07012000">
        <ele>1663.0000</ele>
        <time>2010-01-01T01:29:27Z</time>
      </trkpt>
      <trkpt lat="29.75118000" lon="82.06992000">
        <ele>1677.0000</ele>
        <time>2010-01-01T01:29:37Z</time>
      </trkpt>
      <trkpt lat="29.75139000" lon="82.06984000">
        <ele>1686.0000</ele>
        <time>2010-01-01T01:29:46Z</time>
      </trkpt>
      <trkpt lat="29.75169000" lon="82.06948000">
        <ele>1698.0000</ele>
        <time>2010-01-01T01:30:03Z</time>
      </trkpt>
      <trkpt lat="29.75184000" lon="82.06939000">
        <ele>1704.0000</ele>
        <time>2010-01-01T01:30:10Z</time>
      </trkpt>
      <trkpt lat="29.75207000" lon="82.06857000">
        <ele>1722.0000</ele>
        <time>2010-01-01T01:30:40Z</time>
      </trkpt>
      <trkpt lat="29.75186000" lon="82.06815000">
        <ele>1720.0000</ele>
        <time>2010-01-01T01:30:57Z</time>
      </trkpt>
      <trkpt lat="29.75154000" lon="82.06728000">
        <ele>1719.0000</ele>
        <time>2010-01-01T01:31:29Z</time>
      </trkpt>
      <trkpt lat="29.75147000" lon="82.06690000">
        <ele>1720.0000</ele>
        <time>2010-01-01T01:31:43Z</time>
      </trkpt>
      <trkpt lat="29.75128000" lon="82.06629000">
        <ele>1720.0000</ele>
        <time>2010-01-01T01:32:05Z</time>
      </trkpt>
      <trkpt lat="29.75045000" lon="82.06538000">
        <ele>1727.0000</ele>
        <time>2010-01-01T01:32:51Z</time>
      </trkpt>
      <trkpt lat="29.75028000" lon="82.06496000">
        <ele>1738.0000</ele>
        <time>2010-01-01T01:33:07Z</time>
      </trkpt>
      <trkpt lat="29.74996000" lon="82.06466000">
        <ele>1734.0000</ele>
        <time>2010-01-01T01:33:24Z</time>
      </trkpt>
      <trkpt lat="29.74981000" lon="82.06441000">
        <ele>1734.0000</ele>
        <time>2010-01-01T01:33:35Z</time>
      </trkpt>
      <trkpt lat="29.74951000" lon="82.06398000">
        <ele>1733.0000</ele>
        <time>2010-01-01T01:33:54Z</time>
      </trkpt>
      <trkpt lat="29.74950000" lon="82.06390000">
        <ele>1733.0000</ele>
        <time>2010-01-01T01:33:57Z</time>
      </trkpt>
      <trkpt lat="29.74932000" lon="82.06346000">
        <ele>1733.0000</ele>
        <time>2010-01-01T01:34:13Z</time>
      </trkpt>
    </trkseg>
  </trk>
</gpx>
